Provisional Data: West Branch Susquehanna River near Milton, PA


Please select a monitoring station.
Please select start date.
Please select start date.

Toggle Unit: C/F Toggle Unit: C/F
Sample Time Temperature (C) Temperature (F) Specific Conductivity (mS/cm) pH   Turbidity (NTU+) DO (mg/L)
3/7/2021 12:00:00 AM 99.31 210.758 13 6.58 2.82 7.62
3/7/2021 12:15:00 AM 99.21 210.578 13 6.4 2.83 7.62
3/7/2021 12:30:00 AM 99.21 210.578 13 6.47 2.82 7.62
3/7/2021 12:45:00 AM 99.14 210.452 13 6.43 2.81 7.62
3/7/2021 1:00:00 AM 99.1 210.38 13 6.23 2.81 7.62
3/7/2021 1:15:00 AM 99.04 210.272 13 5.95 2.8 7.62
3/7/2021 1:30:00 AM 99.04 210.272 13 6.39 2.79 7.62
3/7/2021 1:45:00 AM 98.93 210.074 13 6.07 2.78 7.62
3/7/2021 2:00:00 AM 98.92 210.056 13 6.46 2.77 7.62
3/7/2021 2:15:00 AM 98.72 209.696 13 6.35 2.76 7.61
3/7/2021 2:30:00 AM 98.83 209.894 13 7.47 2.77 7.62
3/7/2021 2:45:00 AM 98.71 209.678 13 5.8 2.73 7.62
3/7/2021 3:00:00 AM 98.7 209.66 13 6.03 2.71 7.62
3/7/2021 3:15:00 AM 98.61 209.498 13 6.44 2.69 7.62
3/7/2021 3:30:00 AM 98.58 209.444 13 6.49 2.68 7.61
3/7/2021 3:45:00 AM 98.49 209.282 13 5.92 2.66 7.61
3/7/2021 4:00:00 AM 98.43 209.174 13 6.17 2.64 7.61
3/7/2021 4:15:00 AM 98.44 209.192 13 6.54 2.62 7.61
3/7/2021 4:30:00 AM 98.34 209.012 13 6.05 2.6 7.61
3/7/2021 4:45:00 AM 98.32 208.976 13 6.13 2.58 7.61
3/7/2021 5:00:00 AM 98.22 208.796 13 6.12 2.56 7.61
3/7/2021 5:15:00 AM 98.2 208.76 13 6.64 2.54 7.61
3/7/2021 5:30:00 AM 98.11 208.598 13 7.24 2.51 7.61
3/7/2021 5:45:00 AM 99.77 211.586 14 3.94 2.58 7.54
3/7/2021 6:00:00 AM 98.64 209.552 13 4.96 2.52 7.56
3/7/2021 6:15:00 AM 98.05 208.49 13 6.42 2.45 7.6
3/7/2021 6:30:00 AM 97.89 208.202 13 6.64 2.41 7.61
3/7/2021 6:45:00 AM 97.93 208.274 13 6.01 2.39 7.61
3/7/2021 7:00:00 AM 97.77 207.986 13 6.05 2.36 7.61
3/7/2021 7:15:00 AM 97.7 207.86 13 6.24 2.34 7.61
3/7/2021 7:30:00 AM 97.66 207.788 13 6.15 2.31 7.61
3/7/2021 7:45:00 AM 97.78 208.004 13 6.53 2.29 7.61
3/7/2021 8:00:00 AM 97.64 207.752 13 5.98 2.27 7.61
3/7/2021 8:15:00 AM 97.59 207.662 13 5.98 2.25 7.61
3/7/2021 8:30:00 AM 97.69 207.842 13 5.74 2.24 7.61
3/7/2021 8:45:00 AM 97.64 207.752 13 5.97 2.23 7.61
3/7/2021 9:00:00 AM 97.78 208.004 13 5.86 2.23 7.61
3/7/2021 9:15:00 AM 97.69 207.842 13 6.01 2.23 7.61
3/7/2021 9:30:00 AM 97.81 208.058 13 6.96 2.23 7.61
3/7/2021 9:45:00 AM 97.81 208.058 13 6.44 2.24 7.61
3/7/2021 10:00:00 AM 98.04 208.472 13 5.38 2.26 7.61
3/7/2021 10:15:00 AM 98.65 209.57 14 5.96 2.37 7.61
3/7/2021 10:30:00 AM 99.77 211.586 14 3.85 2.52 7.56
3/7/2021 10:45:00 AM 98.62 209.516 13 5.59 2.4 7.59
3/7/2021 11:00:00 AM 98.58 209.444 13 5.64 2.39 7.61
3/7/2021 11:15:00 AM 98.68 209.624 13 5.75 2.43 7.61
3/7/2021 11:30:00 AM 98.86 209.948 13 6.16 2.47 7.61
3/7/2021 11:45:00 AM 99.05 210.29 14 5.84 2.52 7.61
3/7/2021 12:00:00 PM 99.31 210.758 14 6.28 2.57 7.62
3/7/2021 12:15:00 PM 99.48 211.064 14 5.87 2.62 7.62
3/7/2021 12:30:00 PM 99.69 211.442 14 5.63 2.67 7.62
3/7/2021 12:45:00 PM 99.85 211.73 14 6.16 2.72 7.62
3/7/2021 1:00:00 PM 100.04 212.072 14 5.95 2.77 7.62
3/7/2021 1:15:00 PM 100.27 212.486 14 5.77 2.83 7.63
3/7/2021 1:30:00 PM 100.45 212.81 14 5.76 2.88 7.63
3/7/2021 1:45:00 PM 100.62 213.116 14 5.61 2.93 7.63
3/7/2021 2:00:00 PM 100.79 213.422 14 5.32 2.97 7.63
3/7/2021 2:15:00 PM 100.96 213.728 14 5.47 3.02 7.63
3/7/2021 2:30:00 PM 101.14 214.052 14 5.53 3.06 7.63
3/7/2021 2:45:00 PM 101.26 214.268 14 5.54 3.11 7.64
3/7/2021 3:00:00 PM 101.47 214.646 14 5.38 3.15 7.64
3/7/2021 3:15:00 PM 101.63 214.934 14 5.91 3.18 7.64
3/7/2021 3:30:00 PM 101.77 215.186 14 5.52 3.21 7.64
3/7/2021 3:45:00 PM 101.83 215.294 14 5.6 3.24 7.64
3/7/2021 4:00:00 PM 101.91 215.438 14 5.29 3.26 7.64
3/7/2021 4:15:00 PM 102.03 215.654 14 6.19 3.29 7.65
3/7/2021 4:30:00 PM 102.12 215.816 14 5.4 3.31 7.65
3/7/2021 4:45:00 PM 102.18 215.924 14 5.38 3.32 7.65
3/7/2021 5:00:00 PM 102.24 216.032 14 5.55 3.33 7.65
3/7/2021 5:15:00 PM 102.28 216.104 14 5.47 3.34 7.66
3/7/2021 5:30:00 PM 102.34 216.212 14 5.81 3.34 7.66
3/7/2021 5:45:00 PM 102.34 216.212 14 5.2 3.34 7.66
3/7/2021 6:00:00 PM 102.4 216.32 14 5.84 3.34 7.66
3/7/2021 6:15:00 PM 102.35 216.23 14 5.37 3.34 7.66
3/7/2021 6:30:00 PM 102.35 216.23 14 5.7 3.34 7.67
3/7/2021 6:45:00 PM 102.43 216.374 14 5.49 3.33 7.67
3/7/2021 7:00:00 PM 102.39 216.302 14 5.31 3.32 7.67
3/7/2021 7:15:00 PM 102.34 216.212 14 5.02 3.31 7.67
3/7/2021 7:30:00 PM 102.36 216.248 14 6.04 3.3 7.67
3/7/2021 7:45:00 PM 102.34 216.212 14 5.47 3.29 7.67
3/7/2021 8:00:00 PM 102.25 216.05 14 5.58 3.28 7.67
3/7/2021 8:15:00 PM 102.24 216.032 14 5.62 3.27 7.67
3/7/2021 8:30:00 PM 102.19 215.942 14 5.05 3.26 7.67
3/7/2021 8:45:00 PM 102.17 215.906 14 5.18 3.25 7.67
3/7/2021 9:00:00 PM 102.16 215.888 14 5.58 3.24 7.67
3/7/2021 9:15:00 PM 102.1 215.78 14 5.05 3.23 7.67
3/7/2021 9:30:00 PM 102 215.6 14 5.27 3.22 7.67
3/7/2021 9:45:00 PM 101.95 215.51 14 5.25 3.21 7.67
3/7/2021 10:00:00 PM 101.83 215.294 14 5.4 3.2 7.67
3/7/2021 10:15:00 PM 101.85 215.33 14 4.9 3.19 7.67
3/7/2021 10:30:00 PM 101.73 215.114 14 4.91 3.19 7.67
3/7/2021 10:45:00 PM 101.67 215.006 14 5.06 3.18 7.67
3/7/2021 11:00:00 PM 101.6 214.88 14 5.23 3.18 7.67
3/7/2021 11:15:00 PM 101.49 214.682 14 5.15 3.17 7.67
3/7/2021 11:30:00 PM 101.44 214.592 14 5.11 3.16 7.67
3/7/2021 11:45:00 PM 101.35 214.43 14 5.03 3.16 7.66
3/8/2021 12:00:00 AM 101.27 214.286 14 5.09 3.15 7.66
3/8/2021 12:15:00 AM 101.22 214.196 14 5.23 3.14 7.66
3/8/2021 12:30:00 AM 101.13 214.034 14 4.85 3.13 7.66
3/8/2021 12:45:00 AM 101.03 213.854 14 5.04 3.11 7.66
3/8/2021 1:00:00 AM 100.92 213.656 14 4.93 3.1 7.66
3/8/2021 1:15:00 AM 100.85 213.53 14 5.09 3.08 7.66
3/8/2021 1:30:00 AM 100.7 213.26 14 5.05 3.06 7.66
3/8/2021 1:45:00 AM 100.6 213.08 14 4.69 3.04 7.65
3/8/2021 2:00:00 AM 100.52 212.936 14 5.08 3.02 7.65
3/8/2021 2:15:00 AM 100.39 212.702 14 4.89 3 7.65
3/8/2021 2:30:00 AM 100.27 212.486 14 4.59 2.98 7.65
3/8/2021 2:45:00 AM 100.18 212.324 14 5.13 2.95 7.65
3/8/2021 3:00:00 AM 100.07 212.126 13 4.99 2.93 7.65
3/8/2021 3:15:00 AM 99.97 211.946 13 4.97 2.91 7.65
3/8/2021 3:30:00 AM 99.87 211.766 13 5.13 2.88 7.65
3/8/2021 3:45:00 AM 99.75 211.55 13 4.82 2.85 7.64
3/8/2021 4:00:00 AM 99.65 211.37 13 4.77 2.82 7.64
3/8/2021 4:15:00 AM 99.54 211.172 13 5.02 2.79 7.64
3/8/2021 4:30:00 AM 99.48 211.064 13 4.7 2.77 7.64
3/8/2021 4:45:00 AM 99.34 210.812 13 4.73 2.75 7.64
3/8/2021 5:00:00 AM 99.27 210.686 13 4.57 2.72 7.64
3/8/2021 5:15:00 AM 99.15 210.47 13 4.57 2.69 7.63
3/8/2021 5:30:00 AM 99.1 210.38 13 4.59 2.67 7.63
3/8/2021 5:45:00 AM 98.99 210.182 13 4.66 2.64 7.63
3/8/2021 6:00:00 AM 98.91 210.038 13 4.56 2.62 7.63
3/8/2021 6:15:00 AM 98.87 209.966 13 4.73 2.59 7.63
3/8/2021 6:30:00 AM 98.77 209.786 13 4.89 2.56 7.63
3/8/2021 6:45:00 AM 98.69 209.642 13 4.89 2.54 7.63
3/8/2021 7:00:00 AM 98.59 209.462 13 4.67 2.51 7.63
3/8/2021 7:15:00 AM 98.51 209.318 13 4.8 2.48 7.63
3/8/2021 7:30:00 AM 98.49 209.282 13 4.58 2.45 7.63
3/8/2021 7:45:00 AM 98.45 209.21 13 4.68 2.42 7.63
3/8/2021 8:00:00 AM 98.42 209.156 13 5.02 2.4 7.63
3/8/2021 8:15:00 AM 98.36 209.048 13 4.7 2.38 7.62
3/8/2021 8:30:00 AM 98.39 209.102 13 4.32 2.37 7.62
3/8/2021 8:45:00 AM 98.38 209.084 13 4.58 2.36 7.62
3/8/2021 9:00:00 AM 98.52 209.336 13 4.42 2.36 7.62
3/8/2021 9:15:00 AM 98.48 209.264 13 4.4 2.36 7.62
3/8/2021 9:30:00 AM 98.52 209.336 13 4.82 2.36 7.63
3/8/2021 9:45:00 AM 98.64 209.552 14 4.92 2.37 7.62
3/8/2021 10:00:00 AM 98.76 209.768 14 4.58 2.39 7.63
3/8/2021 10:15:00 AM 98.92 210.056 14 4.33 2.41 7.63
3/8/2021 10:30:00 AM 99.03 210.254 14 4.71 2.44 7.63
3/8/2021 10:45:00 AM 99.26 210.668 14 4.44 2.47 7.63
3/8/2021 11:00:00 AM 99.45 211.01 14 4.4 2.51 7.63
3/8/2021 11:15:00 AM 99.64 211.352 14 5.11 2.56 7.63
3/8/2021 11:30:00 AM 99.89 211.802 14 4.73 2.61 7.63
3/8/2021 11:45:00 AM 100.12 212.216 14 4.31 2.66 7.63
3/8/2021 12:00:00 PM 100.34 212.612 14 4.59 2.71 7.64
3/8/2021 12:15:00 PM 100.51 212.918 14 4.67 2.76 7.64
3/8/2021 12:30:00 PM 102.19 215.942 14 4.54 2.94 7.67
3/8/2021 12:45:00 PM 101.66 214.988 14 3.18 2.99 7.53
3/8/2021 1:00:00 PM 101.39 214.502 14 4.33 2.97 7.6
3/8/2021 1:15:00 PM 101.52 214.736 14 4.66 3.02 7.63
3/8/2021 1:30:00 PM 101.71 215.078 14 4.59 3.06 7.64
3/8/2021 1:45:00 PM 101.83 215.294 14 4.35 3.1 7.65
3/8/2021 2:00:00 PM 101.94 215.492 14 4.68 3.12 7.65
3/8/2021 2:15:00 PM 102.11 215.798 14 4.52 3.15 7.65
3/8/2021 2:30:00 PM 102.22 215.996 14 4.5 3.17 7.65
3/8/2021 2:45:00 PM 102.37 216.266 14 4.56 3.21 7.65
3/8/2021 3:00:00 PM 102.47 216.446 14 4.21 3.24 7.66
3/8/2021 3:15:00 PM 102.63 216.734 14 5.18 3.27 7.66
3/8/2021 3:30:00 PM 102.66 216.788 14 4.39 3.28 7.66
3/8/2021 3:45:00 PM 102.75 216.95 14 4.41 3.29 7.66
3/8/2021 4:00:00 PM 102.86 217.148 14 4.36 3.3 7.67
3/8/2021 4:15:00 PM 102.95 217.31 14 4.37 3.31 7.67
3/8/2021 4:30:00 PM 102.9 217.22 14 4.05 3.3 7.67
3/8/2021 4:45:00 PM 102.94 217.292 14 4.6 3.29 7.67
3/8/2021 5:00:00 PM 102.93 217.274 14 4.41 3.28 7.68
3/8/2021 5:15:00 PM 102.87 217.166 14 4.41 3.26 7.68
3/8/2021 5:30:00 PM 102.92 217.256 14 4.54 3.24 7.68
3/8/2021 5:45:00 PM 102.96 217.328 14 4.33 3.22 7.68
3/8/2021 6:00:00 PM 102.89 217.202 14 4.33 3.2 7.69
3/8/2021 6:15:00 PM 102.93 217.274 14 3.99 3.19 7.69
3/8/2021 6:30:00 PM 102.94 217.292 14 4.3 3.18 7.69
3/8/2021 6:45:00 PM 103.01 217.418 14 4.19 3.19 7.69
3/8/2021 7:00:00 PM 102.97 217.346 14 4.49 3.19 7.69
3/8/2021 7:15:00 PM 103.03 217.454 14 4.58 3.2 7.7
3/8/2021 7:30:00 PM 103.1 217.58 14 4.36 3.21 7.7
3/8/2021 7:45:00 PM 103.12 217.616 14 4.75 3.22 7.7
3/8/2021 8:00:00 PM 103.08 217.544 14 4.94 3.23 7.7
3/8/2021 8:15:00 PM 103.17 217.706 14 4.6 3.24 7.7
3/8/2021 8:30:00 PM 103.57 218.426 14 4.07 3.3 7.69
3/8/2021 8:45:00 PM 102.91 217.238 14 2.21 3.25 7.52
3/8/2021 9:00:00 PM 102.81 217.058 14 3.62 3.27 7.58
3/8/2021 9:15:00 PM 102.99 217.382 14 4.07 3.28 7.68
3/8/2021 9:30:00 PM 102.98 217.364 14 4.41 3.28 7.69
3/8/2021 9:45:00 PM 102.77 216.986 14 4.52 3.28 7.69
3/8/2021 10:00:00 PM 102.85 217.13 14 4.93 3.27 7.69
3/8/2021 10:15:00 PM 102.83 217.094 14 5.35 3.27 7.69
3/8/2021 10:30:00 PM 102.81 217.058 14 5.15 3.27 7.7
3/8/2021 10:45:00 PM 102.7 216.86 14 4.16 3.28 7.7
3/8/2021 11:00:00 PM 102.67 216.806 14 4.45 3.28 7.69
3/8/2021 11:15:00 PM 102.64 216.752 14 4.38 3.28 7.69
3/8/2021 11:30:00 PM 102.59 216.662 14 4.76 3.29 7.69
3/8/2021 11:45:00 PM 102.53 216.554 14 4.53 3.29 7.69
3/9/2021 12:00:00 AM 102.53 216.554 14 4.76 3.28 7.69
3/9/2021 12:15:00 AM 102.36 216.248 14 4.36 3.27 7.69
3/9/2021 12:30:00 AM 102.28 216.104 14 4.36 3.26 7.69
3/9/2021 12:45:00 AM 102.14 215.852 14 4.2 3.26 7.68
3/9/2021 1:00:00 AM 102.13 215.834 14 4.24 3.25 7.68
3/9/2021 1:15:00 AM 102.03 215.654 14 4.03 3.25 7.68
3/9/2021 1:30:00 AM 101.96 215.528 14 3.87 3.24 7.68
3/9/2021 1:45:00 AM 102.19 215.942 14 4.44 3.23 7.68
3/9/2021 2:00:00 AM 101.79 215.222 14 4.55 3.22 7.67
3/9/2021 2:15:00 AM 101.67 215.006 14 4.65 3.21 7.67
3/9/2021 2:30:00 AM 101.6 214.88 14 4.05 3.2 7.67
3/9/2021 2:45:00 AM 101.46 214.628 14 3.97 3.18 7.67
3/9/2021 3:00:00 AM 101.37 214.466 14 4.25 3.16 7.66
3/9/2021 3:15:00 AM 101.28 214.304 14 4.5 3.15 7.66
3/9/2021 3:30:00 AM 101.25 214.25 14 4.33 3.13 7.66
3/9/2021 3:45:00 AM 101.06 213.908 14 4.55 3.11 7.66
3/9/2021 4:00:00 AM 100.89 213.602 14 4 3.09 7.65
3/9/2021 4:15:00 AM 100.79 213.422 14 4.09 3.07 7.65
3/9/2021 4:30:00 AM 100.65 213.17 14 3.98 3.05 7.65
3/9/2021 4:45:00 AM 100.56 213.008 14 3.95 3.03 7.64
3/9/2021 5:00:00 AM 100.45 212.81 14 4.45 3.01 7.64
3/9/2021 5:15:00 AM 100.36 212.648 14 3.93 3 7.64
3/9/2021 5:30:00 AM 100.26 212.468 14 3.82 2.98 7.64
3/9/2021 5:45:00 AM 100.15 212.27 13 4.1 2.97 7.64
3/9/2021 6:00:00 AM 100.06 212.108 13 4.22 2.95 7.63
3/9/2021 6:15:00 AM 99.98 211.964 13 4.1 2.93 7.63
3/9/2021 6:30:00 AM 99.86 211.748 13 3.92 2.92 7.63
3/9/2021 6:45:00 AM 99.78 211.604 13 3.97 2.9 7.63
3/9/2021 7:00:00 AM 99.74 211.532 13 3.98 2.89 7.62
3/9/2021 7:15:00 AM 99.66 211.388 13 3.94 2.88 7.62
3/9/2021 7:30:00 AM 99.59 211.262 13 3.61 2.86 7.62
3/9/2021 7:45:00 AM 99.55 211.19 13 3.93 2.86 7.62
3/9/2021 8:00:00 AM 99.53 211.154 13 3.82 2.85 7.61
3/9/2021 8:15:00 AM 99.49 211.082 13 3.84 2.85 7.61
3/9/2021 8:30:00 AM 99.48 211.064 13 3.28 2.85 7.61
3/9/2021 8:45:00 AM 99.54 211.172 13 3.37 2.86 7.61
3/9/2021 9:00:00 AM 99.55 211.19 13 3.19 2.87 7.61
3/9/2021 9:15:00 AM 99.59 211.262 13 3.28 2.88 7.61
3/9/2021 9:30:00 AM 99.69 211.442 13 3.45 2.9 7.61
3/9/2021 9:45:00 AM 99.81 211.658 13 3.45 2.93 7.61
3/9/2021 10:00:00 AM 99.88 211.784 13 3.21 2.96 7.61
3/9/2021 10:15:00 AM 100.04 212.072 13 3.6 2.99 7.61
3/9/2021 10:30:00 AM 100.21 212.378 13 3.33 3.03 7.61
3/9/2021 10:45:00 AM 100.33 212.594 13 3.07 3.08 7.61
3/9/2021 11:00:00 AM 100.55 212.99 13 3.03 3.13 7.61
3/9/2021 11:15:00 AM 100.78 213.404 13 3.46 3.18 7.61
3/9/2021 11:30:00 AM 101.03 213.854 14 3.37 3.23 7.61
3/9/2021 11:45:00 AM 101.14 214.052 14 3.71 3.29 7.62
3/9/2021 12:00:00 PM 101.36 214.448 14 3.24 3.35 7.62
3/9/2021 12:15:00 PM 101.64 214.952 14 3.77 3.41 7.62
3/9/2021 12:30:00 PM 101.88 215.384 14 3.22 3.47 7.62
3/9/2021 12:45:00 PM 102.16 215.888 14 3.26 3.54 7.62
3/9/2021 1:00:00 PM 103.37 218.066 14 2.21 3.55 7.58
3/9/2021 1:15:00 PM 102.53 216.554 14 3.59 3.67 7.6
3/9/2021 1:30:00 PM 102.94 217.292 14 3.82 3.79 7.61
3/9/2021 1:45:00 PM 103.22 217.796 14 3.78 3.87 7.62
3/9/2021 2:00:00 PM 103.5 218.3 14 3.62 3.94 7.63
3/9/2021 2:15:00 PM 103.69 218.642 14 3.94 4 7.63
3/9/2021 2:30:00 PM 103.93 219.074 14 4.5 4.06 7.63
3/9/2021 2:45:00 PM 104.13 219.434 14 3.92 4.12 7.63
3/9/2021 3:00:00 PM 104.34 219.812 14 4.21 4.18 7.63
3/9/2021 3:15:00 PM 104.5 220.1 14 3.69 4.22 7.64
3/9/2021 3:30:00 PM 104.61 220.298 14 3.71 4.26 7.64
3/9/2021 3:45:00 PM 104.74 220.532 14 3.63 4.29 7.64
3/9/2021 4:00:00 PM 104.89 220.802 14 3.23 4.32 7.64
3/9/2021 4:15:00 PM 104.99 220.982 14 2.99 4.34 7.64
3/9/2021 4:30:00 PM 105.14 221.252 14 3.22 4.36 7.65
3/9/2021 4:45:00 PM 105.19 221.342 14 3.25 4.38 7.65
3/9/2021 5:00:00 PM 105.19 221.342 14 3 4.38 7.65
3/9/2021 5:15:00 PM 105.29 221.522 14 3.39 4.39 7.65
3/9/2021 5:30:00 PM 105.32 221.576 14 3.82 4.38 7.65
3/9/2021 5:45:00 PM 105.34 221.612 14 3.38 4.38 7.66
3/9/2021 6:00:00 PM 105.31 221.558 14 3.38 4.36 7.66
3/9/2021 6:15:00 PM 105.24 221.432 14 3.4 4.35 7.66
3/9/2021 6:30:00 PM 105.23 221.414 14 3.38 4.34 7.66
3/9/2021 6:45:00 PM 105.16 221.288 14 3.27 4.32 7.66
3/9/2021 7:00:00 PM 105.15 221.27 14 3.61 4.3 7.66
3/9/2021 7:15:00 PM 105.12 221.216 14 3.41 4.28 7.67
3/9/2021 7:30:00 PM 105.08 221.144 14 3.46 4.26 7.66
3/9/2021 7:45:00 PM 105.04 221.072 14 3.31 4.24 7.67
3/9/2021 8:00:00 PM 104.98 220.964 14 3.27 4.22 7.67
3/9/2021 8:15:00 PM 104.93 220.874 14 3.11 4.19 7.67
3/9/2021 8:30:00 PM 104.64 220.352 14 2.44 4.12 7.68
3/9/2021 8:45:00 PM 104.57 220.226 14 1.61 4.06 7.52
3/9/2021 9:00:00 PM 104.65 220.37 14 3.29 4.12 7.64
3/9/2021 9:15:00 PM 104.65 220.37 14 3.19 4.11 7.66
3/9/2021 9:30:00 PM 104.62 220.316 14 3.36 4.09 7.67
3/9/2021 9:45:00 PM 104.54 220.172 14 2.96 4.07 7.67
3/9/2021 10:00:00 PM 104.46 220.028 14 3.55 4.06 7.67
3/9/2021 10:15:00 PM 104.34 219.812 14 3.4 4.05 7.67
3/9/2021 10:30:00 PM 104.3 219.74 14 3.22 4.04 7.67
3/9/2021 10:45:00 PM 104.27 219.686 14 3.48 4.04 7.67
3/9/2021 11:00:00 PM 104.14 219.452 14 3.35 4.03 7.67
3/9/2021 11:15:00 PM 104.08 219.344 14 3.15 4.03 7.67
3/9/2021 11:30:00 PM 103.99 219.182 14 3.27 4.03 7.67
3/9/2021 11:45:00 PM 103.96 219.128 14 3.26 4.03 7.67
3/10/2021 12:00:00 AM 103.87 218.966 14 3.41 4.03 7.67
3/10/2021 12:15:00 AM 103.76 218.768 14 3.24 4.03 7.67
3/10/2021 12:30:00 AM 103.71 218.678 14 2.92 4.02 7.67
3/10/2021 12:45:00 AM 103.62 218.516 14 3.34 4.02 7.67
3/10/2021 1:00:00 AM 103.57 218.426 14 3.48 4.02 7.66
3/10/2021 1:15:00 AM 103.49 218.282 14 3.1 4.02 7.66
3/10/2021 1:30:00 AM 103.43 218.174 14 3.17 4.01 7.66
3/10/2021 1:45:00 AM 103.35 218.03 14 3.14 4 7.66
3/10/2021 2:00:00 AM 103.25 217.85 14 3.38 3.99 7.66
3/10/2021 2:15:00 AM 103.12 217.616 14 3.51 3.99 7.65
3/10/2021 2:30:00 AM 102.99 217.382 14 3.08 3.97 7.65
3/10/2021 2:45:00 AM 102.88 217.184 14 3.39 3.96 7.65
3/10/2021 3:00:00 AM 102.8 217.04 13 3.71 3.94 7.65
3/10/2021 3:15:00 AM 102.64 216.752 13 3.03 3.93 7.65
3/10/2021 3:30:00 AM 102.54 216.572 13 3.58 3.91 7.64
3/10/2021 3:45:00 AM 102.43 216.374 13 3.6 3.89 7.64
3/10/2021 4:00:00 AM 102.33 216.194 13 3.79 3.87 7.64
3/10/2021 4:15:00 AM 102.23 216.014 13 3.43 3.85 7.64
3/10/2021 4:30:00 AM 102.04 215.672 13 3.11 3.83 7.64
3/10/2021 4:45:00 AM 101.9 215.42 13 3.27 3.8 7.63
3/10/2021 5:00:00 AM 101.77 215.186 13 3.25 3.78 7.63
3/10/2021 5:15:00 AM 101.62 214.916 13 3.64 3.76 7.63
3/10/2021 5:30:00 AM 101.51 214.718 13 3.59 3.74 7.63
3/10/2021 5:45:00 AM 101.35 214.43 13 3.28 3.72 7.63
3/10/2021 6:00:00 AM 101.27 214.286 13 3.22 3.69 7.62
3/10/2021 6:15:00 AM 101.16 214.088 13 3.21 3.67 7.62
3/10/2021 6:30:00 AM 101.02 213.836 13 3.55 3.64 7.62
3/10/2021 6:45:00 AM 100.88 213.584 13 3.17 3.62 7.62
3/10/2021 7:00:00 AM 100.78 213.404 13 3.11 3.6 7.62
3/10/2021 7:15:00 AM 100.7 213.26 13 3.37 3.58 7.61
3/10/2021 7:30:00 AM 100.62 213.116 13 3.37 3.56 7.61
3/10/2021 7:45:00 AM 100.6 213.08 13 3.22 3.54 7.61
3/10/2021 8:00:00 AM 100.51 212.918 13 3.49 3.54 7.61
3/10/2021 8:15:00 AM 100.52 212.936 13 3.19 3.53 7.61
3/10/2021 8:30:00 AM 100.48 212.864 13 3.2 3.52 7.61
3/10/2021 8:45:00 AM 100.51 212.918 13 3.41 3.52 7.61
3/10/2021 9:00:00 AM 100.58 213.044 13 3.18 3.53 7.61
3/10/2021 9:15:00 AM 100.61 213.098 13 3.27 3.55 7.61
3/10/2021 9:30:00 AM 100.65 213.17 13 3.33 3.57 7.61
3/10/2021 9:45:00 AM 100.9 213.62 13 3.52 3.6 7.61
3/10/2021 10:00:00 AM 100.81 213.458 13 3.86 3.64 7.61
3/10/2021 10:15:00 AM 100.98 213.764 13 3.1 3.67 7.61
3/10/2021 10:30:00 AM 101.14 214.052 13 2.87 3.71 7.61
3/10/2021 10:45:00 AM 101.3 214.34 13 2.92 3.76 7.61
3/10/2021 11:00:00 AM 101.5 214.7 13 3.26 3.81 7.62
3/10/2021 11:15:00 AM 101.72 215.096 13 2.98 3.87 7.62
3/10/2021 11:30:00 AM 101.94 215.492 13 3.38 3.93 7.62
3/10/2021 11:45:00 AM 102.17 215.906 13 2.8 4 7.62
3/10/2021 12:00:00 PM 102.4 216.32 13 2.9 4.07 7.62
3/10/2021 12:15:00 PM 102.6 216.68 13 3.09 4.15 7.62
3/10/2021 12:30:00 PM 4.26 39.668 162 7.4 0 6.32
3/10/2021 12:45:00 PM 4.25 39.65 162 7.39 0 6.33
3/10/2021 1:00:00 PM 4.32 39.776 162 7.38 0 6.33
3/10/2021 1:15:00 PM 4.4 39.92 162 7.38 0 6.33
3/10/2021 1:30:00 PM 4.48 40.064 161 7.38 0 6.33
3/10/2021 1:45:00 PM 4.56 40.208 161 7.38 0 6.34
3/10/2021 2:00:00 PM 4.64 40.352 161 7.39 0 6.33
3/10/2021 2:15:00 PM 4.72 40.496 161 7.39 0 6.34
3/10/2021 2:30:00 PM 4.79 40.622 161 7.39 0 6.33
3/10/2021 2:45:00 PM 4.86 40.748 161 7.39 0 6.34
3/10/2021 3:00:00 PM 4.93 40.874 161 7.4 0 6.34
3/10/2021 3:15:00 PM 4.99 40.982 161 7.4 0 6.34
3/10/2021 3:30:00 PM 5.04 41.072 161 7.4 0 6.34
3/10/2021 3:45:00 PM 5.09 41.162 161 7.4 0 6.34
3/10/2021 4:00:00 PM 5.13 41.234 161 7.41 0 6.34
3/10/2021 4:15:00 PM 5.17 41.306 160 7.41 0 6.34
3/10/2021 4:30:00 PM 5.2 41.36 161 7.41 0 6.34
3/10/2021 4:45:00 PM 5.22 41.396 160 7.41 0 6.34
3/10/2021 5:00:00 PM 5.24 41.432 160 7.42 0 6.34
3/10/2021 5:15:00 PM 5.25 41.45 160 7.42 0 6.34
3/10/2021 5:30:00 PM 5.26 41.468 160 7.42 0 6.34
3/10/2021 5:45:00 PM 5.26 41.468 160 7.42 0 6.34
3/10/2021 6:00:00 PM 5.25 41.45 160 7.43 0 6.34
3/10/2021 6:15:00 PM 5.24 41.432 160 7.43 0 6.34
3/10/2021 6:30:00 PM 5.23 41.414 160 7.43 0 6.34
3/10/2021 6:45:00 PM 5.22 41.396 160 7.43 0 6.34
3/10/2021 7:00:00 PM 5.2 41.36 160 7.43 0 6.34
3/10/2021 7:15:00 PM 5.19 41.342 160 7.43 0 6.34
3/10/2021 7:30:00 PM 5.17 41.306 160 7.44 0 6.34
3/10/2021 7:45:00 PM 5.16 41.288 160 7.44 0 6.34
3/10/2021 8:00:00 PM 5.15 41.27 159 7.44 0 6.34
3/10/2021 8:15:00 PM 5.22 41.396 162 7.43 0 6.34
3/10/2021 8:30:00 PM 4.93 40.874 170 7.33 0 6.34
3/10/2021 8:45:00 PM 5.09 41.162 161 7.41 0 6.34
3/10/2021 9:00:00 PM 5.1 41.18 159 7.43 0 6.34
3/10/2021 9:15:00 PM 5.1 41.18 159 7.43 0 6.34
3/10/2021 9:30:00 PM 5.09 41.162 159 7.44 0 6.34
3/10/2021 9:45:00 PM 5.08 41.144 159 7.44 0 6.34
3/10/2021 10:00:00 PM 5.07 41.126 159 7.44 0 6.34
3/10/2021 10:15:00 PM 5.06 41.108 159 7.44 0 6.34
3/10/2021 10:30:00 PM 5.06 41.108 159 7.44 0 6.34
3/10/2021 10:45:00 PM 5.06 41.108 159 7.44 0 6.34
3/10/2021 11:00:00 PM 5.07 41.126 159 7.44 0 6.34
3/10/2021 11:15:00 PM 5.07 41.126 159 7.44 0 6.34
3/10/2021 11:30:00 PM 5.08 41.144 159 7.43 0 6.34
3/10/2021 11:45:00 PM 5.09 41.162 158 7.43 0 6.34
3/11/2021 12:00:00 AM 5.1 41.18 159 7.43 0 6.34
3/11/2021 12:15:00 AM 5.11 41.198 158 7.43 0 6.34
3/11/2021 12:30:00 AM 5.12 41.216 158 7.43 0 6.34
3/11/2021 12:45:00 AM 5.13 41.234 158 7.43 0 6.34
3/11/2021 1:00:00 AM 5.14 41.252 158 7.43 0 6.34
3/11/2021 1:15:00 AM 5.15 41.27 158 7.43 0 6.34
3/11/2021 1:30:00 AM 5.16 41.288 158 7.43 0 6.34
3/11/2021 1:45:00 AM 5.16 41.288 158 7.42 0 6.34
3/11/2021 2:00:00 AM 5.16 41.288 158 7.42 0 6.34
3/11/2021 2:15:00 AM 5.16 41.288 157 7.42 0 6.34
3/11/2021 2:30:00 AM 5.16 41.288 157 7.42 0 6.34
3/11/2021 2:45:00 AM 5.15 41.27 157 7.42 0 6.34
3/11/2021 3:00:00 AM 5.15 41.27 157 7.42 0 6.34
3/11/2021 3:15:00 AM 5.14 41.252 157 7.41 0 6.34
3/11/2021 3:30:00 AM 5.14 41.252 157 7.41 0 6.34
3/11/2021 3:45:00 AM 5.13 41.234 157 7.41 0 6.34
3/11/2021 4:00:00 AM 5.12 41.216 156 7.41 0 6.34
3/11/2021 4:15:00 AM 5.11 41.198 156 7.4 0 6.34
3/11/2021 4:30:00 AM 5.1 41.18 156 7.4 0 6.34
3/11/2021 4:45:00 AM 5.1 41.18 156 7.4 0 6.34
3/11/2021 5:00:00 AM 5.09 41.162 156 7.39 0 6.34
3/11/2021 5:15:00 AM 5.08 41.144 156 7.39 0 6.34
3/11/2021 5:30:00 AM 5.07 41.126 156 7.39 0 6.34
3/11/2021 5:45:00 AM 5.06 41.108 156 7.39 0 6.34
3/11/2021 6:00:00 AM 5.05 41.09 156 7.38 0 6.34
3/11/2021 6:15:00 AM 5.03 41.054 156 7.38 0 6.34
3/11/2021 6:30:00 AM 5.03 41.054 156 7.38 0 6.34
3/11/2021 6:45:00 AM 5.02 41.036 156 7.38 0 6.34
3/11/2021 7:00:00 AM 5.01 41.018 156 7.38 0 6.34
3/11/2021 7:15:00 AM 5 41 156 7.38 0 6.34
3/11/2021 7:30:00 AM 5 41 156 7.37 0 6.34
3/11/2021 7:45:00 AM 4.99 40.982 155 7.37 0 6.35
3/11/2021 8:00:00 AM 4.99 40.982 155 7.37 0 6.35
3/11/2021 8:15:00 AM 4.98 40.964 155 7.37 0 6.34
3/11/2021 8:30:00 AM 4.98 40.964 155 7.37 0 6.34
3/11/2021 8:45:00 AM 4.99 40.982 155 7.37 0 6.34
3/11/2021 9:00:00 AM 5 41 155 7.37 0 6.34
3/11/2021 9:15:00 AM 5.02 41.036 155 7.37 0 6.34
3/11/2021 9:30:00 AM 5.05 41.09 159 7.37 0 6.34
3/11/2021 9:45:00 AM 5 41 162 7.36 0 6.34
3/11/2021 10:00:00 AM 5.09 41.162 156 7.36 0 6.34
3/11/2021 10:15:00 AM 5.07 41.126 163 7.4 0 6.34
3/11/2021 10:30:00 AM 5.08 41.144 166 7.35 0 6.34
3/11/2021 10:45:00 AM 5.19 41.342 157 7.36 0 6.34
3/11/2021 11:00:00 AM 5.28 41.504 154 7.37 0 6.34
3/11/2021 11:15:00 AM 5.35 41.63 154 7.37 0 6.35
3/11/2021 11:30:00 AM 5.41 41.738 154 7.37 0 6.34
3/11/2021 11:45:00 AM 5.48 41.864 153 7.37 0 6.34
3/11/2021 12:00:00 PM 5.55 41.99 153 7.37 0 6.34
3/11/2021 12:15:00 PM 5.62 42.116 153 7.38 0 6.34
3/11/2021 12:30:00 PM 5.69 42.242 154 7.38 0 6.34
3/11/2021 12:45:00 PM 5.77 42.386 153 7.38 0 6.34
3/11/2021 1:00:00 PM 5.84 42.512 153 7.38 0 6.34
3/11/2021 1:15:00 PM 5.91 42.638 153 7.39 0 6.34
3/11/2021 1:30:00 PM 5.98 42.764 153 7.39 0 6.34
3/11/2021 1:45:00 PM 6.03 42.854 153 7.39 0 6.34
3/11/2021 2:00:00 PM 6.06 42.908 153 7.39 0 6.34
3/11/2021 2:15:00 PM 6.08 42.944 153 7.4 0 6.34
3/11/2021 2:30:00 PM 6.09 42.962 152 7.39 0 6.34
3/11/2021 2:45:00 PM 6.09 42.962 152 7.4 0 6.34
3/11/2021 3:00:00 PM 6.08 42.944 152 7.4 0 6.34
3/11/2021 3:15:00 PM 6.11 42.998 152 7.4 0 6.34
3/11/2021 3:30:00 PM 6.16 43.088 152 7.4 0 6.34
3/11/2021 3:45:00 PM 6.2 43.16 152 7.4 0 6.34
3/11/2021 4:00:00 PM 6.21 43.178 152 7.41 0 6.34
3/11/2021 4:15:00 PM 6.19 43.142 152 7.41 0 6.34
3/11/2021 4:30:00 PM 6.17 43.106 151 7.41 0 6.34
3/11/2021 4:45:00 PM 6.16 43.088 151 7.41 0 6.34
3/11/2021 5:00:00 PM 6.14 43.052 151 7.41 0 6.34
3/11/2021 5:15:00 PM 6.1 42.98 150 7.41 0 6.34
3/11/2021 5:30:00 PM 6.08 42.944 150 7.41 0 6.34
3/11/2021 5:45:00 PM 6.07 42.926 150 7.41 0 6.34
3/11/2021 6:00:00 PM 6.08 42.944 150 7.41 0 6.34
3/11/2021 6:15:00 PM 6.08 42.944 149 7.42 0 6.34
3/11/2021 6:30:00 PM 6.08 42.944 149 7.42 0 6.34
3/11/2021 6:45:00 PM 5.97 42.746 157 7.4 0 6.34
3/11/2021 7:00:00 PM 6.06 42.908 150 7.4 0 6.34
3/11/2021 7:15:00 PM 6.1 42.98 148 7.42 0 6.34
3/11/2021 7:30:00 PM 6.12 43.016 148 7.42 0 6.34
3/11/2021 7:45:00 PM 6.14 43.052 147 7.42 0 6.34
3/11/2021 8:00:00 PM 6.16 43.088 147 7.42 0 6.34
3/11/2021 8:15:00 PM 6.17 43.106 147 7.42 0 6.34
3/11/2021 8:30:00 PM 6.19 43.142 146 7.42 0 6.35
3/11/2021 8:45:00 PM 6.2 43.16 146 7.42 0 6.34
3/11/2021 9:00:00 PM 6.2 43.16 146 7.42 0 6.35
3/11/2021 9:15:00 PM 6.2 43.16 146 7.42 0 6.34
3/11/2021 9:30:00 PM 6.19 43.142 145 7.42 0 6.34
3/11/2021 9:45:00 PM 6.19 43.142 145 7.42 0 6.35
3/11/2021 10:00:00 PM 6.18 43.124 145 7.42 0 6.34
3/11/2021 10:15:00 PM 6.18 43.124 145 7.42 0 6.34
3/11/2021 10:30:00 PM 6.18 43.124 145 7.41 0 6.34
3/11/2021 10:45:00 PM 6.17 43.106 145 7.42 0 6.35
3/11/2021 11:00:00 PM 6.16 43.088 144 7.41 0 6.35
3/11/2021 11:15:00 PM 6.15 43.07 144 7.41 0 6.34
3/11/2021 11:30:00 PM 6.15 43.07 144 7.41 0 6.34
3/11/2021 11:45:00 PM 6.14 43.052 144 7.41 0 6.34
3/12/2021 12:00:00 AM 6.13 43.034 144 7.4 0 6.34
3/12/2021 12:15:00 AM 6.13 43.034 144 7.4 0 6.34
3/12/2021 12:30:00 AM 6.12 43.016 144 7.4 0 6.34
3/12/2021 12:45:00 AM 6.12 43.016 143 7.4 0 6.35
3/12/2021 1:00:00 AM 6.11 42.998 143 7.39 0 6.34
3/12/2021 1:15:00 AM 6.1 42.98 143 7.39 0 6.34
3/12/2021 1:30:00 AM 6.1 42.98 143 7.39 0 6.34
3/12/2021 1:45:00 AM 6.1 42.98 143 7.38 0 6.34
3/12/2021 2:00:00 AM 6.09 42.962 143 7.38 0 6.35
3/12/2021 2:15:00 AM 6.09 42.962 143 7.38 0 6.34
3/12/2021 2:30:00 AM 6.08 42.944 143 7.37 0 6.34
3/12/2021 2:45:00 AM 6.09 42.962 142 7.37 0 6.34
3/12/2021 3:00:00 AM 6.08 42.944 142 7.37 0 6.34
3/12/2021 3:15:00 AM 6.08 42.944 142 7.36 0 6.34
3/12/2021 3:30:00 AM 6.07 42.926 142 7.36 0 6.34
3/12/2021 3:45:00 AM 6.06 42.908 142 7.36 0 6.34
3/12/2021 4:00:00 AM 6.06 42.908 142 7.35 0 6.34
3/12/2021 4:15:00 AM 6.05 42.89 141 7.35 0 6.34
3/12/2021 4:30:00 AM 6.05 42.89 141 7.35 0 6.34
3/12/2021 4:45:00 AM 6.04 42.872 141 7.34 0 6.34
3/12/2021 5:00:00 AM 6.04 42.872 141 7.34 0 6.34
3/12/2021 5:15:00 AM 6.04 42.872 140 7.33 0 6.34
3/12/2021 5:30:00 AM 6.04 42.872 140 7.33 0 6.34
3/12/2021 5:45:00 AM 6.04 42.872 140 7.33 0 6.34
3/12/2021 6:00:00 AM 6.05 42.89 139 7.33 0 6.34
3/12/2021 6:15:00 AM 6.05 42.89 139 7.32 0 6.35
3/12/2021 6:30:00 AM 6.05 42.89 139 7.32 0 6.35
3/12/2021 6:45:00 AM 6.05 42.89 138 7.32 0 6.34
3/12/2021 7:00:00 AM 6.05 42.89 138 7.31 0 6.35
3/12/2021 7:15:00 AM 6.04 42.872 138 7.31 0 6.35
3/12/2021 7:30:00 AM 6.03 42.854 137 7.31 0 6.34
3/12/2021 7:45:00 AM 6.01 42.818 136 7.3 0 6.35
3/12/2021 8:00:00 AM 6 42.8 135 7.3 0 6.34
3/12/2021 8:15:00 AM 5.98 42.764 135 7.3 0 6.34
3/12/2021 8:30:00 AM 5.96 42.728 134 7.3 0 6.34
3/12/2021 8:45:00 AM 5.93 42.674 133 7.29 0 6.34
3/12/2021 9:00:00 AM 5.91 42.638 132 7.29 0 6.35
3/12/2021 9:15:00 AM 5.88 42.584 131 7.28 0 6.35
3/12/2021 9:30:00 AM 5.86 42.548 131 7.28 0 6.34
3/12/2021 9:45:00 AM 5.93 42.674 138 7.33 0 6.35
3/12/2021 10:00:00 AM 5.87 42.566 133 7.3 0 6.35
3/12/2021 10:15:00 AM 5.83 42.494 129 7.28 0 6.35
3/12/2021 10:30:00 AM 6.05 42.89 146 7.33 0 6.34
3/12/2021 10:45:00 AM 5.97 42.746 136 7.29 0 6.34
3/12/2021 11:00:00 AM 5.86 42.548 128 7.27 0 6.34
3/12/2021 11:15:00 AM 5.85 42.53 126 7.27 0 6.34
3/12/2021 11:30:00 AM 5.87 42.566 126 7.27 0 6.35
3/12/2021 11:45:00 AM 5.89 42.602 125 7.27 0 6.35
3/12/2021 12:00:00 PM 5.91 42.638 125 7.26 0 6.34
3/12/2021 12:15:00 PM 5.93 42.674 124 7.26 0 6.35
3/12/2021 12:30:00 PM 5.95 42.71 123 7.26 0 6.35
3/12/2021 12:45:00 PM 5.97 42.746 123 7.26 0 6.35
3/12/2021 1:00:00 PM 6 42.8 122 7.26 0 6.35
3/12/2021 1:15:00 PM 6.02 42.836 122 7.26 0 6.34
3/12/2021 1:30:00 PM 6.05 42.89 122 7.26 0 6.35
3/12/2021 1:45:00 PM 6.07 42.926 121 7.26 0 6.34
3/12/2021 2:00:00 PM 6.1 42.98 121 7.25 0 6.35
3/12/2021 2:15:00 PM 6.12 43.016 120 7.25 0 6.34
3/12/2021 2:30:00 PM 6.14 43.052 120 7.25 0 6.35
3/12/2021 2:45:00 PM 6.16 43.088 120 7.25 0 6.34
3/12/2021 3:00:00 PM 6.17 43.106 120 7.25 0 6.35
3/12/2021 3:15:00 PM 6.19 43.142 120 7.25 0 6.35
3/12/2021 3:30:00 PM 6.2 43.16 120 7.25 0 6.35
3/12/2021 3:45:00 PM 6.21 43.178 119 7.25 0 6.34
3/12/2021 4:00:00 PM 6.22 43.196 119 7.24 0 6.35
3/12/2021 4:15:00 PM 6.23 43.214 119 7.24 0 6.35
3/12/2021 4:30:00 PM 6.23 43.214 119 7.24 0 6.34
3/12/2021 4:45:00 PM 6.24 43.232 119 7.24 0 6.35
3/12/2021 5:00:00 PM 6.24 43.232 119 7.24 0 6.35
3/12/2021 5:15:00 PM 6.25 43.25 120 7.24 0 6.35
3/12/2021 5:30:00 PM 6.25 43.25 119 7.24 0 6.34
3/12/2021 5:45:00 PM 6.25 43.25 119 7.24 0 6.35
3/12/2021 6:00:00 PM 6.25 43.25 119 7.24 0 6.34
3/12/2021 6:15:00 PM 6.25 43.25 119 7.24 0 6.35
3/12/2021 6:30:00 PM 6.26 43.268 120 7.23 0 6.34
3/12/2021 6:45:00 PM 6.25 43.25 119 7.23 0 6.35
3/12/2021 7:00:00 PM 6.25 43.25 119 7.23 0 6.34
3/12/2021 7:15:00 PM 6.24 43.232 119 7.23 0 6.34
3/12/2021 7:30:00 PM 6.24 43.232 120 7.23 0 6.35
3/12/2021 7:45:00 PM 6.24 43.232 120 7.23 0 6.35
3/12/2021 8:00:00 PM 6.23 43.214 119 7.23 0 6.35
3/12/2021 8:15:00 PM 6.23 43.214 120 7.23 0 6.35
3/12/2021 8:30:00 PM 6.23 43.214 119 7.23 0 6.35
3/12/2021 8:45:00 PM 6.23 43.214 119 7.23 0 6.34
3/12/2021 9:00:00 PM 6.22 43.196 119 7.23 0 6.35
3/12/2021 9:15:00 PM 6.22 43.196 119 7.23 0 6.34
3/12/2021 9:30:00 PM 6.21 43.178 119 7.23 0 6.35
3/12/2021 9:45:00 PM 6.21 43.178 118 7.23 0 6.35
3/12/2021 10:00:00 PM 6.21 43.178 118 7.23 0 6.35
3/12/2021 10:15:00 PM 6.21 43.178 118 7.22 0 6.34
3/12/2021 10:30:00 PM 6.2 43.16 117 7.22 0 6.35
3/12/2021 10:45:00 PM 6.2 43.16 117 7.22 0 6.35
3/12/2021 11:00:00 PM 6.2 43.16 117 7.22 0 6.34
3/12/2021 11:15:00 PM 6.2 43.16 117 7.22 0 6.35
3/12/2021 11:30:00 PM 6.2 43.16 117 7.22 0 6.35
3/12/2021 11:45:00 PM 6.19 43.142 116 7.22 0 6.34
3/13/2021 12:00:00 AM 6.19 43.142 116 7.22 0 6.34
3/13/2021 12:15:00 AM 6.18 43.124 116 7.22 0 6.35
3/13/2021 12:30:00 AM 6.16 43.088 115 7.22 0 6.34
3/13/2021 12:45:00 AM 6.15 43.07 116 7.22 0 6.35
3/13/2021 1:00:00 AM 6.14 43.052 115 7.21 0 6.35
3/13/2021 1:15:00 AM 6.12 43.016 114 7.21 0 6.35
3/13/2021 1:30:00 AM 6.11 42.998 114 7.21 0 6.35
3/13/2021 1:45:00 AM 6.56 43.808 139 7.24 0 6.34
3/13/2021 2:00:00 AM 6.18 43.124 119 7.2 0 6.35
3/13/2021 2:15:00 AM 6.06 42.908 114 7.2 0 6.35
3/13/2021 2:30:00 AM 6.03 42.854 113 7.2 0 6.35
3/13/2021 2:45:00 AM 6.01 42.818 112 7.19 0 6.35
3/13/2021 3:00:00 AM 5.98 42.764 111 7.19 0 6.35
3/13/2021 3:15:00 AM 5.97 42.746 111 7.19 0 6.35
3/13/2021 3:30:00 AM 5.96 42.728 111 7.19 0 6.35
3/13/2021 3:45:00 AM 5.94 42.692 110 7.19 0 6.35
3/13/2021 4:00:00 AM 5.92 42.656 109 7.19 0 6.35
3/13/2021 4:15:00 AM 5.9 42.62 109 7.18 0 6.35
3/13/2021 4:30:00 AM 5.89 42.602 109 7.18 0 6.35
3/13/2021 4:45:00 AM 5.88 42.584 109 7.18 0 6.34
3/13/2021 5:00:00 AM 5.87 42.566 108 7.18 0 6.35
3/13/2021 5:15:00 AM 5.86 42.548 108 7.17 0 6.35
3/13/2021 5:30:00 AM 5.85 42.53 108 7.17 0 6.35
3/13/2021 5:45:00 AM 5.84 42.512 107 7.17 0 6.35
3/13/2021 6:00:00 AM 5.86 42.548 119 7.24 0 6.35
3/13/2021 6:15:00 AM 5.83 42.494 107 7.17 0 6.35
3/13/2021 6:30:00 AM 5.82 42.476 107 7.16 0 6.35
3/13/2021 6:45:00 AM 5.8 42.44 106 7.16 0 6.35
3/13/2021 7:00:00 AM 5.79 42.422 106 7.16 0 6.35
3/13/2021 7:15:00 AM 5.78 42.404 106 7.15 0 6.34
3/13/2021 7:30:00 AM 5.77 42.386 105 7.15 0 6.34
3/13/2021 7:45:00 AM 5.77 42.386 105 7.15 0 6.34
3/13/2021 8:00:00 AM 5.76 42.368 105 7.14 0 6.35
3/13/2021 8:15:00 AM 5.75 42.35 104 7.14 0 6.35
3/13/2021 8:30:00 AM 5.74 42.332 104 7.14 0 6.34
3/13/2021 8:45:00 AM 5.74 42.332 104 7.14 0 6.35
3/13/2021 9:00:00 AM 5.74 42.332 104 7.14 0 6.35
3/13/2021 9:15:00 AM 5.74 42.332 103 7.13 0 6.34
3/13/2021 9:30:00 AM 5.74 42.332 103 7.13 0 6.35
3/13/2021 9:45:00 AM 5.75 42.35 103 7.13 0 6.34
3/13/2021 10:00:00 AM 5.76 42.368 102 7.13 0 6.35
3/13/2021 10:15:00 AM 5.77 42.386 102 7.13 0 6.34
3/13/2021 10:30:00 AM 5.79 42.422 102 7.12 0 6.35
3/13/2021 10:45:00 AM 5.8 42.44 102 7.12 0 6.35
3/13/2021 11:00:00 AM 5.82 42.476 101 7.12 0 6.35
3/13/2021 11:15:00 AM 5.84 42.512 101 7.12 0 6.34
3/13/2021 11:30:00 AM 5.86 42.548 100 7.12 0 6.35
3/13/2021 11:45:00 AM 5.87 42.566 100 7.11 0 6.35
3/13/2021 12:00:00 PM 5.9 42.62 100 7.11 0 6.35
3/13/2021 12:15:00 PM 5.92 42.656 99 7.11 0 6.35
3/13/2021 12:30:00 PM 5.94 42.692 99 7.11 0 6.35
3/13/2021 12:45:00 PM 5.96 42.728 98 7.11 0 6.35
3/13/2021 1:00:00 PM 5.99 42.782 98 7.11 0 6.35
3/13/2021 1:15:00 PM 6.01 42.818 98 7.1 0 6.35
3/13/2021 1:30:00 PM 6.03 42.854 97 7.1 0 6.35
3/13/2021 1:45:00 PM 6.06 42.908 97 7.1 0 6.35
3/13/2021 2:00:00 PM 6.08 42.944 97 7.1 0 6.34
3/13/2021 2:15:00 PM 6.1 42.98 96 7.1 0 6.35
3/13/2021 2:30:00 PM 6.12 43.016 96 7.1 0 6.35
3/13/2021 2:45:00 PM 6.13 43.034 96 7.09 0 6.35
3/13/2021 3:00:00 PM 6.15 43.07 96 7.09 0 6.35
3/13/2021 3:15:00 PM 6.16 43.088 95 7.09 0 6.35
3/13/2021 3:30:00 PM 6.18 43.124 95 7.09 0 6.35
3/13/2021 3:45:00 PM 6.19 43.142 95 7.09 0 6.35
3/13/2021 4:00:00 PM 6.2 43.16 95 7.09 0 6.35
3/13/2021 4:15:00 PM 6.21 43.178 94 7.09 0 6.35
3/13/2021 4:30:00 PM 6.21 43.178 94 7.08 0 6.35
3/13/2021 4:45:00 PM 6.22 43.196 94 7.08 0 6.35
3/13/2021 5:00:00 PM 6.22 43.196 94 7.08 0 6.35
3/13/2021 5:15:00 PM 6.22 43.196 93 7.08 0 6.34
3/13/2021 5:30:00 PM 6.22 43.196 93 7.08 0 6.35
3/13/2021 5:45:00 PM 6.22 43.196 93 7.08 0 6.35
3/13/2021 6:00:00 PM 6.22 43.196 93 7.08 0 6.34
3/13/2021 6:15:00 PM 6.21 43.178 93 7.08 0 6.34
3/13/2021 6:30:00 PM 6.2 43.16 92 7.08 0 6.35
3/13/2021 6:45:00 PM 6.19 43.142 92 7.08 0 6.35
3/13/2021 7:00:00 PM 6.18 43.124 92 7.07 0 6.34
3/13/2021 7:15:00 PM 6.17 43.106 92 7.07 0 6.35
3/13/2021 7:30:00 PM 6.16 43.088 92 7.07 0 6.35
3/13/2021 7:45:00 PM 6.15 43.07 91 7.07 0 6.34
3/13/2021 8:00:00 PM 6.14 43.052 91 7.07 0 6.35
3/13/2021 8:15:00 PM 6.13 43.034 91 7.07 0 6.35
3/13/2021 8:30:00 PM 6.12 43.016 91 7.07 0 6.35
3/13/2021 8:45:00 PM 6.11 42.998 91 7.07 0 6.35
3/13/2021 9:00:00 PM 6.1 42.98 91 7.07 0 6.34
3/13/2021 9:15:00 PM 6.1 42.98 91 7.07 0 6.35
3/13/2021 9:30:00 PM 6.08 42.944 90 7.07 0 6.34
3/13/2021 9:45:00 PM 6.07 42.926 90 7.06 0 6.35
3/13/2021 10:00:00 PM 6.05 42.89 90 7.06 0 6.35
3/13/2021 10:15:00 PM 6.04 42.872 90 7.06 0 6.34
3/13/2021 10:30:00 PM 6.02 42.836 90 7.06 0 6.35
3/13/2021 10:45:00 PM 6.01 42.818 90 7.06 0 6.35
3/13/2021 11:00:00 PM 5.99 42.782 90 7.06 0 6.35
3/13/2021 11:15:00 PM 5.97 42.746 90 7.06 0 6.35
3/13/2021 11:30:00 PM 5.96 42.728 89 7.06 0 6.35
3/13/2021 11:45:00 PM 5.94 42.692 89 7.06 0 6.35
3/14/2021 12:00:00 AM 5.93 42.674 89 7.06 0 6.35
3/14/2021 12:15:00 AM 5.91 42.638 89 7.06 0 6.35
3/14/2021 12:30:00 AM 5.89 42.602 89 7.06 0 6.35
3/14/2021 12:45:00 AM 5.88 42.584 89 7.06 0 6.35
3/14/2021 1:00:00 AM 5.86 42.548 89 7.06 0 6.35
3/14/2021 1:15:00 AM 5.84 42.512 89 7.06 0 6.35
3/14/2021 1:30:00 AM 5.83 42.494 89 7.06 0 6.35
3/14/2021 1:45:00 AM 6.31 43.358 121 7.18 0 6.35
3/14/2021 3:00:00 AM 5.76 42.368 89 7.06 0 6.35
3/14/2021 3:15:00 AM 5.74 42.332 89 7.06 0 6.35
3/14/2021 3:30:00 AM 5.73 42.314 89 7.05 0 6.34
3/14/2021 3:45:00 AM 5.72 42.296 89 7.05 0 6.35
3/14/2021 4:00:00 AM 5.71 42.278 89 7.05 0 6.35
3/14/2021 4:15:00 AM 5.7 42.26 89 7.05 0 6.35
3/14/2021 4:30:00 AM 5.69 42.242 89 7.05 0 6.34
3/14/2021 4:45:00 AM 5.68 42.224 89 7.05 0 6.35
3/14/2021 5:00:00 AM 5.67 42.206 89 7.05 0 6.35
3/14/2021 5:15:00 AM 5.66 42.188 89 7.05 0 6.34
3/14/2021 5:30:00 AM 5.66 42.188 89 7.05 0 6.35
3/14/2021 5:45:00 AM 5.65 42.17 89 7.05 0 6.35
3/14/2021 6:00:00 AM 5.64 42.152 89 7.05 0 6.34
3/14/2021 6:15:00 AM 5.63 42.134 89 7.05 0 6.35
3/14/2021 6:30:00 AM 5.62 42.116 89 7.05 0 6.35
3/14/2021 6:45:00 AM 5.61 42.098 89 7.05 0 6.34
3/14/2021 7:00:00 AM 5.6 42.08 90 7.05 0 6.35
3/14/2021 7:15:00 AM 5.6 42.08 90 7.05 0 6.35
3/14/2021 7:30:00 AM 5.59 42.062 90 7.05 0 6.34
3/14/2021 7:45:00 AM 5.59 42.062 90 7.05 0 6.35
3/14/2021 8:00:00 AM 5.58 42.044 90 7.05 0 6.35
3/14/2021 8:15:00 AM 5.58 42.044 90 7.05 0 6.35
3/14/2021 8:30:00 AM 5.58 42.044 90 7.05 0 6.35
3/14/2021 8:45:00 AM 5.59 42.062 90 7.05 0 6.35
3/14/2021 9:00:00 AM 5.59 42.062 90 7.06 0 6.35
3/14/2021 9:15:00 AM 5.6 42.08 90 7.05 0 6.35
3/14/2021 9:30:00 AM 5.61 42.098 90 7.05 0 6.35
3/14/2021 9:45:00 AM 5.62 42.116 90 7.06 0 6.35
3/14/2021 10:00:00 AM 5.64 42.152 90 7.06 0 6.35
3/14/2021 10:15:00 AM 5.65 42.17 90 7.06 0 6.35
3/14/2021 10:30:00 AM 5.67 42.206 90 7.06 0 6.35
3/14/2021 10:45:00 AM 5.69 42.242 90 7.06 0 6.35
3/14/2021 11:00:00 AM 5.71 42.278 90 7.06 0 6.35
3/14/2021 11:15:00 AM 5.73 42.314 90 7.06 0 6.35
3/14/2021 11:30:00 AM 5.75 42.35 90 7.06 0 6.35
3/14/2021 11:45:00 AM 5.77 42.386 91 7.06 0 6.34
3/14/2021 12:00:00 PM 5.79 42.422 91 7.06 0 6.34
3/14/2021 12:15:00 PM 5.81 42.458 91 7.06 0 6.35
3/14/2021 12:30:00 PM 5.84 42.512 91 7.06 0 6.35
3/14/2021 12:45:00 PM 5.86 42.548 91 7.06 0 6.35
3/14/2021 1:00:00 PM 5.89 42.602 91 7.06 0 6.35
3/14/2021 1:15:00 PM 5.9 42.62 91 7.07 0 6.35
3/14/2021 1:30:00 PM 5.91 42.638 91 7.07 0 6.34
3/14/2021 1:45:00 PM 5.93 42.674 91 7.07 0 6.35
3/14/2021 2:00:00 PM 5.94 42.692 91 7.07 0 6.35
3/14/2021 2:15:00 PM 5.96 42.728 91 7.07 0 6.35
3/14/2021 2:30:00 PM 5.98 42.764 91 7.07 0 6.34
3/14/2021 2:45:00 PM 5.99 42.782 91 7.07 0 6.35
3/14/2021 3:00:00 PM 6.01 42.818 91 7.07 0 6.34
3/14/2021 3:15:00 PM 6.04 42.872 91 7.07 0 6.35
3/14/2021 3:30:00 PM 6.06 42.908 91 7.08 0 6.34
3/14/2021 3:45:00 PM 6.07 42.926 91 7.08 0 6.35
3/14/2021 4:00:00 PM 6.07 42.926 92 7.08 0 6.35
3/14/2021 4:15:00 PM 6.08 42.944 92 7.08 0 6.35
3/14/2021 4:30:00 PM 6.08 42.944 92 7.08 0 6.35
3/14/2021 4:45:00 PM 6.07 42.926 92 7.08 0 6.35
3/14/2021 5:00:00 PM 6.07 42.926 92 7.08 0 6.35
3/14/2021 5:15:00 PM 6.06 42.908 92 7.08 0 6.34
3/14/2021 5:30:00 PM 6.05 42.89 92 7.08 0 6.35
3/14/2021 5:45:00 PM 6.05 42.89 92 7.08 0 6.35
3/14/2021 6:00:00 PM 6.04 42.872 92 7.09 0 6.34
3/14/2021 6:15:00 PM 6.03 42.854 92 7.09 0 6.35
3/14/2021 6:30:00 PM 6.04 42.872 93 7.09 0 6.35
3/14/2021 6:45:00 PM 6.38 43.484 108 7.1 0 6.35
3/14/2021 7:00:00 PM 6.05 42.89 96 7.08 0 6.35
3/14/2021 7:15:00 PM 5.97 42.746 93 7.09 0 6.35
3/14/2021 7:30:00 PM 5.93 42.674 92 7.09 0 6.35
3/14/2021 7:45:00 PM 5.9 42.62 92 7.09 0 6.34
3/14/2021 8:00:00 PM 5.87 42.566 92 7.09 0 6.35
3/14/2021 8:15:00 PM 5.85 42.53 92 7.09 0 6.35
3/14/2021 8:30:00 PM 5.84 42.512 92 7.09 0 6.35
3/14/2021 8:45:00 PM 5.83 42.494 92 7.09 0 6.35
3/14/2021 9:00:00 PM 5.81 42.458 92 7.09 0 6.35
3/14/2021 9:15:00 PM 5.79 42.422 92 7.09 0 6.34
3/14/2021 9:30:00 PM 5.76 42.368 92 7.09 0 6.35
3/14/2021 9:45:00 PM 5.75 42.35 92 7.1 0 6.34
3/14/2021 10:00:00 PM 5.73 42.314 92 7.1 0 6.35
3/14/2021 10:15:00 PM 5.7 42.26 92 7.1 0 6.35
3/14/2021 10:30:00 PM 5.67 42.206 92 7.1 0 6.35
3/14/2021 10:45:00 PM 5.64 42.152 92 7.1 0 6.35
3/14/2021 11:00:00 PM 5.61 42.098 92 7.1 0 6.35
3/14/2021 11:15:00 PM 5.58 42.044 92 7.1 0 6.35
3/14/2021 11:30:00 PM 5.56 42.008 92 7.1 0 6.35
3/14/2021 11:45:00 PM 5.54 41.972 92 7.1 0 6.35
3/15/2021 12:00:00 AM 5.53 41.954 92 7.1 0 6.35
3/15/2021 12:15:00 AM 5.52 41.936 92 7.1 0 6.35
3/15/2021 12:30:00 AM 5.49 41.882 92 7.1 0 6.35
3/15/2021 12:45:00 AM 5.56 42.008 97 7.12 0 6.35
3/15/2021 1:00:00 AM 5.84 42.512 108 7.09 0 6.35
3/15/2021 1:15:00 AM 5.67 42.206 101 7.09 0 6.35
3/15/2021 1:30:00 AM 5.46 41.828 95 7.1 0 6.35
3/15/2021 1:45:00 AM 5.37 41.666 93 7.1 0 6.35
3/15/2021 2:00:00 AM 5.33 41.594 93 7.1 0 6.35
3/15/2021 2:15:00 AM 5.29 41.522 92 7.1 0 6.35
3/15/2021 2:30:00 AM 5.27 41.486 92 7.1 0 6.35
3/15/2021 2:45:00 AM 5.24 41.432 92 7.1 0 6.35
3/15/2021 3:00:00 AM 5.22 41.396 92 7.1 0 6.35
3/15/2021 3:15:00 AM 5.2 41.36 93 7.09 0 6.35
3/15/2021 3:30:00 AM 5.18 41.324 92 7.1 0 6.35
3/15/2021 3:45:00 AM 5.14 41.252 92 7.1 0 6.35
3/15/2021 4:00:00 AM 5.11 41.198 92 7.1 0 6.34
3/15/2021 4:15:00 AM 5.09 41.162 92 7.1 0 6.35
3/15/2021 4:30:00 AM 5.07 41.126 92 7.1 0 6.35
3/15/2021 4:45:00 AM 5.04 41.072 92 7.1 0 6.35
3/15/2021 5:00:00 AM 5.02 41.036 92 7.1 0 6.35
3/15/2021 5:15:00 AM 5.01 41.018 92 7.1 0 6.35
3/15/2021 5:30:00 AM 4.98 40.964 92 7.1 0 6.35
3/15/2021 5:45:00 AM 4.96 40.928 92 7.1 0 6.35
3/15/2021 6:00:00 AM 4.94 40.892 93 7.1 0 6.35
3/15/2021 6:15:00 AM 4.91 40.838 93 7.1 0 6.35
3/15/2021 6:30:00 AM 4.88 40.784 92 7.11 0 6.35
3/15/2021 6:45:00 AM 4.87 40.766 92 7.11 0 6.35
3/15/2021 7:00:00 AM 4.85 40.73 92 7.11 0 6.35
3/15/2021 7:15:00 AM 4.84 40.712 93 7.11 0 6.35
3/15/2021 7:30:00 AM 4.82 40.676 93 7.1 0 6.34
3/15/2021 7:45:00 AM 4.81 40.658 93 7.11 0 6.35
3/15/2021 8:00:00 AM 4.8 40.64 93 7.11 0 6.35
3/15/2021 8:15:00 AM 4.78 40.604 93 7.11 0 6.35
3/15/2021 8:30:00 AM 4.78 40.604 93 7.11 0 6.35
3/15/2021 8:45:00 AM 4.77 40.586 93 7.11 0 6.35
3/15/2021 9:00:00 AM 4.77 40.586 93 7.11 0 6.35
3/15/2021 9:15:00 AM 4.76 40.568 93 7.11 0 6.35
3/15/2021 9:30:00 AM 4.77 40.586 93 7.11 0 6.35
3/15/2021 9:45:00 AM 4.78 40.604 93 7.11 0 6.35
3/15/2021 10:00:00 AM 4.79 40.622 93 7.11 0 6.35
3/15/2021 10:15:00 AM 4.81 40.658 93 7.12 0 6.35
3/15/2021 10:30:00 AM 4.83 40.694 93 7.12 0 6.35
3/15/2021 10:45:00 AM 4.86 40.748 93 7.12 0 6.35
3/15/2021 11:00:00 AM 4.88 40.784 93 7.12 0 6.35
3/15/2021 11:15:00 AM 4.91 40.838 93 7.12 0 6.35
3/15/2021 11:30:00 AM 4.94 40.892 93 7.12 0 6.34
3/15/2021 11:45:00 AM 4.98 40.964 93 7.12 0 6.35
3/15/2021 12:00:00 PM 5.02 41.036 94 7.12 0 6.35
3/15/2021 12:15:00 PM 5.05 41.09 94 7.12 0 6.35
3/15/2021 12:30:00 PM 5.09 41.162 94 7.12 0 6.35
3/15/2021 12:45:00 PM 5.12 41.216 94 7.13 0 6.35
3/15/2021 1:00:00 PM 5.16 41.288 94 7.13 0 6.35
3/15/2021 1:15:00 PM 5.2 41.36 94 7.12 0 6.35
3/15/2021 1:30:00 PM 5.23 41.414 94 7.13 0 6.34
3/15/2021 1:45:00 PM 5.26 41.468 94 7.13 0 6.35
3/15/2021 2:00:00 PM 5.3 41.54 94 7.13 0 6.35
3/15/2021 2:15:00 PM 5.33 41.594 94 7.14 0 6.35
3/15/2021 2:30:00 PM 5.36 41.648 94 7.14 0 6.35
3/15/2021 2:45:00 PM 5.4 41.72 94 7.14 0 6.35
3/15/2021 3:00:00 PM 5.43 41.774 94 7.14 0 6.35
3/15/2021 3:15:00 PM 5.46 41.828 95 7.14 0 6.35
3/15/2021 3:30:00 PM 5.49 41.882 95 7.14 0 6.35
3/15/2021 3:45:00 PM 5.52 41.936 95 7.15 0 6.35
3/15/2021 4:00:00 PM 5.53 41.954 95 7.15 0 6.35
3/15/2021 4:15:00 PM 5.54 41.972 95 7.14 0 6.35
3/15/2021 4:30:00 PM 5.58 42.044 95 7.15 0 6.35
3/15/2021 4:45:00 PM 5.59 42.062 95 7.15 0 6.35
3/15/2021 5:00:00 PM 5.59 42.062 95 7.16 0 6.34
3/15/2021 5:15:00 PM 5.59 42.062 95 7.16 0 6.35
3/15/2021 5:30:00 PM 5.6 42.08 95 7.16 0 6.35
3/15/2021 5:45:00 PM 5.59 42.062 95 7.16 0 6.35
3/15/2021 6:00:00 PM 5.58 42.044 96 7.16 0 6.35
3/15/2021 6:15:00 PM 5.57 42.026 96 7.16 0 6.35
3/15/2021 6:30:00 PM 5.56 42.008 96 7.16 0 6.34
3/15/2021 6:45:00 PM 5.55 41.99 96 7.16 0 6.35
3/15/2021 7:00:00 PM 5.54 41.972 96 7.16 0 6.35
3/15/2021 7:15:00 PM 5.52 41.936 96 7.17 0 6.35
3/15/2021 7:30:00 PM 5.49 41.882 96 7.17 0 6.35
3/15/2021 7:45:00 PM 5.47 41.846 96 7.17 0 6.35
3/15/2021 8:00:00 PM 5.45 41.81 96 7.17 0 6.35
3/15/2021 8:15:00 PM 5.43 41.774 96 7.17 0 6.35
3/15/2021 8:30:00 PM 5.42 41.756 96 7.17 0 6.34
3/15/2021 8:45:00 PM 5.39 41.702 96 7.17 0 6.35
3/15/2021 9:00:00 PM 5.38 41.684 96 7.17 0 6.35
3/15/2021 9:15:00 PM 5.36 41.648 96 7.17 0 6.35
3/15/2021 9:30:00 PM 5.34 41.612 96 7.17 0 6.35
3/15/2021 9:45:00 PM 5.33 41.594 96 7.17 0 6.35
3/15/2021 10:00:00 PM 5.31 41.558 97 7.18 0 6.35
3/15/2021 10:15:00 PM 5.3 41.54 97 7.17 0 6.35
3/15/2021 10:30:00 PM 5.28 41.504 97 7.18 0 6.35
3/15/2021 10:45:00 PM 5.27 41.486 97 7.17 0 6.34
3/15/2021 11:00:00 PM 5.25 41.45 97 7.17 0 6.35
3/15/2021 11:15:00 PM 5.23 41.414 97 7.17 0 6.35
3/15/2021 11:30:00 PM 5.21 41.378 97 7.17 0 6.35
3/15/2021 11:45:00 PM 5.19 41.342 97 7.17 0 6.35
3/16/2021 12:00:00 AM 5.17 41.306 97 7.17 0 6.35
3/16/2021 12:15:00 AM 5.15 41.27 97 7.17 0 6.35
3/16/2021 12:30:00 AM 5.13 41.234 97 7.17 0 6.35
3/16/2021 12:45:00 AM 5.11 41.198 97 7.17 0 6.35
3/16/2021 1:00:00 AM 5.08 41.144 97 7.17 0 6.35
3/16/2021 1:15:00 AM 5.06 41.108 97 7.17 0 6.35
3/16/2021 1:30:00 AM 5.04 41.072 98 7.17 0 6.35
3/16/2021 1:45:00 AM 5.02 41.036 98 7.17 0 6.35
3/16/2021 2:00:00 AM 5 41 98 7.17 0 6.35
3/16/2021 2:15:00 AM 4.99 40.982 98 7.17 0 6.35
3/16/2021 2:30:00 AM 4.96 40.928 98 7.17 0 6.35
3/16/2021 2:45:00 AM 4.94 40.892 98 7.17 0 6.35
3/16/2021 3:00:00 AM 4.92 40.856 98 7.17 0 6.35
3/16/2021 3:15:00 AM 4.9 40.82 98 7.17 0 6.35
3/16/2021 3:30:00 AM 5.07 41.126 105 7.19 0 6.35
3/16/2021 3:45:00 AM 5.2 41.36 107 7.11 0 6.35
3/16/2021 4:00:00 AM 4.89 40.802 99 7.15 0 6.35
3/16/2021 4:15:00 AM 4.84 40.712 98 7.16 0 6.35
3/16/2021 4:30:00 AM 4.81 40.658 98 7.17 0 6.35
3/16/2021 4:45:00 AM 4.79 40.622 99 7.17 0 6.35
3/16/2021 5:00:00 AM 4.77 40.586 99 7.17 0 6.35
3/16/2021 5:15:00 AM 4.75 40.55 99 7.17 0 6.35
3/16/2021 5:30:00 AM 4.73 40.514 99 7.17 0 6.35
3/16/2021 5:45:00 AM 4.71 40.478 99 7.17 0 6.35
3/16/2021 6:00:00 AM 4.69 40.442 99 7.17 0 6.35
3/16/2021 6:15:00 AM 4.68 40.424 99 7.17 0 6.35
3/16/2021 6:30:00 AM 4.68 40.424 99 7.17 0 6.35
3/16/2021 6:45:00 AM 4.65 40.37 99 7.17 0 6.35
3/16/2021 7:00:00 AM 4.63 40.334 99 7.17 0 6.35
3/16/2021 7:15:00 AM 4.62 40.316 99 7.17 0 6.35
3/16/2021 7:30:00 AM 4.6 40.28 100 7.17 0 6.35
3/16/2021 7:45:00 AM 4.6 40.28 100 7.18 0 6.35
3/16/2021 8:00:00 AM 4.58 40.244 100 7.18 0 6.35
3/16/2021 8:15:00 AM 4.57 40.226 100 7.18 0 6.35
3/16/2021 8:30:00 AM 4.55 40.19 100 7.18 0 6.35
3/16/2021 8:45:00 AM 4.54 40.172 100 7.18 0 6.35
3/16/2021 9:00:00 AM 4.52 40.136 100 7.18 0 6.35
3/16/2021 9:15:00 AM 4.5 40.1 100 7.18 0 6.35
3/16/2021 9:30:00 AM 4.82 40.676 109 7.23 0 6.35
3/16/2021 9:45:00 AM 4.75 40.55 106 7.12 0 6.35
3/16/2021 10:00:00 AM 4.51 40.118 100 7.16 0 6.35
3/16/2021 10:15:00 AM 4.48 40.064 100 7.17 0 6.35
3/16/2021 10:30:00 AM 4.47 40.046 100 7.18 0 6.35
3/16/2021 10:45:00 AM 4.47 40.046 100 7.18 0 6.35
3/16/2021 11:00:00 AM 4.46 40.028 100 7.18 0 6.35
3/16/2021 11:15:00 AM 4.46 40.028 100 7.18 0 6.35
3/16/2021 11:30:00 AM 4.47 40.046 100 7.18 0 6.35
3/16/2021 11:45:00 AM 4.47 40.046 100 7.18 0 6.35
3/16/2021 12:00:00 PM 4.47 40.046 101 7.18 0 6.35
3/16/2021 12:15:00 PM 4.47 40.046 101 7.18 0 6.35
3/16/2021 12:30:00 PM 4.47 40.046 101 7.19 0 6.35
3/16/2021 12:45:00 PM 4.48 40.064 101 7.19 0 6.35
3/16/2021 1:00:00 PM 4.49 40.082 101 7.19 0 6.35
3/16/2021 1:15:00 PM 4.48 40.064 101 7.19 0 6.35
3/16/2021 1:30:00 PM 4.48 40.064 101 7.19 0 6.35
3/16/2021 1:45:00 PM 4.48 40.064 101 7.18 0 6.35
3/16/2021 2:00:00 PM 4.47 40.046 101 7.19 0 6.35
3/16/2021 2:15:00 PM 4.48 40.064 101 7.19 0 6.35
3/16/2021 2:30:00 PM 4.49 40.082 101 7.19 0 6.35
3/16/2021 2:45:00 PM 4.49 40.082 101 7.2 0 6.35
3/16/2021 3:00:00 PM 4.49 40.082 101 7.2 0 6.35
3/16/2021 3:15:00 PM 4.48 40.064 101 7.2 0 6.35
3/16/2021 3:30:00 PM 4.49 40.082 101 7.2 0 6.35
3/16/2021 3:45:00 PM 4.49 40.082 101 7.2 0 6.35
3/16/2021 4:00:00 PM 4.49 40.082 102 7.2 0 6.35
3/16/2021 4:15:00 PM 4.47 40.046 102 7.2 0 6.35
3/16/2021 4:30:00 PM 4.47 40.046 102 7.2 0 6.35
3/16/2021 4:45:00 PM 4.46 40.028 102 7.2 0 6.35
3/16/2021 5:00:00 PM 4.45 40.01 102 7.19 0 6.35
3/16/2021 5:15:00 PM 4.45 40.01 102 7.2 0 6.35
3/16/2021 5:30:00 PM 4.44 39.992 102 7.2 0 6.35
3/16/2021 5:45:00 PM 4.44 39.992 102 7.21 0 6.35
3/16/2021 6:00:00 PM 4.43 39.974 102 7.2 0 6.35
3/16/2021 6:15:00 PM 4.44 39.992 102 7.21 0 6.35
3/16/2021 6:30:00 PM 4.42 39.956 102 7.21 0 6.35
3/16/2021 6:45:00 PM 4.41 39.938 102 7.21 0 6.35
3/16/2021 7:00:00 PM 4.4 39.92 102 7.21 0 6.35
3/16/2021 7:15:00 PM 4.77 40.586 112 7.21 0 6.35
3/16/2021 7:30:00 PM 4.49 40.082 104 7.17 0 6.35
3/16/2021 7:45:00 PM 4.39 39.902 102 7.2 0 6.35
3/16/2021 8:00:00 PM 4.39 39.902 102 7.21 0 6.35
3/16/2021 8:15:00 PM 4.38 39.884 102 7.21 0 6.35
3/16/2021 8:30:00 PM 4.38 39.884 102 7.21 0 6.35
3/16/2021 8:45:00 PM 4.37 39.866 102 7.21 0 6.35
3/16/2021 9:00:00 PM 4.37 39.866 102 7.21 0 6.35
3/16/2021 9:15:00 PM 4.37 39.866 103 7.21 0 6.35
3/16/2021 9:30:00 PM 4.36 39.848 103 7.2 0 6.35
3/16/2021 9:45:00 PM 4.35 39.83 103 7.21 0 6.35
3/16/2021 10:00:00 PM 4.34 39.812 103 7.21 0 6.35
3/16/2021 10:15:00 PM 4.33 39.794 103 7.21 0 6.35
3/16/2021 10:30:00 PM 4.33 39.794 103 7.21 0 6.34
3/16/2021 10:45:00 PM 4.32 39.776 103 7.2 0 6.35
3/16/2021 11:00:00 PM 4.31 39.758 103 7.21 0 6.35
3/16/2021 11:15:00 PM 4.3 39.74 103 7.21 0 6.35
3/16/2021 11:30:00 PM 4.29 39.722 103 7.2 0 6.35
3/16/2021 11:45:00 PM 4.31 39.758 103 7.2 0 6.35
3/17/2021 12:00:00 AM 4.28 39.704 103 7.2 0 6.35
3/17/2021 12:15:00 AM 4.26 39.668 103 7.2 0 6.34
3/17/2021 12:30:00 AM 4.25 39.65 103 7.2 0 6.35
3/17/2021 12:45:00 AM 4.24 39.632 103 7.2 0 6.35
3/17/2021 1:00:00 AM 4.24 39.632 103 7.2 0 6.35
3/17/2021 1:15:00 AM 4.24 39.632 104 7.2 0 6.35
3/17/2021 1:30:00 AM 4.22 39.596 104 7.2 0 6.35
3/17/2021 1:45:00 AM 4.21 39.578 104 7.2 0 6.35
3/17/2021 2:00:00 AM 4.2 39.56 104 7.2 0 6.35
3/17/2021 2:15:00 AM 4.19 39.542 104 7.19 0 6.35
3/17/2021 2:30:00 AM 4.18 39.524 104 7.19 0 6.35
3/17/2021 2:45:00 AM 4.17 39.506 104 7.19 0 6.35
3/17/2021 3:00:00 AM 4.16 39.488 104 7.19 0 6.35
3/17/2021 3:15:00 AM 4.15 39.47 104 7.19 0 6.35
3/17/2021 3:30:00 AM 4.14 39.452 104 7.19 0 6.35
3/17/2021 3:45:00 AM 4.13 39.434 104 7.19 0 6.35
3/17/2021 4:00:00 AM 4.12 39.416 104 7.19 0 6.35
3/17/2021 4:15:00 AM 4.11 39.398 104 7.19 0 6.35
3/17/2021 4:30:00 AM 4.1 39.38 104 7.19 0 6.35
3/17/2021 4:45:00 AM 4.09 39.362 104 7.19 0 6.35
3/17/2021 5:00:00 AM 4.09 39.362 104 7.19 0 6.35
3/17/2021 5:15:00 AM 4.08 39.344 104 7.18 0 6.35
3/17/2021 5:30:00 AM 4.07 39.326 105 7.18 0 6.35
3/17/2021 5:45:00 AM 4.06 39.308 105 7.18 0 6.35
3/17/2021 6:00:00 AM 4.05 39.29 105 7.18 0 6.35
3/17/2021 6:15:00 AM 4.04 39.272 105 7.18 0 6.35
3/17/2021 6:30:00 AM 4.04 39.272 105 7.18 0 6.35
3/17/2021 6:45:00 AM 4.03 39.254 105 7.18 0 6.35
3/17/2021 7:00:00 AM 4.02 39.236 105 7.18 0 6.35
3/17/2021 7:15:00 AM 4.02 39.236 105 7.18 0 6.35
3/17/2021 7:30:00 AM 4.01 39.218 105 7.18 0 6.35
3/17/2021 7:45:00 AM 4.01 39.218 105 7.18 0 6.35
3/17/2021 8:00:00 AM 4 39.2 105 7.18 0 6.35
3/17/2021 8:15:00 AM 4 39.2 105 7.18 0 6.35
3/17/2021 8:30:00 AM 4 39.2 106 7.18 0 6.35
3/17/2021 8:45:00 AM 4 39.2 106 7.18 0 6.35
3/17/2021 9:00:00 AM 4 39.2 106 7.18 0 6.35
3/17/2021 9:15:00 AM 4.01 39.218 106 7.18 0 6.34
3/17/2021 9:30:00 AM 4.01 39.218 106 7.18 0 6.35
3/17/2021 9:45:00 AM 4.01 39.218 106 7.18 0 6.35
3/17/2021 10:00:00 AM 4.02 39.236 106 7.18 0 6.35
3/17/2021 10:15:00 AM 4.02 39.236 106 7.19 0 6.35
3/17/2021 10:30:00 AM 4.03 39.254 106 7.19 0 6.35
3/17/2021 10:45:00 AM 4.04 39.272 106 7.19 0 6.35
3/17/2021 11:00:00 AM 4.05 39.29 106 7.19 0 6.35
3/17/2021 11:15:00 AM 4.06 39.308 107 7.19 0 6.34
3/17/2021 11:30:00 AM 4.07 39.326 107 7.19 0 6.35
3/17/2021 11:45:00 AM 4.08 39.344 107 7.19 0 6.35
3/17/2021 12:00:00 PM 4.09 39.362 107 7.19 0 6.35
3/17/2021 12:15:00 PM 4.11 39.398 107 7.19 0 6.35
3/17/2021 12:30:00 PM 4.12 39.416 107 7.19 0 6.35
3/17/2021 12:45:00 PM 6.25 43.25 0 7.27 0 6.35
3/17/2021 1:00:00 PM 4.16 39.488 107 7.22 6.64 13.17
3/17/2021 1:15:00 PM 4.16 39.488 107 7.21 4.86 13.2
3/17/2021 1:30:00 PM 4.17 39.506 107 7.2 6.71 13.19
3/17/2021 1:45:00 PM 4.18 39.524 107 7.2 4.21 13.2
3/17/2021 2:00:00 PM 4.2 39.56 107 7.21 4.43 13.22
3/17/2021 2:15:00 PM 4.22 39.596 107 7.21 4.48 13.22
3/17/2021 2:30:00 PM 4.24 39.632 107 7.21 4.24 13.23
3/17/2021 2:45:00 PM 4.26 39.668 107 7.21 4.18 13.24
3/17/2021 3:00:00 PM 4.27 39.686 107 7.21 4.11 13.24
3/17/2021 3:15:00 PM 4.29 39.722 107 7.22 4.39 13.24
3/17/2021 3:30:00 PM 4.3 39.74 107 7.22 4.21 13.25
3/17/2021 3:45:00 PM 4.32 39.776 107 7.22 4.27 13.26
3/17/2021 4:00:00 PM 4.33 39.794 108 7.22 4.55 13.26
3/17/2021 4:15:00 PM 4.33 39.794 108 7.22 3.68 13.27
3/17/2021 4:30:00 PM 4.34 39.812 108 7.22 4.13 13.27
3/17/2021 4:45:00 PM 4.35 39.83 108 7.23 4.01 13.27
3/17/2021 5:00:00 PM 4.35 39.83 108 7.23 4.06 13.27
3/17/2021 5:15:00 PM 4.36 39.848 108 7.23 4.32 13.28
3/17/2021 5:30:00 PM 4.36 39.848 108 7.23 4.04 13.29
3/17/2021 5:45:00 PM 4.37 39.866 108 7.23 4.44 13.27
3/17/2021 6:00:00 PM 4.4 39.92 108 7.23 4.68 13.28
3/17/2021 6:15:00 PM 4.41 39.938 109 7.23 4.76 13.29
3/17/2021 6:30:00 PM 4.57 40.226 114 7.16 3.14 13.27
3/17/2021 6:45:00 PM 4.44 39.992 110 7.19 3.5 13.27
3/17/2021 7:00:00 PM 4.38 39.884 108 7.23 4.32 13.29
3/17/2021 7:15:00 PM 4.38 39.884 108 7.23 4 13.3
3/17/2021 7:30:00 PM 4.38 39.884 108 7.23 4.28 13.29
3/17/2021 7:45:00 PM 4.37 39.866 108 7.24 3.55 13.29
3/17/2021 8:00:00 PM 4.37 39.866 108 7.24 4.63 13.3
3/17/2021 8:15:00 PM 4.37 39.866 109 7.24 3.9 13.3
3/17/2021 8:30:00 PM 4.37 39.866 108 7.24 3.87 13.3
3/17/2021 8:45:00 PM 4.37 39.866 108 7.24 4.16 13.29
3/17/2021 9:00:00 PM 4.37 39.866 108 7.23 4.39 13.27
3/17/2021 9:15:00 PM 4.36 39.848 109 7.24 4.71 13.28
3/17/2021 9:30:00 PM 4.36 39.848 109 7.24 6.14 13.28
3/17/2021 9:45:00 PM 4.35 39.83 109 7.24 6.72 13.28
3/17/2021 10:00:00 PM 4.35 39.83 109 7.24 5.05 13.27
3/17/2021 10:15:00 PM 4.35 39.83 109 7.23 5.68 13.27
3/17/2021 10:30:00 PM 4.35 39.83 108 7.23 4.86 13.28
3/17/2021 10:45:00 PM 4.36 39.848 109 7.23 4.37 13.27
3/17/2021 11:00:00 PM 4.39 39.902 109 7.23 5.03 13.26
3/17/2021 11:15:00 PM 4.37 39.866 109 7.23 6.17 13.25
3/17/2021 11:30:00 PM 4.37 39.866 109 7.23 5.17 13.26
3/17/2021 11:45:00 PM 4.38 39.884 109 7.23 5.15 13.26
3/18/2021 12:00:00 AM 4.38 39.884 109 7.23 4.24 13.25
3/18/2021 12:15:00 AM 4.38 39.884 109 7.23 4.52 13.24
3/18/2021 12:30:00 AM 4.39 39.902 108 7.23 5.1 13.23
3/18/2021 12:45:00 AM 4.39 39.902 109 7.23 4.38 13.23
3/18/2021 1:00:00 AM 4.39 39.902 108 7.23 4.27 13.21
3/18/2021 1:15:00 AM 4.4 39.92 108 7.22 4.33 13.21
3/18/2021 1:30:00 AM 4.4 39.92 108 7.22 5.19 13.22
3/18/2021 1:45:00 AM 4.4 39.92 108 7.22 4.34 13.21
3/18/2021 2:00:00 AM 4.4 39.92 108 7.22 4.56 13.21
3/18/2021 2:15:00 AM 4.4 39.92 108 7.22 4.27 13.21
3/18/2021 2:30:00 AM 4.4 39.92 108 7.22 4.04 13.19
3/18/2021 2:45:00 AM 4.41 39.938 108 7.22 4.43 13.18
3/18/2021 3:00:00 AM 4.41 39.938 108 7.22 4.56 13.18
3/18/2021 3:15:00 AM 4.41 39.938 108 7.21 4.19 13.17
3/18/2021 3:30:00 AM 4.41 39.938 108 7.21 3.9 13.18
3/18/2021 3:45:00 AM 4.41 39.938 108 7.21 4.17 13.16
3/18/2021 4:00:00 AM 4.41 39.938 108 7.21 3.69 13.16
3/18/2021 4:15:00 AM 4.4 39.92 108 7.21 4.15 13.16
3/18/2021 4:30:00 AM 4.4 39.92 108 7.21 3.93 13.15
3/18/2021 4:45:00 AM 4.4 39.92 108 7.2 4.43 13.15
3/18/2021 5:00:00 AM 4.4 39.92 108 7.2 3.99 13.14
3/18/2021 5:15:00 AM 4.4 39.92 108 7.2 4.17 13.14
3/18/2021 5:30:00 AM 4.4 39.92 108 7.2 3.77 13.14
3/18/2021 5:45:00 AM 4.4 39.92 108 7.2 3.82 13.12
3/18/2021 6:00:00 AM 4.4 39.92 108 7.2 4.09 13.12
3/18/2021 6:15:00 AM 4.4 39.92 108 7.2 3.98 13.11
3/18/2021 6:30:00 AM 4.4 39.92 108 7.2 3.52 13.11
3/18/2021 6:45:00 AM 4.4 39.92 108 7.2 5 13.1
3/18/2021 7:00:00 AM 4.4 39.92 108 7.19 4.1 13.1
3/18/2021 7:15:00 AM 4.4 39.92 108 7.19 4.04 13.09
3/18/2021 7:30:00 AM 4.4 39.92 108 7.19 4.6 13.1
3/18/2021 7:45:00 AM 4.41 39.938 108 7.19 4.21 13.09
3/18/2021 8:00:00 AM 4.41 39.938 108 7.19 4.85 13.09
3/18/2021 8:15:00 AM 4.42 39.956 108 7.18 3.95 13.07
3/18/2021 8:30:00 AM 4.42 39.956 108 7.19 3.45 13.08
3/18/2021 8:45:00 AM 4.43 39.974 108 7.19 3.41 13.07
3/18/2021 9:00:00 AM 4.44 39.992 108 7.19 4.1 13.07
3/18/2021 9:15:00 AM 4.48 40.064 108 7.19 4.58 13.07
3/18/2021 9:30:00 AM 4.46 40.028 108 7.19 3.62 13.05
3/18/2021 9:45:00 AM 4.47 40.046 108 7.19 3.8 13.06
3/18/2021 10:00:00 AM 4.48 40.064 108 7.19 3.45 13.06
3/18/2021 10:15:00 AM 4.49 40.082 108 7.19 3.98 13.05
3/18/2021 10:30:00 AM 4.51 40.118 108 7.19 4.65 13.05
3/18/2021 10:45:00 AM 4.7 40.46 114 7.23 3.21 13.13
3/18/2021 11:00:00 AM 4.59 40.262 110 7.17 3.78 13.09
3/18/2021 11:15:00 AM 4.56 40.208 109 7.19 4.04 13.06
3/18/2021 11:30:00 AM 4.57 40.226 109 7.19 3.59 13.05
3/18/2021 11:45:00 AM 4.59 40.262 109 7.2 3.45 13.05
3/18/2021 12:00:00 PM 4.61 40.298 109 7.2 4.22 13.05
3/18/2021 12:15:00 PM 4.62 40.316 109 7.2 3.72 13.05
3/18/2021 12:30:00 PM 4.64 40.352 109 7.2 3.96 13.04
3/18/2021 12:45:00 PM 4.66 40.388 109 7.21 3.87 13.04
3/18/2021 1:00:00 PM 4.68 40.424 110 7.21 4.18 13.04
3/18/2021 1:15:00 PM 4.7 40.46 110 7.21 4.18 13.03
3/18/2021 1:30:00 PM 4.72 40.496 110 7.21 4.11 13.04
3/18/2021 1:45:00 PM 4.75 40.55 110 7.22 3.35 13.04
3/18/2021 2:00:00 PM 4.77 40.586 110 7.22 3.89 13.04
3/18/2021 2:15:00 PM 4.8 40.64 110 7.22 3.69 13.03
3/18/2021 2:30:00 PM 4.82 40.676 111 7.22 4.45 13.03
3/18/2021 2:45:00 PM 4.84 40.712 111 7.22 4.45 13.03
3/18/2021 3:00:00 PM 4.86 40.748 111 7.23 3.78 13.03
3/18/2021 3:15:00 PM 4.88 40.784 111 7.23 3.95 13.03
3/18/2021 3:30:00 PM 4.9 40.82 111 7.23 4.43 13.03
3/18/2021 3:45:00 PM 4.93 40.874 111 7.23 3.88 13.03
3/18/2021 4:00:00 PM 4.95 40.91 112 7.24 4.26 13.03
3/18/2021 4:15:00 PM 4.97 40.946 112 7.24 4.3 13.03
3/18/2021 4:30:00 PM 4.99 40.982 112 7.24 4.85 13.02
3/18/2021 4:45:00 PM 5 41 112 7.24 3.7 13.01
3/18/2021 5:00:00 PM 5.02 41.036 112 7.24 4.17 13.02
3/18/2021 5:15:00 PM 5.04 41.072 113 7.25 4.13 13.01
3/18/2021 5:30:00 PM 5.09 41.162 118 7.3 3.32 13.09
3/18/2021 5:45:00 PM 5.02 41.036 117 7.21 3.12 13.05
3/18/2021 6:00:00 PM 5.06 41.108 114 7.25 4.17 13
3/18/2021 6:15:00 PM 5.07 41.126 115 7.26 4.11 12.99
3/18/2021 6:30:00 PM 5.08 41.144 116 7.27 4.8 12.99
3/18/2021 6:45:00 PM 5.1 41.18 116 7.27 4.18 12.99
3/18/2021 7:00:00 PM 5.11 41.198 117 7.28 4.16 12.97
3/18/2021 7:15:00 PM 5.12 41.216 117 7.28 3.97 12.97
3/18/2021 7:30:00 PM 5.13 41.234 117 7.28 4.55 12.96
3/18/2021 7:45:00 PM 5.14 41.252 117 7.28 4.74 12.96
3/18/2021 8:00:00 PM 5.14 41.252 117 7.28 4.31 12.95
3/18/2021 8:15:00 PM 5.15 41.27 117 7.27 5.23 12.95
3/18/2021 8:30:00 PM 5.15 41.27 117 7.27 4.97 12.94
3/18/2021 8:45:00 PM 5.15 41.27 117 7.27 5.63 12.94
3/18/2021 9:00:00 PM 5.15 41.27 118 7.27 5.12 12.93
3/18/2021 9:15:00 PM 5.16 41.288 118 7.27 6.12 12.93
3/18/2021 9:30:00 PM 5.16 41.288 118 7.27 6.35 12.92
3/18/2021 9:45:00 PM 5.16 41.288 118 7.27 5.97 12.91
3/18/2021 10:00:00 PM 5.17 41.306 118 7.27 7.05 12.91
3/18/2021 10:15:00 PM 5.19 41.342 118 7.27 7.57 12.9
3/18/2021 10:30:00 PM 5.18 41.324 119 7.27 7.99 12.9
3/18/2021 10:45:00 PM 5.17 41.306 119 7.27 7.46 12.89
3/18/2021 11:00:00 PM 5.17 41.306 119 7.27 9.49 12.88
3/18/2021 11:15:00 PM 5.17 41.306 119 7.27 7.96 12.88
3/18/2021 11:30:00 PM 5.17 41.306 119 7.27 9.09 12.87
3/18/2021 11:45:00 PM 5.17 41.306 119 7.27 7.16 12.86
3/19/2021 12:00:00 AM 5.16 41.288 119 7.27 7.9 12.85
3/19/2021 12:15:00 AM 5.16 41.288 119 7.27 9.44 12.85
3/19/2021 12:30:00 AM 5.17 41.306 121 7.27 7.83 12.86
3/19/2021 12:45:00 AM 5.11 41.198 122 7.21 5.19 12.95
3/19/2021 1:00:00 AM 5.14 41.252 119 7.26 12.24 12.83
3/19/2021 1:15:00 AM 5.14 41.252 119 7.27 9.87 12.82
3/19/2021 1:30:00 AM 5.14 41.252 119 7.27 8.74 12.82
3/19/2021 1:45:00 AM 5.14 41.252 119 7.27 12.79 12.81
3/19/2021 2:00:00 AM 5.11 41.198 119 7.27 10.46 12.82
3/19/2021 2:15:00 AM 5.1 41.18 118 7.27 10.35 12.81
3/19/2021 2:30:00 AM 5.09 41.162 118 7.27 9.42 12.81
3/19/2021 2:45:00 AM 5.08 41.144 118 7.27 9.73 12.8
3/19/2021 3:00:00 AM 5.07 41.126 118 7.26 8.88 12.79
3/19/2021 3:15:00 AM 5.05 41.09 117 7.26 8.46 12.79
3/19/2021 3:30:00 AM 5.04 41.072 117 7.26 8.8 12.79
3/19/2021 3:45:00 AM 5.02 41.036 117 7.26 7.98 12.79
3/19/2021 4:00:00 AM 5.03 41.054 117 7.26 11.05 12.79
3/19/2021 4:15:00 AM 4.97 40.946 116 7.26 11.45 12.78
3/19/2021 4:30:00 AM 4.95 40.91 116 7.26 10.26 12.77
3/19/2021 4:45:00 AM 4.94 40.892 115 7.25 8.68 12.78
3/19/2021 5:00:00 AM 4.91 40.838 115 7.25 8.84 12.77
3/19/2021 5:15:00 AM 4.89 40.802 115 7.25 8.92 12.77
3/19/2021 5:30:00 AM 4.87 40.766 114 7.25 8.47 12.77
3/19/2021 5:45:00 AM 4.86 40.748 114 7.25 9.64 12.77
3/19/2021 6:00:00 AM 4.84 40.712 114 7.24 9.93 12.77
3/19/2021 6:15:00 AM 4.82 40.676 114 7.24 9.76 12.77
3/19/2021 6:30:00 AM 4.79 40.622 113 7.24 9.47 12.77
3/19/2021 6:45:00 AM 4.77 40.586 113 7.24 9.71 12.77
3/19/2021 7:00:00 AM 4.74 40.532 113 7.24 9.43 12.77
3/19/2021 7:15:00 AM 4.72 40.496 112 7.23 10.56 12.77
3/19/2021 7:30:00 AM 4.71 40.478 112 7.23 9.94 12.79
3/19/2021 7:45:00 AM 4.69 40.442 111 7.23 9.28 12.79
3/19/2021 8:00:00 AM 4.67 40.406 110 7.23 9.52 12.79
3/19/2021 8:15:00 AM 4.66 40.388 110 7.23 8.37 12.8
3/19/2021 8:30:00 AM 4.65 40.37 109 7.23 9.42 12.81
3/19/2021 8:45:00 AM 4.64 40.352 109 7.23 9.33 12.8
3/19/2021 9:00:00 AM 4.63 40.334 108 7.22 9.54 12.82
3/19/2021 9:15:00 AM 4.63 40.334 108 7.22 8.44 12.83
3/19/2021 9:30:00 AM 4.63 40.334 107 7.22 9.75 12.83
3/19/2021 9:45:00 AM 4.64 40.352 107 7.22 9.47 12.84
3/19/2021 10:00:00 AM 4.65 40.37 106 7.22 9.89 12.85
3/19/2021 10:15:00 AM 4.67 40.406 106 7.22 9.15 12.85
3/19/2021 10:30:00 AM 4.7 40.46 106 7.22 9.09 12.86
3/19/2021 10:45:00 AM 4.72 40.496 105 7.22 8.21 12.87
3/19/2021 11:00:00 AM 4.75 40.55 105 7.22 9.52 12.87
3/19/2021 11:15:00 AM 4.78 40.604 104 7.22 9.81 12.88
3/19/2021 11:30:00 AM 4.8 40.64 104 7.22 8.68 12.89
3/19/2021 11:45:00 AM 4.83 40.694 104 7.22 8.77 12.9
3/19/2021 12:00:00 PM 4.87 40.766 104 7.21 9.13 12.9
3/19/2021 12:15:00 PM 4.9 40.82 103 7.21 9.79 12.91
3/19/2021 12:30:00 PM 4.94 40.892 103 7.21 8.76 12.92
3/19/2021 12:45:00 PM 4.97 40.946 103 7.21 8.08 12.92
3/19/2021 1:00:00 PM 5 41 103 7.21 11.14 12.93
3/19/2021 1:15:00 PM 5.02 41.036 103 7.21 10.03 12.94
3/19/2021 1:30:00 PM 5.06 41.108 103 7.21 10.84 12.95
3/19/2021 1:45:00 PM 5.1 41.18 103 7.21 10.86 12.95
3/19/2021 2:00:00 PM 5.12 41.216 103 7.21 10.05 12.96
3/19/2021 2:15:00 PM 5.15 41.27 103 7.21 10.37 12.96
3/19/2021 2:30:00 PM 5.19 41.342 103 7.21 11.03 12.97
3/19/2021 2:45:00 PM 5.22 41.396 103 7.21 11.12 12.97
3/19/2021 3:00:00 PM 5.25 41.45 103 7.21 11.61 12.98
3/19/2021 3:15:00 PM 5.28 41.504 103 7.21 11.69 12.99
3/19/2021 3:30:00 PM 5.3 41.54 103 7.21 11.5 12.99
3/19/2021 3:45:00 PM 5.32 41.576 104 7.21 11.38 13
3/19/2021 4:00:00 PM 5.33 41.594 104 7.21 12.17 13
3/19/2021 4:15:00 PM 5.35 41.63 104 7.21 11.88 13.01
3/19/2021 4:30:00 PM 5.37 41.666 104 7.21 10.75 13.01
3/19/2021 4:45:00 PM 5.39 41.702 104 7.21 11.49 13.02
3/19/2021 5:00:00 PM 5.4 41.72 104 7.22 10.98 13.02
3/19/2021 5:15:00 PM 5.41 41.738 104 7.22 10.57 13.03
3/19/2021 5:30:00 PM 5.41 41.738 104 7.22 10.63 13.04
3/19/2021 5:45:00 PM 5.41 41.738 105 7.22 12.16 13.04
3/19/2021 6:00:00 PM 5.42 41.756 105 7.22 10.16 13.04
3/19/2021 6:15:00 PM 5.42 41.756 105 7.22 11.12 13.05
3/19/2021 6:30:00 PM 5.42 41.756 105 7.22 9.65 13.06
3/19/2021 6:45:00 PM 5.42 41.756 105 7.22 10.69 13.06
3/19/2021 7:00:00 PM 5.41 41.738 105 7.22 9.46 13.06
3/19/2021 7:15:00 PM 5.41 41.738 105 7.22 10.93 13.07
3/19/2021 7:30:00 PM 5.4 41.72 105 7.22 10.4 13.07
3/19/2021 7:45:00 PM 5.39 41.702 106 7.22 10.39 13.08
3/19/2021 8:00:00 PM 5.4 41.72 106 7.22 9.52 13.07
3/19/2021 8:15:00 PM 5.4 41.72 106 7.23 9.92 13.07
3/19/2021 8:30:00 PM 5.4 41.72 106 7.23 9.15 13.07
3/19/2021 8:45:00 PM 5.4 41.72 106 7.23 8.72 13.07
3/19/2021 9:00:00 PM 5.39 41.702 106 7.23 9.62 13.07
3/19/2021 9:15:00 PM 5.39 41.702 106 7.23 9.39 13.07
3/19/2021 9:30:00 PM 5.39 41.702 106 7.23 9.52 13.07
3/19/2021 9:45:00 PM 5.38 41.684 106 7.23 9.1 13.07
3/19/2021 10:00:00 PM 5.38 41.684 106 7.23 8.8 13.06
3/19/2021 10:15:00 PM 5.38 41.684 106 7.23 8.54 13.06
3/19/2021 10:30:00 PM 5.37 41.666 106 7.23 6.99 13.05
3/19/2021 10:45:00 PM 5.37 41.666 106 7.23 8.02 13.04
3/19/2021 11:00:00 PM 5.37 41.666 106 7.23 7.46 13.04
3/19/2021 11:15:00 PM 5.36 41.648 106 7.23 8.42 13.04
3/19/2021 11:30:00 PM 5.35 41.63 106 7.23 8.32 13.03
3/19/2021 11:45:00 PM 5.33 41.594 106 7.23 8.29 13.02
3/20/2021 12:00:00 AM 5.32 41.576 106 7.23 8.22 13.03
3/20/2021 12:15:00 AM 5.31 41.558 106 7.22 7.98 13.01
3/20/2021 12:30:00 AM 5.3 41.54 106 7.22 7.93 13
3/20/2021 12:45:00 AM 5.29 41.522 105 7.22 8.13 13
3/20/2021 1:00:00 AM 5.27 41.486 105 7.22 7.7 12.99
3/20/2021 1:15:00 AM 5.25 41.45 105 7.22 7.79 12.99
3/20/2021 1:30:00 AM 5.23 41.414 105 7.22 6.65 12.99
3/20/2021 1:45:00 AM 5.22 41.396 105 7.22 7.67 12.98
3/20/2021 2:00:00 AM 5.2 41.36 105 7.22 7.05 12.98
3/20/2021 2:15:00 AM 5.18 41.324 105 7.22 6.12 12.98
3/20/2021 2:30:00 AM 5.15 41.27 105 7.22 6.56 12.97
3/20/2021 2:45:00 AM 5.13 41.234 105 7.21 7.46 12.97
3/20/2021 3:00:00 AM 5.11 41.198 105 7.21 6.93 12.97
3/20/2021 3:15:00 AM 5.08 41.144 105 7.21 6.53 12.97
3/20/2021 3:30:00 AM 5.05 41.09 105 7.21 7.09 12.97
3/20/2021 3:45:00 AM 5.01 41.018 116 7.23 4.86 13.24
3/20/2021 4:00:00 AM 5.02 41.036 111 7.15 5.39 13.08
3/20/2021 4:15:00 AM 4.99 40.982 106 7.19 6.69 12.99
3/20/2021 4:30:00 AM 4.96 40.928 106 7.2 7.1 12.97
3/20/2021 4:45:00 AM 4.93 40.874 106 7.2 6.36 12.97
3/20/2021 5:00:00 AM 4.91 40.838 106 7.2 6.87 12.97
3/20/2021 5:15:00 AM 4.89 40.802 106 7.2 7.04 12.98
3/20/2021 5:30:00 AM 4.87 40.766 106 7.2 6.96 12.98
3/20/2021 5:45:00 AM 4.84 40.712 106 7.2 6.19 12.99
3/20/2021 6:00:00 AM 4.82 40.676 106 7.2 6.37 12.99
3/20/2021 6:15:00 AM 4.79 40.622 106 7.2 6.9 12.99
3/20/2021 6:30:00 AM 4.77 40.586 107 7.2 7.01 13
3/20/2021 6:45:00 AM 4.74 40.532 107 7.2 7.37 13.01
3/20/2021 7:00:00 AM 4.72 40.496 107 7.2 6.97 13.01
3/20/2021 7:15:00 AM 4.7 40.46 107 7.2 7.09 13.01
3/20/2021 7:30:00 AM 4.7 40.46 107 7.19 6.62 13.02
3/20/2021 7:45:00 AM 4.68 40.424 107 7.19 7.44 13.02
3/20/2021 8:00:00 AM 4.67 40.406 107 7.19 6.77 13.03
3/20/2021 8:15:00 AM 4.66 40.388 107 7.19 7.13 13.04
3/20/2021 8:30:00 AM 4.66 40.388 108 7.19 7.38 13.04
3/20/2021 8:45:00 AM 4.66 40.388 108 7.19 7.51 13.05
3/20/2021 9:00:00 AM 4.66 40.388 108 7.19 7.52 13.06
3/20/2021 9:15:00 AM 4.67 40.406 108 7.19 8.16 13.07
3/20/2021 9:30:00 AM 4.68 40.424 108 7.19 7.89 13.09
3/20/2021 9:45:00 AM 4.91 40.838 121 7.17 3.27 13.35
3/20/2021 10:00:00 AM 4.76 40.568 110 7.18 5.94 13.13
3/20/2021 10:15:00 AM 4.76 40.568 108 7.19 7.47 13.11
3/20/2021 10:30:00 AM 4.79 40.622 108 7.19 7.03 13.11
3/20/2021 10:45:00 AM 4.82 40.676 108 7.19 7.58 13.13
3/20/2021 11:00:00 AM 4.86 40.748 108 7.19 7.79 13.13
3/20/2021 11:15:00 AM 4.9 40.82 108 7.19 7.74 13.14
3/20/2021 11:30:00 AM 4.94 40.892 108 7.19 7.74 13.15
3/20/2021 11:45:00 AM 4.98 40.964 108 7.19 7.41 13.16
3/20/2021 12:00:00 PM 5.03 41.054 108 7.19 7.85 13.17
3/20/2021 12:15:00 PM 5.08 41.144 108 7.19 7.7 13.17
3/20/2021 12:30:00 PM 5.13 41.234 108 7.19 7.49 13.18
3/20/2021 12:45:00 PM 5.18 41.324 108 7.2 7.01 13.19
3/20/2021 1:00:00 PM 5.22 41.396 108 7.2 7.18 13.19
3/20/2021 1:15:00 PM 5.28 41.504 108 7.2 7.02 13.19
3/20/2021 1:30:00 PM 5.32 41.576 108 7.2 7.55 13.2
3/20/2021 1:45:00 PM 5.37 41.666 108 7.2 6.76 13.21
3/20/2021 2:00:00 PM 5.42 41.756 108 7.2 7.07 13.21
3/20/2021 2:15:00 PM 5.45 41.81 108 7.2 6.23 13.21
3/20/2021 2:30:00 PM 5.51 41.918 109 7.2 8.14 13.22
3/20/2021 2:45:00 PM 5.55 41.99 109 7.2 6.12 13.22
3/20/2021 3:00:00 PM 5.59 42.062 109 7.2 8.04 13.23
3/20/2021 3:15:00 PM 5.62 42.116 108 7.2 8.24 13.23
3/20/2021 3:30:00 PM 5.65 42.17 108 7.2 7.36 13.24
3/20/2021 3:45:00 PM 5.69 42.242 109 7.21 7.05 13.24
3/20/2021 4:00:00 PM 5.72 42.296 109 7.21 6.96 13.25
3/20/2021 4:15:00 PM 5.74 42.332 109 7.21 6.75 13.25
3/20/2021 4:30:00 PM 5.77 42.386 109 7.21 6.36 13.26
3/20/2021 4:45:00 PM 5.79 42.422 109 7.21 7.39 13.27
3/20/2021 5:00:00 PM 5.81 42.458 109 7.21 5.96 13.27
3/20/2021 5:15:00 PM 5.83 42.494 109 7.21 5.3 13.25
3/20/2021 5:30:00 PM 5.83 42.494 109 7.22 5.99 13.27
3/20/2021 5:45:00 PM 5.84 42.512 109 7.22 5.39 13.28
3/20/2021 6:00:00 PM 5.85 42.53 109 7.22 5.75 13.27
3/20/2021 6:15:00 PM 5.85 42.53 109 7.22 5.46 13.27
3/20/2021 6:30:00 PM 5.85 42.53 109 7.22 5.87 13.26
3/20/2021 6:45:00 PM 5.84 42.512 109 7.22 6.13 13.27
3/20/2021 7:00:00 PM 5.84 42.512 109 7.22 5.7 13.26
3/20/2021 7:15:00 PM 5.84 42.512 109 7.22 5.16 13.28
3/20/2021 7:30:00 PM 5.85 42.53 110 7.23 6.51 13.25
3/20/2021 7:45:00 PM 5.84 42.512 110 7.23 5.58 13.26
3/20/2021 8:00:00 PM 5.84 42.512 110 7.23 5.3 13.25
3/20/2021 8:15:00 PM 5.84 42.512 110 7.23 5.32 13.25
3/20/2021 8:30:00 PM 5.84 42.512 110 7.23 4.48 13.22
3/20/2021 8:45:00 PM 5.84 42.512 110 7.23 5.14 13.23
3/20/2021 9:00:00 PM 5.84 42.512 110 7.23 5.77 13.21
3/20/2021 9:15:00 PM 5.83 42.494 110 7.23 4.78 13.21
3/20/2021 9:30:00 PM 5.83 42.494 110 7.23 5.79 13.2
3/20/2021 9:45:00 PM 5.83 42.494 110 7.22 5.6 13.19
3/20/2021 10:00:00 PM 5.82 42.476 110 7.22 5.51 13.18
3/20/2021 10:15:00 PM 5.82 42.476 110 7.22 5.14 13.18
3/20/2021 10:30:00 PM 5.82 42.476 110 7.22 6.06 13.16
3/20/2021 10:45:00 PM 5.81 42.458 110 7.22 5.11 13.16
3/20/2021 11:00:00 PM 5.81 42.458 110 7.22 5.64 13.13
3/20/2021 11:15:00 PM 5.8 42.44 111 7.22 5.58 13.14
3/20/2021 11:30:00 PM 5.78 42.404 110 7.22 5.82 13.13
3/20/2021 11:45:00 PM 5.77 42.386 110 7.22 5.47 13.11
3/21/2021 12:00:00 AM 5.76 42.368 111 7.22 5.32 13.11
3/21/2021 12:15:00 AM 5.74 42.332 110 7.21 5.8 13.09
3/21/2021 12:30:00 AM 5.72 42.296 110 7.21 5.67 13.09
3/21/2021 12:45:00 AM 5.71 42.278 110 7.21 5.48 13.09
3/21/2021 1:00:00 AM 5.71 42.278 121 7.18 2.96 13.19
3/21/2021 1:15:00 AM 5.66 42.188 112 7.19 5.39 13.08
3/21/2021 1:30:00 AM 5.64 42.152 110 7.2 5.24 13.06
3/21/2021 1:45:00 AM 5.61 42.098 110 7.2 5.48 13.04
3/21/2021 2:00:00 AM 5.59 42.062 110 7.2 5.49 13.04
3/21/2021 2:15:00 AM 5.57 42.026 110 7.2 5.81 13.04
3/21/2021 2:30:00 AM 5.54 41.972 110 7.2 5.55 13.03
3/21/2021 2:45:00 AM 5.52 41.936 110 7.2 5.75 13.03
3/21/2021 3:00:00 AM 5.5 41.9 110 7.2 5.18 13.02
3/21/2021 3:15:00 AM 5.48 41.864 110 7.2 4.63 13.01
3/21/2021 3:30:00 AM 5.45 41.81 110 7.2 4.91 13.02
3/21/2021 3:45:00 AM 5.43 41.774 110 7.19 5.09 13.01
3/21/2021 4:00:00 AM 5.4 41.72 110 7.19 5.23 13.01
3/21/2021 4:15:00 AM 5.37 41.666 110 7.19 4.9 13.01
3/21/2021 4:30:00 AM 5.35 41.63 110 7.19 5.21 13.01
3/21/2021 4:45:00 AM 5.32 41.576 110 7.19 5.32 13.01
3/21/2021 5:00:00 AM 5.3 41.54 110 7.19 4.88 13
3/21/2021 5:15:00 AM 5.28 41.504 110 7.19 4.68 13
3/21/2021 5:30:00 AM 5.25 41.45 110 7.18 5.33 13.01
3/21/2021 5:45:00 AM 5.24 41.432 110 7.18 4.81 13
3/21/2021 6:00:00 AM 5.22 41.396 110 7.18 5.08 13
3/21/2021 6:15:00 AM 5.19 41.342 111 7.18 5.83 13.01
3/21/2021 6:30:00 AM 5.17 41.306 111 7.18 5.58 13
3/21/2021 6:45:00 AM 5.15 41.27 111 7.18 5.19 13.01
3/21/2021 7:00:00 AM 5.14 41.252 111 7.18 5.77 13.02
3/21/2021 7:15:00 AM 5.12 41.216 111 7.18 4.87 13.01
3/21/2021 7:30:00 AM 5.1 41.18 111 7.18 5.24 13.02
3/21/2021 7:45:00 AM 5.09 41.162 111 7.18 5.09 13.03
3/21/2021 8:00:00 AM 5.07 41.126 111 7.18 5.48 13.03
3/21/2021 8:15:00 AM 5.07 41.126 111 7.18 6.89 13.03
3/21/2021 8:30:00 AM 5.07 41.126 111 7.18 5.51 13.05
3/21/2021 8:45:00 AM 5.07 41.126 111 7.18 5.15 13.05
3/21/2021 9:00:00 AM 5.08 41.144 111 7.18 4.8 13.05
3/21/2021 9:15:00 AM 5.09 41.162 111 7.19 5.38 13.06
3/21/2021 9:30:00 AM 5.11 41.198 111 7.19 5.62 13.06
3/21/2021 9:45:00 AM 5.13 41.234 111 7.19 5.69 13.08
3/21/2021 10:00:00 AM 5.16 41.288 112 7.19 5.54 13.07
3/21/2021 10:15:00 AM 5.19 41.342 112 7.19 5.58 13.08
3/21/2021 10:30:00 AM 5.22 41.396 112 7.19 4.61 13.09
3/21/2021 10:45:00 AM 5.27 41.486 112 7.19 4.9 13.1
3/21/2021 11:00:00 AM 5.31 41.558 112 7.2 5.59 13.1
3/21/2021 11:15:00 AM 5.35 41.63 112 7.2 5.05 13.1
3/21/2021 11:30:00 AM 5.4 41.72 112 7.2 5.43 13.12
3/21/2021 11:45:00 AM 5.45 41.81 112 7.2 5.17 13.12
3/21/2021 12:00:00 PM 5.5 41.9 112 7.2 5.45 13.12
3/21/2021 12:15:00 PM 5.56 42.008 112 7.2 5.45 13.13
3/21/2021 12:30:00 PM 5.6 42.08 112 7.2 5.03 13.13
3/21/2021 12:45:00 PM 5.66 42.188 112 7.2 5.48 13.15
3/21/2021 1:00:00 PM 5.73 42.314 112 7.21 5.63 13.13
3/21/2021 1:15:00 PM 5.78 42.404 112 7.21 5.48 13.14
3/21/2021 1:30:00 PM 5.83 42.494 112 7.21 5.65 13.14
3/21/2021 1:45:00 PM 5.88 42.584 112 7.21 5.46 13.15
3/21/2021 2:00:00 PM 5.93 42.674 112 7.21 4.92 13.17
3/21/2021 2:15:00 PM 5.98 42.764 112 7.21 5.01 13.15
3/21/2021 2:30:00 PM 6.03 42.854 112 7.21 5.19 13.16
3/21/2021 2:45:00 PM 6.08 42.944 112 7.22 4.82 13.16
3/21/2021 3:00:00 PM 6.13 43.034 112 7.22 4.93 13.17
3/21/2021 3:15:00 PM 6.17 43.106 112 7.22 4.65 13.17
3/21/2021 3:30:00 PM 6.2 43.16 112 7.22 5.12 13.18
3/21/2021 3:45:00 PM 6.24 43.232 112 7.23 4.7 13.18
3/21/2021 4:00:00 PM 6.28 43.304 112 7.23 4.59 13.18
3/21/2021 4:15:00 PM 6.31 43.358 112 7.23 5.09 13.19
3/21/2021 4:30:00 PM 6.35 43.43 112 7.23 5.23 13.19
3/21/2021 4:45:00 PM 6.39 43.502 113 7.23 5.31 13.19
3/21/2021 5:00:00 PM 6.4 43.52 113 7.23 4.71 13.19
3/21/2021 5:15:00 PM 6.43 43.574 113 7.24 4.46 13.2
3/21/2021 5:30:00 PM 6.45 43.61 113 7.24 4.48 13.2
3/21/2021 5:45:00 PM 6.46 43.628 113 7.24 4.56 13.21
3/21/2021 6:00:00 PM 6.47 43.646 113 7.24 5.31 13.2
3/21/2021 6:15:00 PM 6.48 43.664 113 7.25 4.71 13.2
3/21/2021 6:30:00 PM 6.49 43.682 113 7.25 5.25 13.2
3/21/2021 6:45:00 PM 6.5 43.7 113 7.25 5.44 13.2
3/21/2021 7:00:00 PM 6.5 43.7 113 7.25 6 13.19
3/21/2021 7:15:00 PM 6.5 43.7 113 7.25 6.43 13.19
3/21/2021 7:30:00 PM 6.52 43.736 121 7.27 3.44 13.17
3/21/2021 7:45:00 PM 6.4 43.52 118 7.16 3.6 13.13
3/21/2021 8:00:00 PM 6.5 43.7 114 7.24 5.77 13.16
3/21/2021 8:15:00 PM 6.51 43.718 113 7.25 5.21 13.16
3/21/2021 8:30:00 PM 6.51 43.718 113 7.25 5.41 13.15
3/21/2021 8:45:00 PM 6.51 43.718 114 7.25 5.12 13.14
3/21/2021 9:00:00 PM 6.51 43.718 114 7.25 4.54 13.13
3/21/2021 9:15:00 PM 6.51 43.718 114 7.25 4.94 13.12
3/21/2021 9:30:00 PM 6.51 43.718 114 7.25 5.27 13.11
3/21/2021 9:45:00 PM 6.51 43.718 114 7.25 4.77 13.1
3/21/2021 10:00:00 PM 6.51 43.718 114 7.25 5.36 13.08
3/21/2021 10:15:00 PM 6.51 43.718 114 7.25 5.15 13.07
3/21/2021 10:30:00 PM 6.51 43.718 114 7.25 4.95 13.06
3/21/2021 10:45:00 PM 6.5 43.7 114 7.25 5.22 13.05
3/21/2021 11:00:00 PM 6.5 43.7 114 7.24 4.29 13.04
3/21/2021 11:15:00 PM 6.49 43.682 114 7.24 4.65 13.03
3/21/2021 11:30:00 PM 6.48 43.664 115 7.24 4.63 13.01
3/21/2021 11:45:00 PM 6.48 43.664 115 7.24 4.38 13.01
3/22/2021 12:00:00 AM 6.46 43.628 115 7.24 4.96 12.99
3/22/2021 12:15:00 AM 6.45 43.61 115 7.24 5.29 12.98
3/22/2021 12:30:00 AM 6.43 43.574 115 7.24 4.32 12.97
3/22/2021 12:45:00 AM 6.41 43.538 115 7.24 4.58 12.95
3/22/2021 1:00:00 AM 6.4 43.52 115 7.24 4.49 12.95
3/22/2021 1:15:00 AM 6.38 43.484 115 7.23 4.36 12.94
3/22/2021 1:30:00 AM 6.36 43.448 115 7.23 4.75 12.92
3/22/2021 1:45:00 AM 6.34 43.412 115 7.23 4.73 12.92
3/22/2021 2:00:00 AM 6.32 43.376 115 7.23 4.4 12.91
3/22/2021 2:15:00 AM 6.29 43.322 115 7.23 4.36 12.9
3/22/2021 2:30:00 AM 6.27 43.286 115 7.23 3.94 12.88
3/22/2021 2:45:00 AM 6.24 43.232 115 7.22 4.93 12.88
3/22/2021 3:00:00 AM 6.22 43.196 116 7.22 4.57 12.87
3/22/2021 3:15:00 AM 6.19 43.142 116 7.22 4.62 12.86
3/22/2021 3:30:00 AM 6.16 43.088 116 7.22 4.24 12.86
3/22/2021 3:45:00 AM 6.13 43.034 116 7.22 4.27 12.84
3/22/2021 4:00:00 AM 6.1 42.98 116 7.22 4.48 12.85
3/22/2021 4:15:00 AM 6.08 42.944 116 7.21 4.64 12.84
3/22/2021 4:30:00 AM 6.06 42.908 116 7.21 4.15 12.84
3/22/2021 4:45:00 AM 6.04 42.872 116 7.21 4.23 12.84
3/22/2021 5:00:00 AM 6.01 42.818 116 7.21 4.45 12.83
3/22/2021 5:15:00 AM 5.99 42.782 116 7.21 4.21 12.82
3/22/2021 5:30:00 AM 5.96 42.728 116 7.21 4.57 12.83
3/22/2021 5:45:00 AM 5.93 42.674 116 7.2 4.59 12.82
3/22/2021 6:00:00 AM 5.9 42.62 116 7.2 4.46 12.8
3/22/2021 6:15:00 AM 5.87 42.566 116 7.2 3.95 12.8
3/22/2021 6:30:00 AM 5.85 42.53 116 7.2 4.83 12.81
3/22/2021 6:45:00 AM 5.82 42.476 116 7.2 5.31 12.82
3/22/2021 7:00:00 AM 5.8 42.44 116 7.2 4.22 12.81
3/22/2021 7:15:00 AM 5.78 42.404 116 7.2 4.47 12.82
3/22/2021 7:30:00 AM 5.76 42.368 116 7.2 4.89 12.82
3/22/2021 7:45:00 AM 5.75 42.35 116 7.2 3.86 12.82
3/22/2021 8:00:00 AM 5.74 42.332 116 7.2 4.36 12.82
3/22/2021 8:15:00 AM 5.74 42.332 116 7.2 4.83 12.82
3/22/2021 8:30:00 AM 5.74 42.332 116 7.2 4.32 12.83
3/22/2021 8:45:00 AM 5.74 42.332 116 7.2 4.31 12.83
3/22/2021 9:00:00 AM 5.75 42.35 117 7.2 4.63 12.84
3/22/2021 9:15:00 AM 5.77 42.386 117 7.2 4.75 12.83
3/22/2021 9:30:00 AM 5.98 42.764 122 7.24 4.27 12.93
3/22/2021 9:45:00 AM 5.96 42.728 121 7.16 3.32 12.94
3/22/2021 10:00:00 AM 5.87 42.566 117 7.2 5.61 12.85
3/22/2021 10:15:00 AM 5.9 42.62 117 7.21 4.92 12.87
3/22/2021 10:30:00 AM 5.95 42.71 117 7.21 4.91 12.87
3/22/2021 10:45:00 AM 5.99 42.782 117 7.21 5.26 12.88
3/22/2021 11:00:00 AM 6.04 42.872 117 7.21 5.23 12.89
3/22/2021 11:15:00 AM 6.1 42.98 117 7.22 4.62 12.89
3/22/2021 11:30:00 AM 6.16 43.088 117 7.22 5.88 12.89
3/22/2021 11:45:00 AM 6.22 43.196 117 7.22 5.16 12.9
3/22/2021 12:00:00 PM 6.28 43.304 117 7.22 5.28 12.9
3/22/2021 12:15:00 PM 6.34 43.412 117 7.22 5.11 12.91
3/22/2021 12:30:00 PM 6.4 43.52 117 7.23 4.97 12.91
3/22/2021 12:45:00 PM 6.46 43.628 117 7.23 4.87 12.91
3/22/2021 1:00:00 PM 6.52 43.736 117 7.23 4.72 12.92
3/22/2021 1:15:00 PM 6.58 43.844 117 7.23 4.45 12.92
3/22/2021 1:30:00 PM 6.64 43.952 117 7.23 4.84 12.93
3/22/2021 1:45:00 PM 6.69 44.042 117 7.24 4.31 12.93
3/22/2021 2:00:00 PM 6.75 44.15 117 7.24 4.41 12.93
3/22/2021 2:15:00 PM 6.81 44.258 117 7.24 3.71 12.94
3/22/2021 2:30:00 PM 6.86 44.348 116 7.24 4.34 12.94
3/22/2021 2:45:00 PM 6.91 44.438 116 7.25 4.84 12.95
3/22/2021 3:00:00 PM 6.96 44.528 116 7.25 4.8 12.95
3/22/2021 3:15:00 PM 7 44.6 116 7.25 4.29 12.96
3/22/2021 3:30:00 PM 7.04 44.672 116 7.25 4.37 12.97
3/22/2021 3:45:00 PM 7.08 44.744 116 7.26 4.48 12.96
3/22/2021 4:00:00 PM 7.11 44.798 116 7.26 4.34 12.97
3/22/2021 4:15:00 PM 7.14 44.852 116 7.26 4.52 12.97
3/22/2021 4:30:00 PM 7.17 44.906 116 7.26 4.29 12.98
3/22/2021 4:45:00 PM 7.19 44.942 116 7.27 4.02 12.98
3/22/2021 5:00:00 PM 7.21 44.978 116 7.27 4.34 12.99
3/22/2021 5:15:00 PM 7.23 45.014 116 7.27 4.43 13
3/22/2021 5:30:00 PM 7.24 45.032 116 7.27 3.88 13
3/22/2021 5:45:00 PM 7.25 45.05 116 7.28 4.19 12.99
3/22/2021 6:00:00 PM 7.25 45.05 116 7.28 4.33 13
3/22/2021 6:15:00 PM 7.26 45.068 116 7.28 4.21 13
3/22/2021 6:30:00 PM 7.26 45.068 116 7.28 4.06 13
3/22/2021 6:45:00 PM 7.26 45.068 116 7.28 4.16 12.99
3/22/2021 7:00:00 PM 7.26 45.068 116 7.28 4.2 12.99
3/22/2021 7:15:00 PM 7.26 45.068 115 7.29 4.73 12.98
3/22/2021 7:30:00 PM 7.26 45.068 115 7.29 4.28 12.97
3/22/2021 7:45:00 PM 7.26 45.068 115 7.29 4.19 12.97
3/22/2021 8:00:00 PM 7.26 45.068 115 7.29 3.96 12.96
3/22/2021 8:15:00 PM 7.25 45.05 115 7.29 4.15 12.96
3/22/2021 8:30:00 PM 7.25 45.05 115 7.29 4.27 12.95
3/22/2021 8:45:00 PM 7.25 45.05 115 7.28 4.32 12.94
3/22/2021 9:00:00 PM 7.25 45.05 115 7.28 4.41 12.92
3/22/2021 9:15:00 PM 7.25 45.05 115 7.28 4.16 12.91
3/22/2021 9:30:00 PM 7.25 45.05 115 7.28 4.27 12.91
3/22/2021 9:45:00 PM 7.25 45.05 115 7.28 4.18 12.88
3/22/2021 10:00:00 PM 7.25 45.05 115 7.28 4.47 12.87
3/22/2021 10:15:00 PM 7.25 45.05 115 7.28 4.16 12.86
3/22/2021 10:30:00 PM 7.25 45.05 115 7.28 3.73 12.84
3/22/2021 10:45:00 PM 7.25 45.05 115 7.27 4.51 12.83
3/22/2021 11:00:00 PM 7.24 45.032 115 7.27 4.32 12.81
3/22/2021 11:15:00 PM 7.24 45.032 115 7.27 4.26 12.8
3/22/2021 11:30:00 PM 7.24 45.032 115 7.27 4.36 12.79
3/22/2021 11:45:00 PM 7.23 45.014 115 7.27 4.25 12.78
3/23/2021 12:00:00 AM 7.22 44.996 115 7.27 4.12 12.77
3/23/2021 12:15:00 AM 7.21 44.978 115 7.26 4.17 12.76
3/23/2021 12:30:00 AM 7.2 44.96 115 7.26 4.19 12.74
3/23/2021 12:45:00 AM 7.19 44.942 115 7.26 4.25 12.72
3/23/2021 1:00:00 AM 7.17 44.906 115 7.26 5.23 12.71
3/23/2021 1:15:00 AM 7.15 44.87 115 7.26 4.25 12.7
3/23/2021 1:30:00 AM 7.14 44.852 115 7.25 4.2 12.68
3/23/2021 1:45:00 AM 7.12 44.816 115 7.25 4.06 12.67
3/23/2021 2:00:00 AM 7.1 44.78 115 7.25 4.23 12.67
3/23/2021 2:15:00 AM 7.08 44.744 115 7.25 3.83 12.65
3/23/2021 2:30:00 AM 7.06 44.708 115 7.25 4.24 12.64
3/23/2021 2:45:00 AM 7.03 44.654 115 7.24 4.04 12.63
3/23/2021 3:00:00 AM 7.01 44.618 114 7.24 4.11 12.62
3/23/2021 3:15:00 AM 6.98 44.564 114 7.24 4.39 12.6
3/23/2021 3:30:00 AM 6.96 44.528 114 7.23 4.4 12.59
3/23/2021 3:45:00 AM 6.93 44.474 114 7.23 4.26 12.59
3/23/2021 4:00:00 AM 6.9 44.42 114 7.23 4.13 12.58
3/23/2021 4:15:00 AM 6.88 44.384 114 7.23 4 12.58
3/23/2021 4:30:00 AM 6.85 44.33 114 7.23 4.08 12.57
3/23/2021 4:45:00 AM 6.91 44.438 124 7.25 3.14 12.74
3/23/2021 5:00:00 AM 6.84 44.312 120 7.17 3.27 12.63
3/23/2021 5:15:00 AM 6.78 44.204 115 7.21 3.71 12.56
3/23/2021 5:30:00 AM 6.75 44.15 114 7.21 3.8 12.54
3/23/2021 5:45:00 AM 6.72 44.096 114 7.21 3.89 12.54
3/23/2021 6:00:00 AM 6.69 44.042 114 7.21 3.98 12.53
3/23/2021 6:15:00 AM 6.65 43.97 114 7.21 3.78 12.54
3/23/2021 6:30:00 AM 6.63 43.934 114 7.21 3.88 12.53
3/23/2021 6:45:00 AM 6.6 43.88 114 7.21 4.1 12.53
3/23/2021 7:00:00 AM 6.57 43.826 114 7.21 4.21 12.53
3/23/2021 7:15:00 AM 6.54 43.772 114 7.2 4.14 12.53
3/23/2021 7:30:00 AM 6.52 43.736 114 7.21 4.21 12.53
3/23/2021 7:45:00 AM 6.51 43.718 114 7.2 4 12.54
3/23/2021 8:00:00 AM 6.49 43.682 114 7.2 4.06 12.54
3/23/2021 8:15:00 AM 6.49 43.682 114 7.2 4.01 12.54
3/23/2021 8:30:00 AM 6.48 43.664 114 7.2 4.19 12.55
3/23/2021 8:45:00 AM 6.48 43.664 114 7.2 4.87 12.55
3/23/2021 9:00:00 AM 6.49 43.682 114 7.21 4.43 12.56
3/23/2021 9:15:00 AM 6.5 43.7 114 7.21 4.13 12.57
3/23/2021 9:30:00 AM 6.53 43.754 114 7.21 4.16 12.57
3/23/2021 9:45:00 AM 6.55 43.79 114 7.21 4.38 12.58
3/23/2021 10:00:00 AM 6.58 43.844 114 7.21 4.14 12.6
3/23/2021 10:15:00 AM 6.62 43.916 114 7.21 4.31 12.6
3/23/2021 10:30:00 AM 6.66 43.988 114 7.21 4.36 12.61
3/23/2021 10:45:00 AM 6.7 44.06 114 7.22 4.13 12.62
3/23/2021 11:00:00 AM 6.93 44.474 123 7.18 3.13 12.7
3/23/2021 11:15:00 AM 6.9 44.42 118 7.17 2.99 12.64
3/23/2021 11:30:00 AM 6.86 44.348 114 7.21 4.81 12.64
3/23/2021 11:45:00 AM 6.91 44.438 114 7.22 4.51 12.64
3/23/2021 12:00:00 PM 6.96 44.528 114 7.22 4.1 12.64
3/23/2021 12:15:00 PM 7.01 44.618 113 7.22 3.7 12.65
3/23/2021 12:30:00 PM 7.06 44.708 114 7.23 3.34 12.66
3/23/2021 12:45:00 PM 7.11 44.798 114 7.23 3.81 12.65
3/23/2021 1:00:00 PM 7.16 44.888 114 7.23 3.77 12.66
3/23/2021 1:15:00 PM 7.22 44.996 114 7.23 3.75 12.67
3/23/2021 1:30:00 PM 7.26 45.068 114 7.23 4.59 12.68
3/23/2021 1:45:00 PM 7.31 45.158 113 7.24 3.37 12.69
3/23/2021 2:00:00 PM 7.36 45.248 114 7.24 4.15 12.69
3/23/2021 2:15:00 PM 7.41 45.338 114 7.24 3.71 12.69
3/23/2021 2:30:00 PM 7.45 45.41 114 7.24 3.5 12.69
3/23/2021 2:45:00 PM 7.49 45.482 114 7.25 3.72 12.69
3/23/2021 3:00:00 PM 7.53 45.554 113 7.25 3.67 12.7
3/23/2021 3:15:00 PM 7.56 45.608 114 7.25 3.93 12.7
3/23/2021 3:30:00 PM 7.59 45.662 114 7.25 3.44 12.71
3/23/2021 3:45:00 PM 7.61 45.698 114 7.26 4.26 12.71
3/23/2021 4:00:00 PM 7.63 45.734 114 7.26 3.52 12.72
3/23/2021 4:15:00 PM 7.65 45.77 114 7.26 3.88 12.73
3/23/2021 4:30:00 PM 7.66 45.788 114 7.27 3.54 12.73
3/23/2021 4:45:00 PM 7.68 45.824 114 7.27 3.26 12.73
3/23/2021 5:00:00 PM 7.69 45.842 114 7.27 3.86 12.74
3/23/2021 5:15:00 PM 7.71 45.878 114 7.27 3.86 12.75
3/23/2021 5:30:00 PM 7.72 45.896 114 7.28 3.87 12.75
3/23/2021 5:45:00 PM 7.72 45.896 114 7.28 3.52 12.76
3/23/2021 6:00:00 PM 7.73 45.914 114 7.28 3.71 12.76
3/23/2021 6:15:00 PM 7.73 45.914 114 7.28 4 12.76
3/23/2021 6:30:00 PM 7.73 45.914 114 7.29 3.99 12.76
3/23/2021 6:45:00 PM 7.73 45.914 114 7.29 4.39 12.76
3/23/2021 7:00:00 PM 7.74 45.932 114 7.29 4.68 12.76
3/23/2021 7:15:00 PM 7.74 45.932 114 7.29 4.11 12.75
3/23/2021 7:30:00 PM 7.75 45.95 114 7.29 3.93 12.75
3/23/2021 7:45:00 PM 7.75 45.95 114 7.29 4.27 12.74
3/23/2021 8:00:00 PM 7.76 45.968 114 7.29 3.59 12.74
3/23/2021 8:15:00 PM 7.77 45.986 114 7.29 3.96 12.74
3/23/2021 8:30:00 PM 7.77 45.986 115 7.29 3.92 12.73
3/23/2021 8:45:00 PM 7.78 46.004 115 7.29 4.59 12.72
3/23/2021 9:00:00 PM 7.79 46.022 115 7.29 4 12.71
3/23/2021 9:15:00 PM 7.8 46.04 115 7.29 4.46 12.7
3/23/2021 9:30:00 PM 7.81 46.058 115 7.29 3.89 12.68
3/23/2021 9:45:00 PM 7.81 46.058 115 7.29 4.12 12.68
3/23/2021 10:00:00 PM 7.81 46.058 115 7.29 4.04 12.67
3/23/2021 10:15:00 PM 7.81 46.058 115 7.29 4.44 12.65
3/23/2021 10:30:00 PM 7.81 46.058 115 7.29 3.75 12.64
3/23/2021 10:45:00 PM 7.81 46.058 115 7.28 3.93 12.63
3/23/2021 11:00:00 PM 7.81 46.058 115 7.28 4.01 12.61
3/23/2021 11:15:00 PM 7.81 46.058 115 7.28 3.71 12.61
3/23/2021 11:30:00 PM 7.81 46.058 116 7.28 3.78 12.59
3/23/2021 11:45:00 PM 7.81 46.058 116 7.28 3.93 12.58
3/24/2021 12:00:00 AM 7.8 46.04 116 7.28 4.44 12.61
3/24/2021 12:15:00 AM 7.8 46.04 116 7.28 3.33 12.55
3/24/2021 12:30:00 AM 7.8 46.04 116 7.27 3.47 12.54
3/24/2021 12:45:00 AM 7.79 46.022 116 7.27 3.39 12.52
3/24/2021 1:00:00 AM 7.79 46.022 116 7.27 3.33 12.51
3/24/2021 1:15:00 AM 7.78 46.004 116 7.27 3.57 12.49
3/24/2021 1:30:00 AM 7.77 45.986 116 7.27 3.78 12.48
3/24/2021 1:45:00 AM 7.76 45.968 116 7.27 3.83 12.47
3/24/2021 2:00:00 AM 7.75 45.95 116 7.26 3.68 12.46
3/24/2021 2:15:00 AM 7.75 45.95 116 7.26 3.62 12.44
3/24/2021 2:30:00 AM 7.74 45.932 116 7.26 3.69 12.43
3/24/2021 2:45:00 AM 7.73 45.914 116 7.26 4.36 12.42
3/24/2021 3:00:00 AM 7.73 45.914 116 7.26 4.43 12.4
3/24/2021 3:15:00 AM 7.72 45.896 116 7.26 3.64 12.39
3/24/2021 3:30:00 AM 7.72 45.896 116 7.25 3.58 12.38
3/24/2021 3:45:00 AM 7.71 45.878 116 7.25 3.7 12.36
3/24/2021 4:00:00 AM 7.71 45.878 117 7.25 3.62 12.35
3/24/2021 4:15:00 AM 7.7 45.86 116 7.24 3.33 12.34
3/24/2021 4:30:00 AM 7.7 45.86 117 7.25 3.73 12.34
3/24/2021 4:45:00 AM 7.69 45.842 116 7.25 3.59 12.32
3/24/2021 5:00:00 AM 7.69 45.842 117 7.24 3.42 12.31
3/24/2021 5:15:00 AM 7.68 45.824 117 7.24 3.18 12.3
3/24/2021 5:30:00 AM 7.68 45.824 117 7.24 3.78 12.29
3/24/2021 5:45:00 AM 7.67 45.806 117 7.24 3.73 12.29
3/24/2021 6:00:00 AM 7.66 45.788 117 7.23 3.48 12.28
3/24/2021 6:15:00 AM 7.66 45.788 117 7.23 3.36 12.27
3/24/2021 6:30:00 AM 7.65 45.77 117 7.23 3.38 12.26
3/24/2021 6:45:00 AM 7.64 45.752 117 7.23 3.51 12.26
3/24/2021 7:00:00 AM 7.63 45.734 117 7.23 3.31 12.25
3/24/2021 7:15:00 AM 7.62 45.716 117 7.23 3.21 12.25
3/24/2021 7:30:00 AM 7.61 45.698 117 7.23 3.57 12.24
3/24/2021 7:45:00 AM 7.61 45.698 117 7.23 3.11 12.24
3/24/2021 8:00:00 AM 7.6 45.68 117 7.22 3.41 12.24
3/24/2021 8:15:00 AM 7.59 45.662 117 7.22 3.53 12.23
3/24/2021 8:30:00 AM 7.58 45.644 117 7.22 3.14 12.24
3/24/2021 8:45:00 AM 7.58 45.644 117 7.22 3.68 12.24
3/24/2021 9:00:00 AM 7.57 45.626 117 7.22 3.36 12.23
3/24/2021 9:15:00 AM 7.57 45.626 117 7.22 3.55 12.24
3/24/2021 9:30:00 AM 7.56 45.608 117 7.22 3.18 12.24
3/24/2021 9:45:00 AM 7.56 45.608 117 7.22 3.6 12.24
3/24/2021 10:00:00 AM 7.78 46.004 125 7.22 2.56 12.37
3/24/2021 10:15:00 AM 7.63 45.734 120 7.2 3.55 12.29
3/24/2021 10:30:00 AM 7.57 45.626 117 7.22 3.67 12.25
3/24/2021 10:45:00 AM 7.57 45.626 117 7.22 3.28 12.26
3/24/2021 11:00:00 AM 7.57 45.626 117 7.22 3.37 12.27
3/24/2021 11:15:00 AM 7.58 45.644 117 7.22 3.57 12.27
3/24/2021 11:30:00 AM 7.59 45.662 117 7.23 3.38 12.27
3/24/2021 11:45:00 AM 7.61 45.698 117 7.23 3.27 12.28
3/24/2021 12:00:00 PM 7.62 45.716 117 7.23 3.35 12.28
3/24/2021 12:15:00 PM 7.64 45.752 117 7.23 3.56 12.29
3/24/2021 12:30:00 PM 7.65 45.77 118 7.24 3.61 12.3
3/24/2021 12:45:00 PM 7.66 45.788 118 7.24 3.5 12.3
3/24/2021 1:00:00 PM 7.68 45.824 118 7.24 3.39 12.3
3/24/2021 1:15:00 PM 7.69 45.842 118 7.25 3.66 12.31
3/24/2021 1:30:00 PM 7.7 45.86 118 7.25 3.84 12.32
3/24/2021 1:45:00 PM 7.71 45.878 118 7.25 3.55 12.32
3/24/2021 2:00:00 PM 7.73 45.914 118 7.25 3.32 12.33
3/24/2021 2:15:00 PM 7.75 45.95 118 7.25 3.3 12.33
3/24/2021 2:30:00 PM 7.77 45.986 118 7.26 3.32 12.33
3/24/2021 2:45:00 PM 7.78 46.004 118 7.26 3.49 12.34
3/24/2021 3:00:00 PM 7.8 46.04 118 7.26 3.36 12.34
3/24/2021 3:15:00 PM 7.8 46.04 118 7.26 3.37 12.34
3/24/2021 3:30:00 PM 7.81 46.058 118 7.26 3.39 12.34
3/24/2021 3:45:00 PM 7.82 46.076 118 7.26 3.34 12.35
3/24/2021 4:00:00 PM 7.83 46.094 118 7.26 3.79 12.35
3/24/2021 4:15:00 PM 7.84 46.112 118 7.27 3.93 12.35
3/24/2021 4:30:00 PM 7.85 46.13 118 7.27 3.04 12.35
3/24/2021 4:45:00 PM 7.84 46.112 118 7.27 3.76 12.35
3/24/2021 5:00:00 PM 7.85 46.13 119 7.27 3.19 12.35
3/24/2021 5:15:00 PM 7.85 46.13 119 7.27 3.45 12.34
3/24/2021 5:30:00 PM 7.85 46.13 119 7.28 3.6 12.35
3/24/2021 5:45:00 PM 7.86 46.148 119 7.28 4.05 12.35
3/24/2021 6:00:00 PM 7.86 46.148 119 7.28 3.73 12.35
3/24/2021 6:15:00 PM 7.87 46.166 120 7.29 3.73 12.35
3/24/2021 6:30:00 PM 7.88 46.184 120 7.29 3.52 12.36
3/24/2021 6:45:00 PM 7.89 46.202 120 7.29 3.49 12.35
3/24/2021 7:00:00 PM 7.9 46.22 120 7.29 3.31 12.36
3/24/2021 7:15:00 PM 7.91 46.238 120 7.29 3.78 12.36
3/24/2021 7:30:00 PM 7.92 46.256 120 7.3 3.45 12.36
3/24/2021 7:45:00 PM 7.93 46.274 120 7.29 4.12 12.36
3/24/2021 8:00:00 PM 7.94 46.292 120 7.29 3.16 12.37
3/24/2021 8:15:00 PM 7.95 46.31 120 7.29 3.75 12.37
3/24/2021 8:30:00 PM 7.96 46.328 120 7.29 3.54 12.37
3/24/2021 8:45:00 PM 7.96 46.328 119 7.29 4.08 12.38
3/24/2021 9:00:00 PM 7.98 46.364 119 7.29 3.71 12.37
3/24/2021 9:15:00 PM 7.99 46.382 119 7.29 3.59 12.38
3/24/2021 9:30:00 PM 8 46.4 119 7.29 3.82 12.36
3/24/2021 9:45:00 PM 8 46.4 119 7.29 3.85 12.37
3/24/2021 10:00:00 PM 8.01 46.418 119 7.29 3.87 12.36
3/24/2021 10:15:00 PM 8.01 46.418 119 7.29 4.32 12.35
3/24/2021 10:30:00 PM 8.02 46.436 120 7.29 3.5 12.35
3/24/2021 10:45:00 PM 8.02 46.436 120 7.29 3.99 12.34
3/24/2021 11:00:00 PM 8.03 46.454 120 7.29 4.11 12.33
3/24/2021 11:15:00 PM 8.03 46.454 120 7.29 3.86 12.32
3/24/2021 11:30:00 PM 8.03 46.454 120 7.3 3.84 12.31
3/24/2021 11:45:00 PM 8.03 46.454 120 7.29 4 12.31
3/25/2021 12:00:00 AM 8.03 46.454 120 7.29 3.86 12.3
3/25/2021 12:15:00 AM 8.03 46.454 120 7.29 3.73 12.29
3/25/2021 12:30:00 AM 8.03 46.454 120 7.29 3.75 12.29
3/25/2021 12:45:00 AM 8.03 46.454 119 7.29 4.13 12.28
3/25/2021 1:00:00 AM 8.03 46.454 119 7.29 3.72 12.28
3/25/2021 1:15:00 AM 8.03 46.454 119 7.28 4.54 12.27
3/25/2021 1:30:00 AM 8.03 46.454 119 7.28 4.02 12.25
3/25/2021 1:45:00 AM 8.22 46.796 128 7.23 2.86 12.31
3/25/2021 2:00:00 AM 8.07 46.526 122 7.21 3.17 12.27
3/25/2021 2:15:00 AM 8.04 46.472 119 7.26 3.78 12.24
3/25/2021 2:30:00 AM 8.03 46.454 119 7.27 3.97 12.22
3/25/2021 2:45:00 AM 8.03 46.454 119 7.27 4.27 12.21
3/25/2021 3:00:00 AM 8.03 46.454 119 7.26 4.2 12.2
3/25/2021 3:15:00 AM 8.03 46.454 118 7.26 3.96 12.19
3/25/2021 3:30:00 AM 8.03 46.454 118 7.26 3.86 12.18
3/25/2021 3:45:00 AM 8.03 46.454 118 7.26 3.91 12.17
3/25/2021 4:00:00 AM 8.03 46.454 118 7.25 4.03 12.16
3/25/2021 4:15:00 AM 8.02 46.436 118 7.25 4.13 12.15
3/25/2021 4:30:00 AM 8.02 46.436 117 7.25 4.69 12.14
3/25/2021 4:45:00 AM 8.02 46.436 117 7.25 4.24 12.13
3/25/2021 5:00:00 AM 8.01 46.418 117 7.25 3.97 12.12
3/25/2021 5:15:00 AM 8.01 46.418 117 7.25 4.23 12.11
3/25/2021 5:30:00 AM 8.01 46.418 117 7.24 4.25 12.1
3/25/2021 5:45:00 AM 8 46.4 117 7.24 4.11 12.1
3/25/2021 6:00:00 AM 8 46.4 116 7.24 4.23 12.08
3/25/2021 6:15:00 AM 8 46.4 116 7.24 4.43 12.08
3/25/2021 6:30:00 AM 7.99 46.382 116 7.24 6.03 12.08
3/25/2021 6:45:00 AM 7.99 46.382 116 7.24 4.47 12.07
3/25/2021 7:00:00 AM 7.99 46.382 116 7.23 4.83 12.06
3/25/2021 7:15:00 AM 7.99 46.382 115 7.23 3.99 12.06
3/25/2021 7:30:00 AM 7.99 46.382 115 7.23 4.5 12.05
3/25/2021 7:45:00 AM 7.99 46.382 115 7.23 4.61 12.05
3/25/2021 8:00:00 AM 7.99 46.382 115 7.23 4.53 12.05
3/25/2021 8:15:00 AM 7.99 46.382 115 7.23 4.83 12.05
3/25/2021 8:30:00 AM 8 46.4 115 7.23 4.88 12.05
3/25/2021 8:45:00 AM 8 46.4 114 7.23 4.27 12.04
3/25/2021 9:00:00 AM 8.01 46.418 114 7.22 4.77 12.04
3/25/2021 9:15:00 AM 8.02 46.436 114 7.22 4.22 12.05
3/25/2021 9:30:00 AM 8.02 46.436 114 7.22 4.51 12.05
3/25/2021 9:45:00 AM 8.03 46.454 114 7.22 5.11 12.05
3/25/2021 10:00:00 AM 8.23 46.814 123 7.25 3.32 12.18
3/25/2021 10:15:00 AM 8.15 46.67 121 7.18 3.14 12.15
3/25/2021 10:30:00 AM 8.06 46.508 114 7.22 4.47 12.07
3/25/2021 10:45:00 AM 8.07 46.526 113 7.22 4.25 12.07
3/25/2021 11:00:00 AM 8.09 46.562 113 7.22 4.53 12.08
3/25/2021 11:15:00 AM 8.11 46.598 113 7.22 5.42 12.08
3/25/2021 11:30:00 AM 8.14 46.652 113 7.22 4.64 12.09
3/25/2021 11:45:00 AM 8.16 46.688 113 7.23 4.74 12.1
3/25/2021 12:00:00 PM 8.19 46.742 112 7.23 4.42 12.1
3/25/2021 12:15:00 PM 8.22 46.796 112 7.23 4.91 12.11
3/25/2021 12:30:00 PM 8.26 46.868 112 7.23 5.35 12.11
3/25/2021 12:45:00 PM 8.32 46.976 112 7.23 4.97 12.13
3/25/2021 1:00:00 PM 8.38 47.084 111 7.23 4.6 12.13
3/25/2021 1:15:00 PM 8.41 47.138 112 7.23 5.51 12.14
3/25/2021 1:30:00 PM 8.45 47.21 111 7.24 5.34 12.14
3/25/2021 1:45:00 PM 8.5 47.3 111 7.24 4.99 12.15
3/25/2021 2:00:00 PM 8.56 47.408 111 7.23 5.51 12.16
3/25/2021 2:15:00 PM 8.61 47.498 111 7.24 4.87 12.17
3/25/2021 2:30:00 PM 8.65 47.57 111 7.24 4.74 12.18
3/25/2021 2:45:00 PM 8.66 47.588 110 7.24 4.81 12.18
3/25/2021 3:00:00 PM 8.69 47.642 110 7.25 5.52 12.18
3/25/2021 3:15:00 PM 8.72 47.696 110 7.25 4.67 12.19
3/25/2021 3:30:00 PM 8.76 47.768 110 7.25 4.9 12.2
3/25/2021 3:45:00 PM 8.78 47.804 110 7.25 5.24 12.2
3/25/2021 4:00:00 PM 8.81 47.858 109 7.25 4.84 12.2
3/25/2021 4:15:00 PM 8.85 47.93 109 7.26 6.62 12.21
3/25/2021 4:30:00 PM 8.87 47.966 109 7.26 6.31 12.22
3/25/2021 4:45:00 PM 8.88 47.984 109 7.26 5.26 12.23
3/25/2021 5:00:00 PM 8.9 48.02 109 7.26 6.58 12.23
3/25/2021 5:15:00 PM 8.91 48.038 109 7.27 6.11 12.23
3/25/2021 5:30:00 PM 8.91 48.038 109 7.26 6.58 12.24
3/25/2021 5:45:00 PM 8.91 48.038 109 7.27 10.24 12.23
3/25/2021 6:00:00 PM 8.9 48.02 109 7.27 6.99 12.24
3/25/2021 6:15:00 PM 8.89 48.002 109 7.27 8.38 12.25
3/25/2021 6:30:00 PM 8.88 47.984 108 7.27 7.03 12.25
3/25/2021 6:45:00 PM 8.88 47.984 108 7.28 7.61 12.25
3/25/2021 7:00:00 PM 8.87 47.966 109 7.28 12.74 12.25
3/25/2021 7:15:00 PM 8.87 47.966 108 7.28 8.83 12.25
3/25/2021 7:30:00 PM 8.87 47.966 109 7.28 7.12 12.25
3/25/2021 7:45:00 PM 8.87 47.966 108 7.28 6.88 12.27
3/25/2021 8:00:00 PM 8.87 47.966 108 7.28 5.3 12.25
3/25/2021 8:15:00 PM 8.87 47.966 108 7.28 7.18 12.24
3/25/2021 8:30:00 PM 8.89 48.002 109 7.28 7.46 12.25
3/25/2021 8:45:00 PM 8.9 48.02 108 7.28 6.91 12.23
3/25/2021 9:00:00 PM 8.91 48.038 109 7.28 6.77 12.22
3/25/2021 9:15:00 PM 8.92 48.056 109 7.28 6.66 12.22
3/25/2021 9:30:00 PM 8.93 48.074 109 7.28 7.07 12.21
3/25/2021 9:45:00 PM 8.95 48.11 109 7.28 6.18 12.21
3/25/2021 10:00:00 PM 8.97 48.146 109 7.28 7.44 12.2
3/25/2021 10:15:00 PM 8.98 48.164 109 7.28 6.56 12.19
3/25/2021 10:30:00 PM 9 48.2 109 7.28 6.18 12.17
3/25/2021 10:45:00 PM 9.01 48.218 109 7.28 5.98 12.16
3/25/2021 11:00:00 PM 9.03 48.254 109 7.28 5.49 12.15
3/25/2021 11:15:00 PM 9.04 48.272 109 7.28 6.39 12.15
3/25/2021 11:30:00 PM 9.06 48.308 109 7.28 5.57 12.13
3/25/2021 11:45:00 PM 9.07 48.326 109 7.28 5.1 12.13
3/26/2021 12:00:00 AM 9.08 48.344 109 7.28 4.87 12.11
3/26/2021 12:15:00 AM 9.09 48.362 109 7.27 4.86 12.1
3/26/2021 12:30:00 AM 9.1 48.38 109 7.27 5.37 12.08
3/26/2021 12:45:00 AM 9.11 48.398 109 7.27 5.06 12.07
3/26/2021 1:00:00 AM 9.12 48.416 109 7.27 6 12.06
3/26/2021 1:15:00 AM 9.13 48.434 109 7.27 5.38 12.04
3/26/2021 1:30:00 AM 9.13 48.434 109 7.27 5.38 12.02
3/26/2021 1:45:00 AM 9.13 48.434 109 7.26 4.97 12.01
3/26/2021 2:00:00 AM 9.14 48.452 109 7.26 5.2 11.99
3/26/2021 2:15:00 AM 9.15 48.47 109 7.26 5.1 11.99
3/26/2021 2:30:00 AM 9.16 48.488 109 7.26 4.91 11.97
3/26/2021 2:45:00 AM 9.17 48.506 109 7.26 5.12 11.95
3/26/2021 3:00:00 AM 9.18 48.524 109 7.25 5.05 11.94
3/26/2021 3:15:00 AM 9.18 48.524 109 7.25 4.22 11.92
3/26/2021 3:30:00 AM 9.19 48.542 109 7.25 4.63 11.9
3/26/2021 3:45:00 AM 9.19 48.542 109 7.25 4.91 11.89
3/26/2021 4:00:00 AM 9.19 48.542 109 7.25 4.51 11.88
3/26/2021 4:15:00 AM 9.19 48.542 109 7.24 4.72 11.86
3/26/2021 4:30:00 AM 9.19 48.542 109 7.24 4.19 11.85
3/26/2021 4:45:00 AM 9.19 48.542 109 7.24 4.33 11.83
3/26/2021 5:00:00 AM 9.19 48.542 109 7.24 4.51 11.83
3/26/2021 5:15:00 AM 9.2 48.56 109 7.24 4.63 11.81
3/26/2021 5:30:00 AM 9.2 48.56 109 7.23 4.26 11.8
3/26/2021 5:45:00 AM 9.21 48.578 109 7.23 4.62 11.78
3/26/2021 6:00:00 AM 9.21 48.578 109 7.23 4.4 11.77
3/26/2021 6:15:00 AM 9.22 48.596 109 7.23 4.02 11.76
3/26/2021 6:30:00 AM 9.23 48.614 109 7.23 3.9 11.75
3/26/2021 6:45:00 AM 9.25 48.65 109 7.22 4.32 11.74
3/26/2021 7:00:00 AM 9.27 48.686 109 7.22 4.54 11.73
3/26/2021 7:15:00 AM 9.29 48.722 109 7.22 4.18 11.72
3/26/2021 7:30:00 AM 9.3 48.74 109 7.22 4.37 11.72
3/26/2021 7:45:00 AM 9.33 48.794 109 7.22 4.09 11.7
3/26/2021 8:00:00 AM 9.35 48.83 109 7.22 4.64 11.69
3/26/2021 8:15:00 AM 9.39 48.902 109 7.22 4.33 11.7
3/26/2021 8:30:00 AM 9.42 48.956 109 7.22 4.58 11.68
3/26/2021 8:45:00 AM 9.47 49.046 109 7.22 4.3 11.69
3/26/2021 9:00:00 AM 9.52 49.136 109 7.22 4.31 11.68
3/26/2021 9:15:00 AM 9.65 49.37 117 7.2 3.02 11.78
3/26/2021 9:30:00 AM 9.62 49.316 111 7.2 4.02 11.69
3/26/2021 9:45:00 AM 9.71 49.478 109 7.22 5.04 11.68
3/26/2021 10:00:00 AM 9.78 49.604 109 7.22 4.77 11.69
3/26/2021 10:15:00 AM 9.83 49.694 109 7.22 4.74 11.67
3/26/2021 10:30:00 AM 9.87 49.766 109 7.23 4.93 11.66
3/26/2021 10:45:00 AM 9.9 49.82 110 7.23 4.57 11.66
3/26/2021 11:00:00 AM 9.95 49.91 110 7.23 4.02 11.66
3/26/2021 11:15:00 AM 10 50 110 7.23 4.55 11.67
3/26/2021 11:30:00 AM 10.05 50.09 110 7.23 4.54 11.67
3/26/2021 11:45:00 AM 10.11 50.198 110 7.23 4.98 11.66
3/26/2021 12:00:00 PM 10.16 50.288 110 7.24 4.18 11.67
3/26/2021 12:15:00 PM 10.22 50.396 110 7.24 4.51 11.67
3/26/2021 12:30:00 PM 10.26 50.468 110 7.24 4.87 11.67
3/26/2021 12:45:00 PM 10.28 50.504 110 7.24 4.32 11.67
3/26/2021 1:00:00 PM 10.32 50.576 110 7.25 4.29 11.67
3/26/2021 1:15:00 PM 10.38 50.684 110 7.25 4.04 11.67
3/26/2021 1:30:00 PM 10.46 50.828 110 7.25 4.61 11.67
3/26/2021 1:45:00 PM 10.52 50.936 110 7.25 4.57 11.67
3/26/2021 2:00:00 PM 10.53 50.954 110 7.26 4.44 11.66
3/26/2021 2:15:00 PM 10.51 50.918 110 7.26 4.39 11.67
3/26/2021 2:30:00 PM 10.51 50.918 110 7.26 4.63 11.67
3/26/2021 2:45:00 PM 10.52 50.936 111 7.26 4.21 11.67
3/26/2021 3:00:00 PM 10.52 50.936 111 7.27 4.17 11.66
3/26/2021 3:15:00 PM 10.53 50.954 111 7.27 4.06 11.66
3/26/2021 3:30:00 PM 10.54 50.972 110 7.27 4.93 11.65
3/26/2021 3:45:00 PM 10.56 51.008 110 7.27 4.83 11.65
3/26/2021 4:00:00 PM 10.58 51.044 110 7.28 4.58 11.65
3/26/2021 4:15:00 PM 10.62 51.116 110 7.28 4.53 11.64
3/26/2021 4:30:00 PM 10.71 51.278 110 7.28 5 11.64
3/26/2021 4:45:00 PM 10.77 51.386 110 7.28 4.87 11.65
3/26/2021 5:00:00 PM 10.68 51.224 120 7.23 2.9 11.68
3/26/2021 5:15:00 PM 10.67 51.206 114 7.23 3.54 11.65
3/26/2021 5:30:00 PM 10.76 51.368 111 7.28 4.6 11.63
3/26/2021 5:45:00 PM 10.72 51.296 111 7.29 4.67 11.63
3/26/2021 6:00:00 PM 10.67 51.206 110 7.29 4.33 11.62
3/26/2021 6:15:00 PM 10.62 51.116 111 7.29 4.38 11.63
3/26/2021 6:30:00 PM 10.6 51.08 110 7.29 4.99 11.63
3/26/2021 6:45:00 PM 10.6 51.08 110 7.3 5.17 11.63
3/26/2021 7:00:00 PM 10.6 51.08 110 7.3 4.35 11.64
3/26/2021 7:15:00 PM 10.59 51.062 111 7.3 5.22 11.63
3/26/2021 7:30:00 PM 10.57 51.026 111 7.3 4.77 11.63
3/26/2021 7:45:00 PM 10.56 51.008 111 7.3 4.51 11.63
3/26/2021 8:00:00 PM 10.55 50.99 111 7.3 4.43 11.63
3/26/2021 8:15:00 PM 10.55 50.99 111 7.3 3.86 11.62
3/26/2021 8:30:00 PM 10.55 50.99 111 7.3 3.91 11.63
3/26/2021 8:45:00 PM 10.55 50.99 111 7.3 4.38 11.63
3/26/2021 9:00:00 PM 10.56 51.008 111 7.3 4.9 11.62
3/26/2021 9:15:00 PM 10.58 51.044 111 7.3 4.64 11.62
3/26/2021 9:30:00 PM 10.59 51.062 111 7.3 4.55 11.62
3/26/2021 9:45:00 PM 10.61 51.098 111 7.3 4.33 11.61
3/26/2021 10:00:00 PM 10.62 51.116 111 7.3 3.96 11.6
3/26/2021 10:15:00 PM 10.64 51.152 111 7.3 4.24 11.6
3/26/2021 10:30:00 PM 10.65 51.17 111 7.3 4.29 11.58
3/26/2021 10:45:00 PM 10.66 51.188 111 7.3 4.78 11.57
3/26/2021 11:00:00 PM 10.68 51.224 111 7.3 4.34 11.56
3/26/2021 11:15:00 PM 10.68 51.224 111 7.29 4.24 11.54
3/26/2021 11:30:00 PM 10.69 51.242 111 7.29 5.12 11.53
3/26/2021 11:45:00 PM 10.7 51.26 111 7.29 4.18 11.52
3/27/2021 12:00:00 AM 10.71 51.278 111 7.29 4.41 11.51
3/27/2021 12:15:00 AM 10.72 51.296 112 7.29 4.7 11.5
3/27/2021 12:30:00 AM 10.74 51.332 111 7.29 4.67 11.49
3/27/2021 12:45:00 AM 10.74 51.332 111 7.29 4.22 11.47
3/27/2021 1:00:00 AM 10.74 51.332 111 7.29 4.27 11.46
3/27/2021 1:15:00 AM 10.74 51.332 111 7.28 4.2 11.45
3/27/2021 1:30:00 AM 10.73 51.314 111 7.28 4.47 11.44
3/27/2021 1:45:00 AM 10.72 51.296 111 7.28 4.8 11.42
3/27/2021 2:00:00 AM 10.71 51.278 111 7.28 4.55 11.41
3/27/2021 2:15:00 AM 10.7 51.26 112 7.28 4.81 11.4
3/27/2021 2:30:00 AM 10.69 51.242 112 7.27 4.67 11.38
3/27/2021 2:45:00 AM 10.68 51.224 112 7.27 4.41 11.37
3/27/2021 3:00:00 AM 10.67 51.206 112 7.27 4.61 11.37
3/27/2021 3:15:00 AM 10.66 51.188 112 7.27 4.45 11.35
3/27/2021 3:30:00 AM 10.65 51.17 112 7.26 4.62 11.34
3/27/2021 3:45:00 AM 10.64 51.152 112 7.26 4.76 11.32
3/27/2021 4:00:00 AM 10.63 51.134 112 7.26 4.68 11.31
3/27/2021 4:15:00 AM 10.61 51.098 112 7.26 4.99 11.3
3/27/2021 4:30:00 AM 10.6 51.08 112 7.25 4.48 11.3
3/27/2021 4:45:00 AM 10.59 51.062 111 7.25 4.58 11.28
3/27/2021 5:00:00 AM 10.58 51.044 111 7.25 4.6 11.27
3/27/2021 5:15:00 AM 10.57 51.026 111 7.25 4.77 11.26
3/27/2021 5:30:00 AM 10.56 51.008 111 7.25 5.07 11.26
3/27/2021 5:45:00 AM 10.55 50.99 111 7.24 4.77 11.24
3/27/2021 6:00:00 AM 10.53 50.954 112 7.24 4.97 11.24
3/27/2021 6:15:00 AM 10.52 50.936 112 7.24 4.46 11.22
3/27/2021 6:30:00 AM 10.51 50.918 112 7.24 4.89 11.22
3/27/2021 6:45:00 AM 10.5 50.9 112 7.23 4.97 11.21
3/27/2021 7:00:00 AM 10.49 50.882 112 7.23 4.91 11.2
3/27/2021 7:15:00 AM 10.49 50.882 112 7.23 5.02 11.2
3/27/2021 7:30:00 AM 10.48 50.864 112 7.23 4.23 11.2
3/27/2021 7:45:00 AM 10.47 50.846 112 7.23 5.46 11.19
3/27/2021 8:00:00 AM 10.47 50.846 112 7.23 4.89 11.19
3/27/2021 8:15:00 AM 10.48 50.864 112 7.23 4.25 11.19
3/27/2021 8:30:00 AM 10.49 50.882 112 7.23 5.74 11.19
3/27/2021 8:45:00 AM 10.5 50.9 112 7.23 4.92 11.19
3/27/2021 9:00:00 AM 10.52 50.936 112 7.23 4.81 11.19
3/27/2021 9:15:00 AM 10.55 50.99 112 7.23 4.62 11.21
3/27/2021 9:30:00 AM 10.58 51.044 112 7.23 5.22 11.2
3/27/2021 9:45:00 AM 10.62 51.116 113 7.23 4.64 11.21
3/27/2021 10:00:00 AM 10.66 51.188 113 7.23 4.15 11.22
3/27/2021 10:15:00 AM 10.7 51.26 113 7.23 4.55 11.23
3/27/2021 10:30:00 AM 10.75 51.35 113 7.24 4.57 11.22
3/27/2021 10:45:00 AM 10.79 51.422 113 7.24 4.98 11.25
3/27/2021 11:00:00 AM 10.83 51.494 113 7.24 4.89 11.24
3/27/2021 11:15:00 AM 10.86 51.548 113 7.24 4.75 11.25
3/27/2021 11:30:00 AM 10.9 51.62 113 7.24 4.47 11.27
3/27/2021 11:45:00 AM 10.96 51.728 113 7.25 4.67 11.27
3/27/2021 12:00:00 PM 11.01 51.818 113 7.25 4.25 11.28
3/27/2021 12:15:00 PM 11.09 51.962 113 7.25 6.21 11.28
3/27/2021 12:30:00 PM 11.14 52.052 113 7.25 4.32 11.29
3/27/2021 12:45:00 PM 11.2 52.16 113 7.26 4.38 11.28
3/27/2021 1:00:00 PM 11.27 52.286 113 7.26 4.35 11.31
3/27/2021 1:15:00 PM 11.35 52.43 113 7.26 4.38 11.3
3/27/2021 1:30:00 PM 11.43 52.574 113 7.27 4.47 11.32
3/27/2021 1:45:00 PM 11.48 52.664 113 7.27 4.04 11.32
3/27/2021 2:00:00 PM 11.55 52.79 113 7.27 3.74 11.33
3/27/2021 2:15:00 PM 11.63 52.934 113 7.27 4.38 11.34
3/27/2021 2:30:00 PM 11.67 53.006 113 7.28 4.49 11.34
3/27/2021 2:45:00 PM 11.7 53.06 113 7.28 4.13 11.35
3/27/2021 3:00:00 PM 11.74 53.132 113 7.28 4.17 11.35
3/27/2021 3:15:00 PM 11.78 53.204 113 7.29 3.64 11.37
3/27/2021 3:30:00 PM 11.81 53.258 113 7.29 4.05 11.37
3/27/2021 3:45:00 PM 11.84 53.312 114 7.29 4.2 11.37
3/27/2021 4:00:00 PM 11.85 53.33 114 7.29 4.36 11.38
3/27/2021 4:15:00 PM 11.85 53.33 114 7.3 4.29 11.38
3/27/2021 4:30:00 PM 11.86 53.348 114 7.3 3.83 11.39
3/27/2021 4:45:00 PM 11.87 53.366 114 7.3 4.5 11.41
3/27/2021 5:00:00 PM 11.88 53.384 114 7.31 3.9 11.41
3/27/2021 5:15:00 PM 11.89 53.402 114 7.31 4.21 11.42
3/27/2021 5:30:00 PM 11.9 53.42 114 7.31 4.1 11.43
3/27/2021 5:45:00 PM 11.92 53.456 114 7.32 4.07 11.44
3/27/2021 6:00:00 PM 11.93 53.474 114 7.32 3.66 11.44
3/27/2021 6:15:00 PM 11.93 53.474 114 7.32 3.77 11.44
3/27/2021 6:30:00 PM 11.73 53.114 120 7.34 3.65 11.51
3/27/2021 6:45:00 PM 11.63 52.934 120 7.25 2.82 11.46
3/27/2021 7:00:00 PM 11.86 53.348 114 7.31 4.79 11.46
3/27/2021 7:15:00 PM 11.88 53.384 114 7.33 4.39 11.46
3/27/2021 7:30:00 PM 11.88 53.384 114 7.32 4.93 11.46
3/27/2021 7:45:00 PM 11.88 53.384 114 7.33 5.36 11.46
3/27/2021 8:00:00 PM 11.88 53.384 114 7.33 5.44 11.46
3/27/2021 8:15:00 PM 11.88 53.384 114 7.33 5.58 11.46
3/27/2021 8:30:00 PM 11.89 53.402 114 7.33 5.13 11.45
3/27/2021 8:45:00 PM 11.89 53.402 114 7.33 4.76 11.45
3/27/2021 9:00:00 PM 11.89 53.402 114 7.33 4.95 11.45
3/27/2021 9:15:00 PM 11.9 53.42 114 7.33 4.45 11.44
3/27/2021 9:30:00 PM 11.89 53.402 114 7.33 4.68 11.43
3/27/2021 9:45:00 PM 11.89 53.402 114 7.33 4.64 11.43
3/27/2021 10:00:00 PM 11.9 53.42 114 7.33 4.23 11.42
3/27/2021 10:15:00 PM 11.9 53.42 115 7.33 4.9 11.41
3/27/2021 10:30:00 PM 11.9 53.42 114 7.33 4.47 11.4
3/27/2021 10:45:00 PM 11.9 53.42 115 7.32 4.7 11.38
3/27/2021 11:00:00 PM 11.9 53.42 115 7.32 4.28 11.38
3/27/2021 11:15:00 PM 11.9 53.42 115 7.32 4.01 11.36
3/27/2021 11:30:00 PM 11.89 53.402 115 7.32 4.22 11.35
3/27/2021 11:45:00 PM 11.88 53.384 115 7.31 4.46 11.34
3/28/2021 12:00:00 AM 11.86 53.348 115 7.31 4.13 11.33
3/28/2021 12:15:00 AM 11.85 53.33 115 7.31 4.66 11.32
3/28/2021 12:30:00 AM 11.83 53.294 115 7.3 3.54 11.31
3/28/2021 12:45:00 AM 11.82 53.276 115 7.3 3.83 11.3
3/28/2021 1:00:00 AM 11.79 53.222 115 7.3 3.44 11.29
3/28/2021 1:15:00 AM 11.77 53.186 115 7.3 4.31 11.28
3/28/2021 1:30:00 AM 11.75 53.15 115 7.29 3.78 11.26
3/28/2021 1:45:00 AM 11.73 53.114 115 7.29 4.11 11.26
3/28/2021 2:00:00 AM 11.7 53.06 115 7.29 4.23 11.25
3/28/2021 2:15:00 AM 11.67 53.006 115 7.29 4.42 11.23
3/28/2021 2:30:00 AM 11.65 52.97 115 7.28 3.88 11.22
3/28/2021 2:45:00 AM 11.62 52.916 116 7.28 4.12 11.21
3/28/2021 3:00:00 AM 11.61 52.898 115 7.28 4.26 11.19
3/28/2021 3:15:00 AM 11.59 52.862 116 7.27 3.73 11.18
3/28/2021 3:30:00 AM 11.56 52.808 115 7.27 4.43 11.17
3/28/2021 3:45:00 AM 11.55 52.79 116 7.27 3.78 11.16
3/28/2021 4:00:00 AM 11.52 52.736 116 7.27 4.02 11.14
3/28/2021 4:15:00 AM 11.51 52.718 116 7.26 3.25 11.13
3/28/2021 4:30:00 AM 11.49 52.682 116 7.26 3.73 11.12
3/28/2021 4:45:00 AM 11.47 52.646 116 7.26 3.96 11.11
3/28/2021 5:00:00 AM 11.45 52.61 116 7.25 3.94 11.09
3/28/2021 5:15:00 AM 11.44 52.592 116 7.25 3.76 11.08
3/28/2021 5:30:00 AM 11.42 52.556 116 7.25 3.45 11.07
3/28/2021 5:45:00 AM 11.41 52.538 116 7.24 3.69 11.06
3/28/2021 6:00:00 AM 11.4 52.52 116 7.24 3.69 11.06
3/28/2021 6:15:00 AM 11.38 52.484 116 7.24 3.95 11.04
3/28/2021 6:30:00 AM 11.37 52.466 116 7.24 3.97 11.03
3/28/2021 6:45:00 AM 11.36 52.448 116 7.23 3.46 11.02
3/28/2021 7:00:00 AM 11.34 52.412 116 7.23 3.7 11.02
3/28/2021 7:15:00 AM 11.33 52.394 116 7.23 4.12 11.01
3/28/2021 7:30:00 AM 11.32 52.376 116 7.23 3.47 11
3/28/2021 7:45:00 AM 11.31 52.358 117 7.23 3.67 10.99
3/28/2021 8:00:00 AM 11.3 52.34 117 7.23 3.63 10.99
3/28/2021 8:15:00 AM 11.29 52.322 117 7.23 3.82 10.99
3/28/2021 8:30:00 AM 11.28 52.304 117 7.23 4 10.99
3/28/2021 8:45:00 AM 11.27 52.286 117 7.23 3.17 10.98
3/28/2021 9:00:00 AM 11.26 52.268 117 7.23 3.6 10.97
3/28/2021 9:15:00 AM 11.25 52.25 117 7.22 3.37 10.97
3/28/2021 9:30:00 AM 11.27 52.286 125 7.28 3.08 11.19
3/28/2021 9:45:00 AM 11.28 52.304 122 7.2 2.77 11.11
3/28/2021 10:00:00 AM 11.23 52.214 118 7.22 3.55 11
3/28/2021 10:15:00 AM 11.22 52.196 117 7.22 3.62 10.99
3/28/2021 10:30:00 AM 11.22 52.196 117 7.23 3.35 10.99
3/28/2021 10:45:00 AM 11.22 52.196 118 7.23 3.19 11
3/28/2021 11:00:00 AM 11.21 52.178 118 7.23 3.14 11
3/28/2021 11:15:00 AM 11.21 52.178 118 7.23 3.21 11.01
3/28/2021 11:30:00 AM 11.2 52.16 118 7.23 3.16 11.01
3/28/2021 11:45:00 AM 11.19 52.142 118 7.23 3.11 11.01
3/28/2021 12:00:00 PM 11.18 52.124 118 7.23 3.02 11.02
3/28/2021 12:15:00 PM 11.18 52.124 118 7.23 3.19 11.02
3/28/2021 12:30:00 PM 11.17 52.106 118 7.23 3.34 11.03
3/28/2021 12:45:00 PM 11.17 52.106 118 7.23 3.1 11.03
3/28/2021 1:00:00 PM 11.17 52.106 118 7.24 3.14 11.05
3/28/2021 1:15:00 PM 11.17 52.106 118 7.24 3.25 11.05
3/28/2021 1:30:00 PM 11.18 52.124 118 7.24 3.33 11.07
3/28/2021 1:45:00 PM 11.19 52.142 118 7.24 2.93 11.08
3/28/2021 2:00:00 PM 11.19 52.142 118 7.24 2.95 11.08
3/28/2021 2:15:00 PM 11.19 52.142 119 7.25 3.42 11.09
3/28/2021 2:30:00 PM 11.2 52.16 119 7.25 3.22 11.09
3/28/2021 2:45:00 PM 11.19 52.142 119 7.25 3.27 11.09
3/28/2021 3:00:00 PM 11.19 52.142 119 7.25 3.28 11.08
3/28/2021 3:15:00 PM 11.19 52.142 119 7.25 3.09 11.1
3/28/2021 3:30:00 PM 11.19 52.142 119 7.25 3.14 11.1
3/28/2021 3:45:00 PM 11.19 52.142 119 7.26 3.28 11.1
3/28/2021 4:00:00 PM 11.2 52.16 119 7.26 3.37 11.11
3/28/2021 4:15:00 PM 11.21 52.178 119 7.28 3.47 11.12
3/28/2021 4:30:00 PM 11.22 52.196 120 7.28 3.37 11.12
3/28/2021 4:45:00 PM 11.22 52.196 120 7.28 3.33 11.14
3/28/2021 5:00:00 PM 11.22 52.196 120 7.28 3.4 11.13
3/28/2021 5:15:00 PM 11.39 52.502 128 7.27 2.28 11.23
3/28/2021 5:30:00 PM 11.29 52.322 122 7.23 2.96 11.16
3/28/2021 5:45:00 PM 11.22 52.196 120 7.27 3.27 11.14
3/28/2021 6:00:00 PM 11.21 52.178 120 7.28 3.13 11.16
3/28/2021 6:15:00 PM 11.21 52.178 120 7.28 2.96 11.17
3/28/2021 6:30:00 PM 11.2 52.16 120 7.28 3.23 11.17
3/28/2021 6:45:00 PM 11.19 52.142 120 7.28 2.9 11.17
3/28/2021 7:00:00 PM 11.19 52.142 121 7.29 3.23 11.16
3/28/2021 7:15:00 PM 11.16 52.088 121 7.29 3.03 11.17
3/28/2021 7:30:00 PM 11.13 52.034 121 7.29 3.18 11.17
3/28/2021 7:45:00 PM 11.1 51.98 121 7.29 3.55 11.18
3/28/2021 8:00:00 PM 11.08 51.944 121 7.29 3.3 11.18
3/28/2021 8:15:00 PM 11.05 51.89 121 7.29 3.34 11.18
3/28/2021 8:30:00 PM 11.03 51.854 121 7.29 3.17 11.19
3/28/2021 8:45:00 PM 11.02 51.836 121 7.29 2.96 11.19
3/28/2021 9:00:00 PM 10.99 51.782 122 7.3 3.24 11.19
3/28/2021 9:15:00 PM 10.97 51.746 122 7.3 3.26 11.2
3/28/2021 9:30:00 PM 10.95 51.71 122 7.3 3.17 11.21
3/28/2021 9:45:00 PM 10.92 51.656 122 7.3 3.31 11.21
3/28/2021 10:00:00 PM 10.91 51.638 122 7.3 3.18 11.22
3/28/2021 10:15:00 PM 10.88 51.584 122 7.3 3.02 11.21
3/28/2021 10:30:00 PM 10.85 51.53 122 7.3 3.19 11.21
3/28/2021 10:45:00 PM 10.83 51.494 122 7.3 2.96 11.2
3/28/2021 11:00:00 PM 10.82 51.476 122 7.3 3.47 11.2
3/28/2021 11:15:00 PM 10.8 51.44 122 7.3 3.64 11.21
3/28/2021 11:30:00 PM 10.77 51.386 122 7.3 3.27 11.21
3/28/2021 11:45:00 PM 10.74 51.332 122 7.3 3.34 11.21
3/29/2021 12:00:00 AM 10.7 51.26 122 7.31 3.53 11.22
3/29/2021 12:15:00 AM 10.67 51.206 122 7.31 3.72 11.22
3/29/2021 12:30:00 AM 10.64 51.152 122 7.31 3.71 11.22
3/29/2021 12:45:00 AM 10.61 51.098 122 7.31 4.17 11.23
3/29/2021 1:00:00 AM 10.59 51.062 123 7.31 3.88 11.22
3/29/2021 1:15:00 AM 10.57 51.026 123 7.31 3.91 11.23
3/29/2021 1:30:00 AM 10.55 50.99 123 7.31 3.64 11.23
3/29/2021 1:45:00 AM 10.53 50.954 123 7.31 3.71 11.22
3/29/2021 2:00:00 AM 10.52 50.936 123 7.31 3.5 11.22
3/29/2021 2:15:00 AM 10.5 50.9 123 7.31 3.47 11.22
3/29/2021 2:30:00 AM 10.48 50.864 123 7.31 3.12 11.23
3/29/2021 2:45:00 AM 10.46 50.828 122 7.31 3.44 11.22
3/29/2021 3:00:00 AM 10.44 50.792 122 7.3 3.43 11.22
3/29/2021 3:15:00 AM 10.41 50.738 122 7.3 3.59 11.21
3/29/2021 3:30:00 AM 10.38 50.684 122 7.3 3.44 11.22
3/29/2021 3:45:00 AM 10.36 50.648 122 7.3 3.18 11.21
3/29/2021 4:00:00 AM 10.33 50.594 122 7.3 3.27 11.21
3/29/2021 4:15:00 AM 10.31 50.558 122 7.3 3.57 11.21
3/29/2021 4:30:00 AM 10.29 50.522 122 7.3 3.03 11.2
3/29/2021 4:45:00 AM 10.25 50.45 122 7.29 3.45 11.2
3/29/2021 5:00:00 AM 10.22 50.396 122 7.29 3.65 11.2
3/29/2021 5:15:00 AM 10.19 50.342 122 7.29 3.86 11.19
3/29/2021 5:30:00 AM 10.15 50.27 122 7.29 3.72 11.19
3/29/2021 5:45:00 AM 10.12 50.216 122 7.29 3.82 11.19
3/29/2021 6:00:00 AM 10.09 50.162 122 7.28 3.73 11.19
3/29/2021 6:15:00 AM 10.06 50.108 122 7.28 3.92 11.19
3/29/2021 6:30:00 AM 10.02 50.036 122 7.28 4.08 11.19
3/29/2021 6:45:00 AM 9.98 49.964 122 7.28 5 11.19
3/29/2021 7:00:00 AM 9.96 49.928 122 7.28 4.65 11.19
3/29/2021 7:15:00 AM 9.92 49.856 122 7.28 4.61 11.19
3/29/2021 7:30:00 AM 9.9 49.82 122 7.28 4.37 11.18
3/29/2021 7:45:00 AM 9.87 49.766 122 7.28 4.61 11.18
3/29/2021 8:00:00 AM 9.85 49.73 122 7.28 3.84 11.19
3/29/2021 8:15:00 AM 9.83 49.694 122 7.28 4.01 11.2
3/29/2021 8:30:00 AM 9.8 49.64 122 7.28 4.22 11.2
3/29/2021 8:45:00 AM 9.79 49.622 122 7.28 5.1 11.22
3/29/2021 9:00:00 AM 9.78 49.604 122 7.28 4.79 11.23
3/29/2021 9:15:00 AM 9.77 49.586 122 7.28 4.96 11.24
3/29/2021 9:30:00 AM 9.78 49.604 121 7.28 4.01 11.26
3/29/2021 9:45:00 AM 9.79 49.622 121 7.29 4.74 11.27
3/29/2021 10:00:00 AM 9.81 49.658 121 7.29 5.05 11.29
3/29/2021 10:15:00 AM 9.83 49.694 121 7.29 4.66 11.3
3/29/2021 10:30:00 AM 9.86 49.748 121 7.29 4.76 11.32
3/29/2021 10:45:00 AM 9.87 49.766 121 7.29 4.61 11.33
3/29/2021 11:00:00 AM 9.89 49.802 121 7.3 4.35 11.35
3/29/2021 11:15:00 AM 9.89 49.802 120 7.3 4.7 11.38
3/29/2021 11:30:00 AM 9.94 49.892 120 7.3 4.44 11.39
3/29/2021 11:45:00 AM 9.99 49.982 120 7.3 4.44 11.41
3/29/2021 12:00:00 PM 10.03 50.054 120 7.31 4.27 11.42
3/29/2021 12:15:00 PM 10.04 50.072 120 7.31 4.96 11.44
3/29/2021 12:30:00 PM 10.08 50.144 119 7.31 4.38 11.46
3/29/2021 12:45:00 PM 10.17 50.306 119 7.31 3.88 11.47
3/29/2021 1:00:00 PM 10.22 50.396 119 7.31 3.87 11.48
3/29/2021 1:15:00 PM 10.26 50.468 119 7.32 4.1 11.49
3/29/2021 1:30:00 PM 10.33 50.594 119 7.32 3.73 11.5
3/29/2021 1:45:00 PM 10.39 50.702 119 7.32 4.09 11.52
3/29/2021 2:00:00 PM 10.42 50.756 119 7.32 4.3 11.53
3/29/2021 2:15:00 PM 10.47 50.846 119 7.32 3.93 11.54
3/29/2021 2:30:00 PM 10.52 50.936 119 7.33 4.07 11.57
3/29/2021 2:45:00 PM 10.54 50.972 119 7.33 4.07 11.57
3/29/2021 3:00:00 PM 10.57 51.026 118 7.33 3.58 11.59
3/29/2021 3:15:00 PM 10.58 51.044 118 7.33 4.14 11.6
3/29/2021 3:30:00 PM 10.6 51.08 118 7.34 4.01 11.61
3/29/2021 3:45:00 PM 10.62 51.116 118 7.34 4.11 11.63
3/29/2021 4:00:00 PM 10.64 51.152 118 7.34 4.22 11.64
3/29/2021 4:15:00 PM 10.64 51.152 118 7.34 3.89 11.65
3/29/2021 4:30:00 PM 10.64 51.152 118 7.35 4.21 11.68
3/29/2021 4:45:00 PM 10.64 51.152 118 7.35 4.71 11.69
3/29/2021 5:00:00 PM 10.64 51.152 118 7.35 4.22 11.71
3/29/2021 5:15:00 PM 10.63 51.134 118 7.36 3.74 11.72
3/29/2021 5:30:00 PM 10.62 51.116 118 7.36 4.04 11.73
3/29/2021 5:45:00 PM 10.6 51.08 118 7.36 4.14 11.75
3/29/2021 6:00:00 PM 10.57 51.026 118 7.36 4.31 11.76
3/29/2021 6:15:00 PM 10.54 50.972 118 7.37 4.47 11.77
3/29/2021 6:30:00 PM 10.5 50.9 118 7.37 3.79 11.78
3/29/2021 6:45:00 PM 10.48 50.864 118 7.37 4.36 11.78
3/29/2021 7:00:00 PM 10.45 50.81 118 7.37 3.89 11.8
3/29/2021 7:15:00 PM 10.42 50.756 118 7.37 4.06 11.8
3/29/2021 7:30:00 PM 10.67 51.206 126 7.31 2.48 11.73
3/29/2021 7:45:00 PM 10.4 50.72 119 7.35 3.65 11.8
3/29/2021 8:00:00 PM 10.33 50.594 118 7.37 3.7 11.82
3/29/2021 8:15:00 PM 10.31 50.558 118 7.37 3.61 11.83
3/29/2021 8:30:00 PM 10.28 50.504 118 7.37 3.99 11.83
3/29/2021 8:45:00 PM 10.26 50.468 118 7.37 3.67 11.84
3/29/2021 9:00:00 PM 10.24 50.432 118 7.38 3.7 11.84
3/29/2021 9:15:00 PM 10.22 50.396 118 7.37 3.69 11.84
3/29/2021 9:30:00 PM 10.2 50.36 118 7.37 3.67 11.84
3/29/2021 9:45:00 PM 10.17 50.306 118 7.37 4.11 11.84
3/29/2021 10:00:00 PM 10.14 50.252 118 7.37 4.13 11.83
3/29/2021 10:15:00 PM 10.13 50.234 118 7.37 4.24 11.83
3/29/2021 10:30:00 PM 10.11 50.198 118 7.37 4.12 11.82
3/29/2021 10:45:00 PM 10.1 50.18 118 7.37 3.54 11.83
3/29/2021 11:00:00 PM 10.09 50.162 118 7.37 4.02 11.82
3/29/2021 11:15:00 PM 10.07 50.126 118 7.37 3.66 11.82
3/29/2021 11:30:00 PM 10.05 50.09 118 7.36 3.92 11.81
3/29/2021 11:45:00 PM 10.04 50.072 119 7.36 3.59 11.81
3/30/2021 12:00:00 AM 10.03 50.054 118 7.36 3.86 11.8
3/30/2021 12:15:00 AM 10.02 50.036 119 7.36 3.87 11.8
3/30/2021 12:30:00 AM 10.01 50.018 119 7.36 3.55 11.79
3/30/2021 12:45:00 AM 9.99 49.982 119 7.36 3.84 11.78
3/30/2021 1:00:00 AM 9.97 49.946 119 7.35 4.01 11.78
3/30/2021 1:15:00 AM 9.96 49.928 119 7.35 3.9 11.76
3/30/2021 1:30:00 AM 9.94 49.892 119 7.35 3.82 11.76
3/30/2021 1:45:00 AM 9.91 49.838 119 7.35 3.85 11.74
3/30/2021 2:00:00 AM 9.89 49.802 119 7.34 3.7 11.74
3/30/2021 2:15:00 AM 9.86 49.748 119 7.34 3.9 11.72
3/30/2021 2:30:00 AM 9.84 49.712 120 7.34 3.55 11.72
3/30/2021 2:45:00 AM 9.8 49.64 120 7.34 3.53 11.71
3/30/2021 3:00:00 AM 9.77 49.586 120 7.33 3.21 11.69
3/30/2021 3:15:00 AM 9.74 49.532 120 7.33 3.64 11.69
3/30/2021 3:30:00 AM 9.7 49.46 120 7.33 3.42 11.68
3/30/2021 3:45:00 AM 9.66 49.388 120 7.32 3.58 11.67
3/30/2021 4:00:00 AM 9.62 49.316 120 7.32 3.49 11.66
3/30/2021 4:15:00 AM 9.58 49.244 120 7.31 3.64 11.65
3/30/2021 4:30:00 AM 9.54 49.172 121 7.31 3.6 11.64
3/30/2021 4:45:00 AM 9.5 49.1 121 7.31 3.61 11.63
3/30/2021 5:00:00 AM 9.45 49.01 121 7.3 3.5 11.63
3/30/2021 5:15:00 AM 9.41 48.938 121 7.3 3.61 11.62
3/30/2021 5:30:00 AM 9.37 48.866 121 7.3 3.22 11.61
3/30/2021 5:45:00 AM 9.32 48.776 121 7.29 3.17 11.61
3/30/2021 6:00:00 AM 9.27 48.686 121 7.29 3.4 11.61
3/30/2021 6:15:00 AM 9.23 48.614 121 7.29 3.4 11.6
3/30/2021 6:30:00 AM 9.18 48.524 122 7.28 3.41 11.61
3/30/2021 6:45:00 AM 9.15 48.47 122 7.28 3.46 11.6
3/30/2021 7:00:00 AM 9.11 48.398 122 7.28 3.51 11.61
3/30/2021 7:15:00 AM 9.07 48.326 122 7.28 3.37 11.61
3/30/2021 7:30:00 AM 9.04 48.272 122 7.28 3.81 11.61
3/30/2021 7:45:00 AM 9.01 48.218 122 7.28 3.52 11.62
3/30/2021 8:00:00 AM 8.99 48.182 122 7.28 3.24 11.62
3/30/2021 8:15:00 AM 8.98 48.164 122 7.28 3.45 11.63
3/30/2021 8:30:00 AM 8.96 48.128 123 7.28 3.82 11.64
3/30/2021 8:45:00 AM 8.96 48.128 123 7.28 3.38 11.65
3/30/2021 9:00:00 AM 8.97 48.146 123 7.28 3.28 11.66
3/30/2021 9:15:00 AM 8.98 48.164 123 7.28 3.42 11.67
3/30/2021 9:30:00 AM 9 48.2 123 7.28 3.54 11.69
3/30/2021 9:45:00 AM 9.01 48.218 123 7.28 3.49 11.7
3/30/2021 10:00:00 AM 9.51 49.118 128 7.29 2.51 11.79
3/30/2021 10:15:00 AM 9.25 48.65 125 7.27 3.12 11.73
3/30/2021 10:30:00 AM 9.13 48.434 124 7.28 3.88 11.75
3/30/2021 10:45:00 AM 9.16 48.488 124 7.29 3.75 11.76
3/30/2021 11:00:00 AM 9.2 48.56 124 7.29 3.54 11.78
3/30/2021 11:15:00 AM 9.24 48.632 124 7.29 3.33 11.79
3/30/2021 11:30:00 AM 9.31 48.758 124 7.3 3.33 11.81
3/30/2021 11:45:00 AM 9.36 48.848 124 7.3 3.7 11.82
3/30/2021 12:00:00 PM 9.41 48.938 124 7.3 4.02 11.84
3/30/2021 12:15:00 PM 9.46 49.028 124 7.31 3.56 11.86
3/30/2021 12:30:00 PM 9.52 49.136 124 7.31 3.4 11.87
3/30/2021 12:45:00 PM 9.58 49.244 124 7.32 3.83 11.88
3/30/2021 1:00:00 PM 9.64 49.352 124 7.32 3.65 11.9
3/30/2021 1:15:00 PM 9.7 49.46 124 7.33 4.12 11.9
3/30/2021 1:30:00 PM 9.75 49.55 124 7.33 4.5 11.91
3/30/2021 1:45:00 PM 9.83 49.694 124 7.33 4.13 11.92
3/30/2021 2:00:00 PM 9.89 49.802 124 7.32 3.78 11.93
3/30/2021 2:15:00 PM 9.95 49.91 124 7.34 3.98 11.94
3/30/2021 2:30:00 PM 10.01 50.018 124 7.34 3.9 11.95
3/30/2021 2:45:00 PM 10.07 50.126 124 7.35 4.03 11.96
3/30/2021 3:00:00 PM 10.12 50.216 125 7.35 3.68 11.97
3/30/2021 3:15:00 PM 10.16 50.288 124 7.35 3.96 11.98
3/30/2021 3:30:00 PM 10.2 50.36 124 7.36 3.38 11.99
3/30/2021 3:45:00 PM 10.25 50.45 124 7.36 3.91 12
3/30/2021 4:00:00 PM 10.27 50.486 124 7.36 4.18 12
3/30/2021 4:15:00 PM 10.3 50.54 124 7.37 4.07 12.01
3/30/2021 4:30:00 PM 10.32 50.576 124 7.37 4.51 12.02
3/30/2021 4:45:00 PM 10.34 50.612 124 7.38 3.9 12.04
3/30/2021 5:00:00 PM 10.36 50.648 124 7.38 3.58 12.05
3/30/2021 5:15:00 PM 10.37 50.666 124 7.39 3.97 12.06
3/30/2021 5:30:00 PM 10.38 50.684 124 7.39 4.3 12.07
3/30/2021 5:45:00 PM 10.38 50.684 124 7.39 3.44 12.08
3/30/2021 6:00:00 PM 10.37 50.666 124 7.4 3.23 12.08
3/30/2021 6:15:00 PM 10.37 50.666 124 7.4 3.63 12.1
3/30/2021 6:30:00 PM 10.37 50.666 124 7.4 3.5 12.1
3/30/2021 6:45:00 PM 10.37 50.666 124 7.4 3.9 12.11
3/30/2021 7:00:00 PM 10.36 50.648 124 7.4 3.48 12.11
3/30/2021 7:15:00 PM 10.34 50.612 124 7.4 4.06 12.11
3/30/2021 7:30:00 PM 10.52 50.936 130 7.42 3.36 12.03
3/30/2021 7:45:00 PM 10.39 50.702 129 7.3 2.6 11.97
3/30/2021 8:00:00 PM 10.31 50.558 124 7.4 4.4 12.11
3/30/2021 8:15:00 PM 10.3 50.54 124 7.41 4.16 12.12
3/30/2021 8:30:00 PM 10.28 50.504 124 7.41 4.31 12.12
3/30/2021 8:45:00 PM 10.27 50.486 124 7.41 3.74 12.12
3/30/2021 9:00:00 PM 10.26 50.468 124 7.41 4.1 12.11
3/30/2021 9:15:00 PM 10.26 50.468 124 7.4 5.33 12.1
3/30/2021 9:30:00 PM 10.25 50.45 124 7.4 4.29 12.1
3/30/2021 9:45:00 PM 10.24 50.432 125 7.4 3.29 12.1
3/30/2021 10:00:00 PM 10.23 50.414 125 7.4 3.91 12.1
3/30/2021 10:15:00 PM 10.22 50.396 125 7.4 3.66 12.09
3/30/2021 10:30:00 PM 10.22 50.396 125 7.39 3.26 12.08
3/30/2021 10:45:00 PM 10.21 50.378 125 7.39 3.74 12.07
3/30/2021 11:00:00 PM 10.21 50.378 125 7.39 3.31 12.06
3/30/2021 11:15:00 PM 10.2 50.36 125 7.38 3.56 12.05
3/30/2021 11:30:00 PM 10.2 50.36 125 7.38 4.43 12.05
3/30/2021 11:45:00 PM 10.19 50.342 125 7.38 3.8 12.04
3/31/2021 12:00:00 AM 10.19 50.342 126 7.38 3.49 12.03
3/31/2021 12:15:00 AM 10.19 50.342 126 7.37 4 12.02
3/31/2021 12:30:00 AM 10.18 50.324 126 7.37 2.97 12.01
3/31/2021 12:45:00 AM 10.17 50.306 126 7.37 3.91 11.99
3/31/2021 1:00:00 AM 10.16 50.288 126 7.37 3.24 11.98
3/31/2021 1:15:00 AM 10.15 50.27 126 7.36 2.96 11.97
3/31/2021 1:30:00 AM 10.13 50.234 126 7.36 3.8 11.96
3/31/2021 1:45:00 AM 10.12 50.216 126 7.36 2.87 11.95
3/31/2021 2:00:00 AM 10.1 50.18 126 7.35 3.35 11.94
3/31/2021 2:15:00 AM 10.08 50.144 126 7.35 3.49 11.92
3/31/2021 2:30:00 AM 10.05 50.09 127 7.35 3.24 11.9
3/31/2021 2:45:00 AM 10.03 50.054 127 7.34 3.47 11.89
3/31/2021 3:00:00 AM 10 50 127 7.34 3.39 11.88
3/31/2021 3:15:00 AM 9.98 49.964 127 7.34 2.9 11.86
3/31/2021 3:30:00 AM 9.95 49.91 127 7.33 3.72 11.84
3/31/2021 3:45:00 AM 9.92 49.856 127 7.33 4.08 11.84
3/31/2021 4:00:00 AM 9.89 49.802 127 7.32 3.42 11.82
3/31/2021 4:15:00 AM 9.87 49.766 127 7.32 3.68 11.8
3/31/2021 4:30:00 AM 9.83 49.694 127 7.31 3.15 11.8
3/31/2021 4:45:00 AM 9.8 49.64 127 7.31 3.36 11.79
3/31/2021 5:00:00 AM 9.77 49.586 127 7.3 3.42 11.77
3/31/2021 5:15:00 AM 9.75 49.55 127 7.3 3.32 11.77
3/31/2021 5:30:00 AM 9.72 49.496 128 7.3 2.77 11.75
3/31/2021 5:45:00 AM 9.7 49.46 128 7.29 3.39 11.74
3/31/2021 6:00:00 AM 9.68 49.424 128 7.29 3.46 11.73
3/31/2021 6:15:00 AM 9.65 49.37 128 7.29 3.49 11.72
3/31/2021 6:30:00 AM 9.63 49.334 128 7.28 3.36 11.71
3/31/2021 6:45:00 AM 9.6 49.28 128 7.28 2.82 11.7
3/31/2021 7:00:00 AM 9.59 49.262 128 7.28 3.54 11.69
3/31/2021 7:15:00 AM 9.57 49.226 128 7.28 3.03 11.69
3/31/2021 7:30:00 AM 9.56 49.208 128 7.27 3.1 11.69
3/31/2021 7:45:00 AM 9.55 49.19 128 7.27 3.08 11.69
3/31/2021 8:00:00 AM 9.54 49.172 128 7.27 2.64 11.69
3/31/2021 8:15:00 AM 9.54 49.172 128 7.27 2.95 11.69
3/31/2021 8:30:00 AM 9.54 49.172 128 7.27 2.96 11.69
3/31/2021 8:45:00 AM 9.55 49.19 128 7.27 2.76 11.7
3/31/2021 9:00:00 AM 9.56 49.208 128 7.27 2.89 11.7
3/31/2021 9:15:00 AM 9.57 49.226 128 7.27 3.36 11.71
3/31/2021 9:30:00 AM 9.58 49.244 128 7.28 3.1 11.71
3/31/2021 9:45:00 AM 9.59 49.262 128 7.27 3.16 11.72
3/31/2021 10:00:00 AM 9.59 49.262 128 7.28 4.01 11.72
3/31/2021 10:15:00 AM 9.6 49.28 128 7.28 3.63 11.73
3/31/2021 10:30:00 AM 9.61 49.298 128 7.28 3.04 11.74
3/31/2021 10:45:00 AM 9.61 49.298 128 7.28 2.95 11.74
3/31/2021 11:00:00 AM 9.61 49.298 128 7.28 3.24 11.74
3/31/2021 11:15:00 AM 9.61 49.298 128 7.28 3.23 11.75
3/31/2021 11:30:00 AM 9.61 49.298 128 7.28 2.79 11.76
3/31/2021 11:45:00 AM 9.61 49.298 128 7.29 3.05 11.77
3/31/2021 12:00:00 PM 9.62 49.316 128 7.29 2.96 11.78
3/31/2021 12:15:00 PM 9.63 49.334 128 7.29 3.3 11.79
3/31/2021 12:30:00 PM 9.63 49.334 128 7.29 2.86 11.8
3/31/2021 12:45:00 PM 9.63 49.334 128 7.29 3.18 11.8
3/31/2021 1:00:00 PM 9.62 49.316 128 7.29 3.35 11.8
3/31/2021 1:15:00 PM 9.62 49.316 128 7.29 3.1 11.8
3/31/2021 1:30:00 PM 9.62 49.316 129 7.29 3.71 11.81
3/31/2021 1:45:00 PM 9.62 49.316 129 7.29 3.62 11.81
3/31/2021 2:00:00 PM 9.61 49.298 129 7.29 2.93 11.82
3/31/2021 2:15:00 PM 9.61 49.298 129 7.29 2.91 11.82
3/31/2021 2:30:00 PM 9.6 49.28 129 7.3 3 11.82
3/31/2021 2:45:00 PM 9.6 49.28 128 7.3 2.83 11.83
3/31/2021 3:00:00 PM 9.6 49.28 128 7.3 2.89 11.84
3/31/2021 3:15:00 PM 9.61 49.298 128 7.3 2.86 11.85
3/31/2021 3:30:00 PM 9.62 49.316 128 7.3